PWSweather.com
Personal Weather Stations
Station Observations
KMNHANSK2
Andys Live Weather Stations, Hanska, MN 56041

Andys Live Weather StationsHanska, MN 56041

Lat: 44.170119, Lon: -94.381619

Elevation: 1004

Station Type: Davis Instruments Vantage Pro2 Plus

http://www.madeliasliveweather.com/thompsonfarms/

High Low Average
Temperature 30.4°F-0.9°F 7.6°F-13.6°F 20.1°F-6.6°F
Dew Point 28.0°F-2.2°F 0.8°F-17.3°F 16.3°F-8.7°F
Winds 37.0 mph NW59.5 mph NW Calm Calm 14.7 mph 23.7 mph
Wind Gusts 40.0 mph64.4 mph 1.0 mph1.6 mph 20.2 mph32.5 mph
Humidity 93% 73% 85%
Pressure 30.14 in1020.70 in 29.74 in1007.10 in -
Precipitation 0.00 in0.00 in - -
Hour Temp Dew Point Humidity Winds Wind Gusts Pressure Precip Precip Rate Daily Precip Total
12:00 AM 23.1°F-4.9°C 18.7°F-7.4°C 83% 12.0 mph SE19.3 kmh SE 15.0 mph24.1 kmh 30.05 in1017.6 mb 0.00 in0.0 mm 0.00 in/hr0.0 mm/hr 0.00 in0.0 mm
12:01 AM 23.1°F-4.9°C 18.7°F-7.4°C 83% 10.0 mph SE16.1 kmh SE 15.0 mph24.1 kmh 30.05 in1017.6 mb 0.00 in0.0 mm 0.00 in/hr0.0 mm/hr 0.00 in0.0 mm
12:02 AM 23.1°F-4.9°C 19.0°F-7.2°C 84% 11.0 mph SSE17.7 kmh SSE 14.0 mph22.5 kmh 30.05 in1017.6 mb 0.00 in0.0 mm 0.00 in/hr0.0 mm/hr 0.00 in0.0 mm
12:03 AM 23.1°F-4.9°C 19.0°F-7.2°C 84% 10.0 mph SSE16.1 kmh SSE 14.0 mph22.5 kmh 30.05 in1017.6 mb 0.00 in0.0 mm 0.00 in/hr0.0 mm/hr 0.00 in0.0 mm
12:04 AM 23.1°F-4.9°C 19.0°F-7.2°C 84% 13.0 mph SE20.9 kmh SE 14.0 mph22.5 kmh 30.04 in1017.3 mb 0.00 in0.0 mm 0.00 in/hr0.0 mm/hr 0.00 in0.0 mm
12:05 AM 23.1°F-4.9°C 19.0°F-7.2°C 84% 10.0 mph SSE16.1 kmh SSE 14.0 mph22.5 kmh 30.05 in1017.6 mb 0.00 in0.0 mm 0.00 in/hr0.0 mm/hr 0.00 in0.0 mm
12:06 AM 23.1°F-4.9°C 19.0°F-7.2°C 84% 11.0 mph SE17.7 kmh SE 14.0 mph22.5 kmh 30.04 in1017.3 mb 0.00 in0.0 mm 0.00 in/hr0.0 mm/hr 0.00 in0.0 mm
12:07 AM 23.1°F-4.9°C 19.0°F-7.2°C 84% 10.0 mph SE16.1 kmh SE 14.0 mph22.5 kmh 30.04 in1017.3 mb 0.00 in0.0 mm 0.00 in/hr0.0 mm/hr 0.00 in0.0 mm
12:08 AM 23.1°F-4.9°C 19.0°F-7.2°C 84% 10.0 mph SE16.1 kmh SE 14.0 mph22.5 kmh 30.04 in1017.3 mb 0.00 in0.0 mm 0.00 in/hr0.0 mm/hr 0.00 in0.0 mm
12:09 AM 23.1°F-4.9°C 19.0°F-7.2°C 84% 12.0 mph SE19.3 kmh SE 15.0 mph24.1 kmh 30.04 in1017.3 mb 0.00 in0.0 mm 0.00 in/hr0.0 mm/hr 0.00 in0.0 mm
12:10 AM 23.1°F-4.9°C 19.0°F-7.2°C 84% 11.0 mph SE17.7 kmh SE 15.0 mph24.1 kmh 30.04 in1017.3 mb 0.00 in0.0 mm 0.00 in/hr0.0 mm/hr 0.00 in0.0 mm
12:11 AM 23.1°F-4.9°C 19.0°F-7.2°C 84% 12.0 mph SE19.3 kmh SE 15.0 mph24.1 kmh 30.04 in1017.3 mb 0.00 in0.0 mm 0.00 in/hr0.0 mm/hr 0.00 in0.0 mm
12:12 AM 23.1°F-4.9°C 19.0°F-7.2°C 84% 10.0 mph SE16.1 kmh SE 15.0 mph24.1 kmh 30.04 in1017.3 mb 0.00 in0.0 mm 0.00 in/hr0.0 mm/hr 0.00 in0.0 mm
12:13 AM 23.2°F-4.9°C 19.1°F-7.2°C 84% 13.0 mph SE20.9 kmh SE 16.0 mph25.7 kmh 30.04 in1017.3 mb 0.00 in0.0 mm 0.00 in/hr0.0 mm/hr 0.00 in0.0 mm
12:14 AM 23.2°F-4.9°C 19.1°F-7.2°C 84% 9.0 mph SE14.5 kmh SE 16.0 mph25.7 kmh 30.04 in1017.3 mb 0.00 in0.0 mm 0.00 in/hr0.0 mm/hr 0.00 in0.0 mm
12:15 AM 23.2°F-4.9°C 19.1°F-7.2°C 84% 14.0 mph SE22.5 kmh SE 16.0 mph25.7 kmh 30.03 in1016.9 mb 0.00 in0.0 mm 0.00 in/hr0.0 mm/hr 0.00 in0.0 mm
12:16 AM 23.2°F-4.9°C 19.1°F-7.2°C 84% 10.0 mph SE16.1 kmh SE 16.0 mph25.7 kmh 30.03 in1016.9 mb 0.00 in0.0 mm 0.00 in/hr0.0 mm/hr 0.00 in0.0 mm
12:17 AM 23.2°F-4.9°C 18.8°F-7.3°C 83% 12.0 mph SE19.3 kmh SE 16.0 mph25.7 kmh 30.03 in1016.9 mb 0.00 in0.0 mm 0.00 in/hr0.0 mm/hr 0.00 in0.0 mm
12:18 AM 23.2°F-4.9°C 18.8°F-7.3°C 83% 10.0 mph SE16.1 kmh SE 16.0 mph25.7 kmh 30.03 in1016.9 mb 0.00 in0.0 mm 0.00 in/hr0.0 mm/hr 0.00 in0.0 mm
12:19 AM 23.2°F-4.9°C 18.8°F-7.3°C 83% 9.0 mph SE14.5 kmh SE 16.0 mph25.7 kmh 30.03 in1016.9 mb 0.00 in0.0 mm 0.00 in/hr0.0 mm/hr 0.00 in0.0 mm
12:20 AM 23.2°F-4.9°C 18.8°F-7.3°C 83% 9.0 mph SE14.5 kmh SE 16.0 mph25.7 kmh 30.03 in1016.9 mb 0.00 in0.0 mm 0.00 in/hr0.0 mm/hr 0.00 in0.0 mm
12:21 AM 23.2°F-4.9°C 18.8°F-7.3°C 83% 10.0 mph SE16.1 kmh SE 16.0 mph25.7 kmh 30.03 in1016.9 mb 0.00 in0.0 mm 0.00 in/hr0.0 mm/hr 0.00 in0.0 mm
12:22 AM 23.2°F-4.9°C 18.8°F-7.3°C 83% 11.0 mph SE17.7 kmh SE 16.0 mph25.7 kmh 30.03 in1016.9 mb 0.00 in0.0 mm 0.00 in/hr0.0 mm/hr 0.00 in0.0 mm
12:23 AM 23.2°F-4.9°C 18.8°F-7.3°C 83% 10.0 mph SE16.1 kmh SE 16.0 mph25.7 kmh 30.03 in1016.9 mb 0.00 in0.0 mm 0.00 in/hr0.0 mm/hr 0.00 in0.0 mm
12:24 AM 23.2°F-4.9°C 18.8°F-7.3°C 83% 12.0 mph SE19.3 kmh SE 16.0 mph25.7 kmh 30.03 in1016.9 mb 0.00 in0.0 mm 0.00 in/hr0.0 mm/hr 0.00 in0.0 mm
12:25 AM 23.2°F-4.9°C 18.8°F-7.3°C 83% 15.0 mph SE24.1 kmh SE 16.0 mph25.7 kmh 30.02 in1016.6 mb 0.00 in0.0 mm 0.00 in/hr0.0 mm/hr 0.00 in0.0 mm
12:26 AM 23.3°F-4.8°C 18.9°F-7.3°C 83% 10.0 mph SE16.1 kmh SE 16.0 mph25.7 kmh 30.02 in1016.6 mb 0.00 in0.0 mm 0.00 in/hr0.0 mm/hr 0.00 in0.0 mm
12:27 AM 23.3°F-4.8°C 18.9°F-7.3°C 83% 13.0 mph SE20.9 kmh SE 16.0 mph25.7 kmh 30.02 in1016.6 mb 0.00 in0.0 mm 0.00 in/hr0.0 mm/hr 0.00 in0.0 mm
12:28 AM 23.3°F-4.8°C 18.9°F-7.3°C 83% 12.0 mph SE19.3 kmh SE 16.0 mph25.7 kmh 30.02 in1016.6 mb 0.00 in0.0 mm 0.00 in/hr0.0 mm/hr 0.00 in0.0 mm
12:29 AM 23.3°F-4.8°C 18.9°F-7.3°C 83% 13.0 mph SE20.9 kmh SE 16.0 mph25.7 kmh 30.02 in1016.6 mb 0.00 in0.0 mm 0.00 in/hr0.0 mm/hr 0.00 in0.0 mm
12:30 AM 23.3°F-4.8°C 18.9°F-7.3°C 83% 14.0 mph SE22.5 kmh SE 16.0 mph25.7 kmh 30.02 in1016.6 mb 0.00 in0.0 mm 0.00 in/hr0.0 mm/hr 0.00 in0.0 mm
12:31 AM 23.3°F-4.8°C 18.9°F-7.3°C 83% 14.0 mph SE22.5 kmh SE 16.0 mph25.7 kmh 30.02 in1016.6 mb 0.00 in0.0 mm 0.00 in/hr0.0 mm/hr 0.00 in0.0 mm
12:32 AM 23.3°F-4.8°C 18.9°F-7.3°C 83% 11.0 mph SE17.7 kmh SE 13.0 mph20.9 kmh 30.02 in1016.6 mb 0.00 in0.0 mm 0.00 in/hr0.0 mm/hr 0.00 in0.0 mm
12:33 AM 23.3°F-4.8°C 18.9°F-7.3°C 83% 11.0 mph SE17.7 kmh SE 13.0 mph20.9 kmh 30.02 in1016.6 mb 0.00 in0.0 mm 0.00 in/hr0.0 mm/hr 0.00 in0.0 mm
12:34 AM 23.3°F-4.8°C 18.9°F-7.3°C 83% 12.0 mph SSE19.3 kmh SSE 14.0 mph22.5 kmh 30.01 in1016.3 mb 0.00 in0.0 mm 0.00 in/hr0.0 mm/hr 0.00 in0.0 mm
12:35 AM 23.3°F-4.8°C 18.9°F-7.3°C 83% 12.0 mph SE19.3 kmh SE 14.0 mph22.5 kmh 30.01 in1016.3 mb 0.00 in0.0 mm 0.00 in/hr0.0 mm/hr 0.00 in0.0 mm
12:36 AM 23.3°F-4.8°C 18.9°F-7.3°C 83% 12.0 mph SE19.3 kmh SE 14.0 mph22.5 kmh 30.01 in1016.3 mb 0.00 in0.0 mm 0.00 in/hr0.0 mm/hr 0.00 in0.0 mm
12:37 AM 23.3°F-4.8°C 18.9°F-7.3°C 83% 13.0 mph SSE20.9 kmh SSE 14.0 mph22.5 kmh 30.01 in1016.3 mb 0.00 in0.0 mm 0.00 in/hr0.0 mm/hr 0.00 in0.0 mm
12:38 AM 23.3°F-4.8°C 18.9°F-7.3°C 83% 12.0 mph SE19.3 kmh SE 15.0 mph24.1 kmh 30.01 in1016.3 mb 0.00 in0.0 mm 0.00 in/hr0.0 mm/hr 0.00 in0.0 mm
12:39 AM 23.3°F-4.8°C 18.9°F-7.3°C 83% 15.0 mph SSE24.1 kmh SSE 16.0 mph25.7 kmh 30.01 in1016.3 mb 0.00 in0.0 mm 0.00 in/hr0.0 mm/hr 0.00 in0.0 mm
12:40 AM 23.3°F-4.8°C 18.9°F-7.3°C 83% 13.0 mph SE20.9 kmh SE 16.0 mph25.7 kmh 30.01 in1016.3 mb 0.00 in0.0 mm 0.00 in/hr0.0 mm/hr 0.00 in0.0 mm
12:41 AM 23.3°F-4.8°C 18.9°F-7.3°C 83% 13.0 mph SE20.9 kmh SE 16.0 mph25.7 kmh 30.01 in1016.3 mb 0.00 in0.0 mm 0.00 in/hr0.0 mm/hr 0.00 in0.0 mm
12:42 AM 23.3°F-4.8°C 18.9°F-7.3°C 83% 9.0 mph SE14.5 kmh SE 16.0 mph25.7 kmh 30.01 in1016.3 mb 0.00 in0.0 mm 0.00 in/hr0.0 mm/hr 0.00 in0.0 mm
12:43 AM 23.3°F-4.8°C 18.9°F-7.3°C 83% 11.0 mph SE17.7 kmh SE 16.0 mph25.7 kmh 30.01 in1016.3 mb 0.00 in0.0 mm 0.00 in/hr0.0 mm/hr 0.00 in0.0 mm
12:44 AM 23.3°F-4.8°C 18.9°F-7.3°C 83% 11.0 mph SE17.7 kmh SE 16.0 mph25.7 kmh 30.01 in1016.3 mb 0.00 in0.0 mm 0.00 in/hr0.0 mm/hr 0.00 in0.0 mm
12:45 AM 23.3°F-4.8°C 18.9°F-7.3°C 83% 14.0 mph SE22.5 kmh SE 16.0 mph25.7 kmh 30.01 in1016.3 mb 0.00 in0.0 mm 0.00 in/hr0.0 mm/hr 0.00 in0.0 mm
12:46 AM 23.3°F-4.8°C 18.9°F-7.3°C 83% 13.0 mph SE20.9 kmh SE 16.0 mph25.7 kmh 30.00 in1015.9 mb 0.00 in0.0 mm 0.00 in/hr0.0 mm/hr 0.00 in0.0 mm
12:47 AM 23.3°F-4.8°C 18.9°F-7.3°C 83% 11.0 mph SE17.7 kmh SE 17.0 mph27.4 kmh 30.00 in1015.9 mb 0.00 in0.0 mm 0.00 in/hr0.0 mm/hr 0.00 in0.0 mm
12:48 AM 23.3°F-4.8°C 18.9°F-7.3°C 83% 13.0 mph SE20.9 kmh SE 17.0 mph27.4 kmh 30.00 in1015.9 mb 0.00 in0.0 mm 0.00 in/hr0.0 mm/hr 0.00 in0.0 mm
12:49 AM 23.3°F-4.8°C 18.9°F-7.3°C 83% 10.0 mph SE16.1 kmh SE 17.0 mph27.4 kmh 30.00 in1015.9 mb 0.00 in0.0 mm 0.00 in/hr0.0 mm/hr 0.00 in0.0 mm
12:50 AM 23.3°F-4.8°C 18.9°F-7.3°C 83% 11.0 mph SE17.7 kmh SE 17.0 mph27.4 kmh 30.00 in1015.9 mb 0.00 in0.0 mm 0.00 in/hr0.0 mm/hr 0.00 in0.0 mm
12:51 AM 23.3°F-4.8°C 18.9°F-7.3°C 83% 10.0 mph SE16.1 kmh SE 17.0 mph27.4 kmh 30.00 in1015.9 mb 0.00 in0.0 mm 0.00 in/hr0.0 mm/hr 0.00 in0.0 mm
12:52 AM 23.3°F-4.8°C 18.9°F-7.3°C 83% 12.0 mph SE19.3 kmh SE 17.0 mph27.4 kmh 30.00 in1015.9 mb 0.00 in0.0 mm 0.00 in/hr0.0 mm/hr 0.00 in0.0 mm
12:53 AM 23.3°F-4.8°C 18.9°F-7.3°C 83% 12.0 mph SE19.3 kmh SE 17.0 mph27.4 kmh 30.00 in1015.9 mb 0.00 in0.0 mm 0.00 in/hr0.0 mm/hr 0.00 in0.0 mm
12:54 AM 23.3°F-4.8°C 18.9°F-7.3°C 83% 12.0 mph SE19.3 kmh SE 17.0 mph27.4 kmh 30.00 in1015.9 mb 0.00 in0.0 mm 0.00 in/hr0.0 mm/hr 0.00 in0.0 mm
12:55 AM 23.3°F-4.8°C 18.9°F-7.3°C 83% 12.0 mph SE19.3 kmh SE 17.0 mph27.4 kmh 29.99 in1015.6 mb 0.00 in0.0 mm 0.00 in/hr0.0 mm/hr 0.00 in0.0 mm
12:56 AM 23.3°F-4.8°C 18.9°F-7.3°C 83% 14.0 mph SE22.5 kmh SE 17.0 mph27.4 kmh 29.99 in1015.6 mb 0.00 in0.0 mm 0.00 in/hr0.0 mm/hr 0.00 in0.0 mm
12:57 AM 23.3°F-4.8°C 18.9°F-7.3°C 83% 15.0 mph SE24.1 kmh SE 17.0 mph27.4 kmh 29.99 in1015.6 mb 0.00 in0.0 mm 0.00 in/hr0.0 mm/hr 0.00 in0.0 mm
12:58 AM 23.3°F-4.8°C 18.9°F-7.3°C 83% 12.0 mph SE19.3 kmh SE 17.0 mph27.4 kmh 29.99 in1015.6 mb 0.00 in0.0 mm 0.00 in/hr0.0 mm/hr 0.00 in0.0 mm
12:59 AM 23.3°F-4.8°C 18.9°F-7.3°C 83% 10.0 mph SSE16.1 kmh SSE 17.0 mph27.4 kmh 29.99 in1015.6 mb 0.00 in0.0 mm 0.00 in/hr0.0 mm/hr 0.00 in0.0 mm
01:00 AM 23.3°F-4.8°C 18.9°F-7.3°C 83% 11.0 mph SE17.7 kmh SE 17.0 mph27.4 kmh 29.99 in1015.6 mb 0.00 in0.0 mm 0.00 in/hr0.0 mm/hr 0.00 in0.0 mm
01:01 AM 23.2°F-4.9°C 18.8°F-7.3°C 83% 14.0 mph SE22.5 kmh SE 17.0 mph27.4 kmh 29.99 in1015.6 mb 0.00 in0.0 mm 0.00 in/hr0.0 mm/hr 0.00 in0.0 mm
01:02 AM 23.2°F-4.9°C 18.8°F-7.3°C 83% 16.0 mph SE25.7 kmh SE 17.0 mph27.4 kmh 29.99 in1015.6 mb 0.00 in0.0 mm 0.00 in/hr0.0 mm/hr 0.00 in0.0 mm
01:03 AM 23.3°F-4.8°C 18.9°F-7.3°C 83% 12.0 mph SE19.3 kmh SE 17.0 mph27.4 kmh 29.99 in1015.6 mb 0.00 in0.0 mm 0.00 in/hr0.0 mm/hr 0.00 in0.0 mm
01:04 AM 23.3°F-4.8°C 18.9°F-7.3°C 83% 13.0 mph SE20.9 kmh SE 17.0 mph27.4 kmh 29.99 in1015.6 mb 0.00 in0.0 mm 0.00 in/hr0.0 mm/hr 0.00 in0.0 mm
01:05 AM 23.2°F-4.9°C 18.8°F-7.3°C 83% 13.0 mph SE20.9 kmh SE 17.0 mph27.4 kmh 29.99 in1015.6 mb 0.00 in0.0 mm 0.00 in/hr0.0 mm/hr 0.00 in0.0 mm
01:06 AM 23.3°F-4.8°C 18.9°F-7.3°C 83% 14.0 mph SE22.5 kmh SE 18.0 mph29.0 kmh 29.99 in1015.6 mb 0.00 in0.0 mm 0.00 in/hr0.0 mm/hr 0.00 in0.0 mm
01:07 AM 23.2°F-4.9°C 18.8°F-7.3°C 83% 14.0 mph SE22.5 kmh SE 18.0 mph29.0 kmh 29.99 in1015.6 mb 0.00 in0.0 mm 0.00 in/hr0.0 mm/hr 0.00 in0.0 mm
01:08 AM 23.2°F-4.9°C 18.8°F-7.3°C 83% 12.0 mph SE19.3 kmh SE 18.0 mph29.0 kmh 29.98 in1015.2 mb 0.00 in0.0 mm 0.00 in/hr0.0 mm/hr 0.00 in0.0 mm
01:09 AM 23.2°F-4.9°C 18.8°F-7.3°C 83% 14.0 mph SE22.5 kmh SE 18.0 mph29.0 kmh 29.98 in1015.2 mb 0.00 in0.0 mm 0.00 in/hr0.0 mm/hr 0.00 in0.0 mm
01:10 AM 23.2°F-4.9°C 18.8°F-7.3°C 83% 12.0 mph SE19.3 kmh SE 18.0 mph29.0 kmh 29.98 in1015.2 mb 0.00 in0.0 mm 0.00 in/hr0.0 mm/hr 0.00 in0.0 mm
01:11 AM 23.3°F-4.8°C 18.9°F-7.3°C 83% 13.0 mph SE20.9 kmh SE 18.0 mph29.0 kmh 29.98 in1015.2 mb 0.00 in0.0 mm 0.00 in/hr0.0 mm/hr 0.00 in0.0 mm
01:12 AM 23.2°F-4.9°C 18.8°F-7.3°C 83% 12.0 mph SE19.3 kmh SE 18.0 mph29.0 kmh 29.98 in1015.2 mb 0.00 in0.0 mm 0.00 in/hr0.0 mm/hr 0.00 in0.0 mm
01:13 AM 23.2°F-4.9°C 18.8°F-7.3°C 83% 14.0 mph SE22.5 kmh SE 18.0 mph29.0 kmh 29.98 in1015.2 mb 0.00 in0.0 mm 0.00 in/hr0.0 mm/hr 0.00 in0.0 mm
01:14 AM 23.3°F-4.8°C 18.9°F-7.3°C 83% 13.0 mph SE20.9 kmh SE 18.0 mph29.0 kmh 29.98 in1015.2 mb 0.00 in0.0 mm 0.00 in/hr0.0 mm/hr 0.00 in0.0 mm
01:15 AM 23.3°F-4.8°C 18.9°F-7.3°C 83% 15.0 mph SE24.1 kmh SE 18.0 mph29.0 kmh 29.98 in1015.2 mb 0.00 in0.0 mm 0.00 in/hr0.0 mm/hr 0.00 in0.0 mm
01:16 AM 23.3°F-4.8°C 18.9°F-7.3°C 83% 12.0 mph SE19.3 kmh SE 18.0 mph29.0 kmh 29.98 in1015.2 mb 0.00 in0.0 mm 0.00 in/hr0.0 mm/hr 0.00 in0.0 mm
01:17 AM 23.3°F-4.8°C 18.9°F-7.3°C 83% 11.0 mph SE17.7 kmh SE 19.0 mph30.6 kmh 29.98 in1015.2 mb 0.00 in0.0 mm 0.00 in/hr0.0 mm/hr 0.00 in0.0 mm
01:18 AM 23.3°F-4.8°C 18.9°F-7.3°C 83% 12.0 mph SE19.3 kmh SE 19.0 mph30.6 kmh 29.97 in1014.9 mb 0.00 in0.0 mm 0.00 in/hr0.0 mm/hr 0.00 in0.0 mm
01:19 AM 23.2°F-4.9°C 18.8°F-7.3°C 83% 11.0 mph SSE17.7 kmh SSE 19.0 mph30.6 kmh 29.97 in1014.9 mb 0.00 in0.0 mm 0.00 in/hr0.0 mm/hr 0.00 in0.0 mm
01:20 AM 23.3°F-4.8°C 18.9°F-7.3°C 83% 14.0 mph SE22.5 kmh SE 19.0 mph30.6 kmh 29.97 in1014.9 mb 0.00 in0.0 mm 0.00 in/hr0.0 mm/hr 0.00 in0.0 mm
01:21 AM 23.3°F-4.8°C 18.9°F-7.3°C 83% 14.0 mph SE22.5 kmh SE 19.0 mph30.6 kmh 29.98 in1015.2 mb 0.00 in0.0 mm 0.00 in/hr0.0 mm/hr 0.00 in0.0 mm
01:22 AM 23.3°F-4.8°C 18.9°F-7.3°C 83% 13.0 mph SE20.9 kmh SE 19.0 mph30.6 kmh 29.97 in1014.9 mb 0.00 in0.0 mm 0.00 in/hr0.0 mm/hr 0.00 in0.0 mm
01:23 AM 23.3°F-4.8°C 18.9°F-7.3°C 83% 13.0 mph SE20.9 kmh SE 19.0 mph30.6 kmh 29.97 in1014.9 mb 0.00 in0.0 mm 0.00 in/hr0.0 mm/hr 0.00 in0.0 mm
01:24 AM 23.3°F-4.8°C 18.9°F-7.3°C 83% 11.0 mph SE17.7 kmh SE 19.0 mph30.6 kmh 29.97 in1014.9 mb 0.00 in0.0 mm 0.00 in/hr0.0 mm/hr 0.00 in0.0 mm
01:25 AM 23.3°F-4.8°C 18.9°F-7.3°C 83% 12.0 mph SE19.3 kmh SE 19.0 mph30.6 kmh 29.97 in1014.9 mb 0.00 in0.0 mm 0.00 in/hr0.0 mm/hr 0.00 in0.0 mm
01:26 AM 23.3°F-4.8°C 18.9°F-7.3°C 83% 14.0 mph SE22.5 kmh SE 19.0 mph30.6 kmh 29.97 in1014.9 mb 0.00 in0.0 mm 0.00 in/hr0.0 mm/hr 0.00 in0.0 mm
01:27 AM 23.3°F-4.8°C 18.9°F-7.3°C 83% 16.0 mph SE25.7 kmh SE 19.0 mph30.6 kmh 29.97 in1014.9 mb 0.00 in0.0 mm 0.00 in/hr0.0 mm/hr 0.00 in0.0 mm
01:28 AM 23.3°F-4.8°C 18.9°F-7.3°C 83% 12.0 mph SE19.3 kmh SE 19.0 mph30.6 kmh 29.97 in1014.9 mb 0.00 in0.0 mm 0.00 in/hr0.0 mm/hr 0.00 in0.0 mm
01:29 AM 23.3°F-4.8°C 18.9°F-7.3°C 83% 12.0 mph SE19.3 kmh SE 19.0 mph30.6 kmh 29.97 in1014.9 mb 0.00 in0.0 mm 0.00 in/hr0.0 mm/hr 0.00 in0.0 mm
01:30 AM 23.3°F-4.8°C 18.9°F-7.3°C 83% 16.0 mph SE25.7 kmh SE 19.0 mph30.6 kmh 29.96 in1014.6 mb 0.00 in0.0 mm 0.00 in/hr0.0 mm/hr 0.00 in0.0 mm
01:31 AM 23.3°F-4.8°C 18.9°F-7.3°C 83% 16.0 mph SE25.7 kmh SE 19.0 mph30.6 kmh 29.96 in1014.6 mb 0.00 in0.0 mm 0.00 in/hr0.0 mm/hr 0.00 in0.0 mm
01:32 AM 23.3°F-4.8°C 18.9°F-7.3°C 83% 11.0 mph SE17.7 kmh SE 12.0 mph19.3 kmh 29.96 in1014.6 mb 0.00 in0.0 mm 0.00 in/hr0.0 mm/hr 0.00 in0.0 mm
01:33 AM 23.3°F-4.8°C 18.9°F-7.3°C 83% 13.0 mph SE20.9 kmh SE 16.0 mph25.7 kmh 29.96 in1014.6 mb 0.00 in0.0 mm 0.00 in/hr0.0 mm/hr 0.00 in0.0 mm
01:34 AM 23.3°F-4.8°C 18.9°F-7.3°C 83% 12.0 mph SE19.3 kmh SE 16.0 mph25.7 kmh 29.96 in1014.6 mb 0.00 in0.0 mm 0.00 in/hr0.0 mm/hr 0.00 in0.0 mm
01:35 AM 23.3°F-4.8°C 18.9°F-7.3°C 83% 19.0 mph SE30.6 kmh SE 19.0 mph30.6 kmh 29.96 in1014.6 mb 0.00 in0.0 mm 0.00 in/hr0.0 mm/hr 0.00 in0.0 mm
01:36 AM 23.3°F-4.8°C 18.9°F-7.3°C 83% 15.0 mph SE24.1 kmh SE 19.0 mph30.6 kmh 29.96 in1014.6 mb 0.00 in0.0 mm 0.00 in/hr0.0 mm/hr 0.00 in0.0 mm
01:37 AM 23.3°F-4.8°C 18.9°F-7.3°C 83% 14.0 mph SE22.5 kmh SE 19.0 mph30.6 kmh 29.96 in1014.6 mb 0.00 in0.0 mm 0.00 in/hr0.0 mm/hr 0.00 in0.0 mm
01:38 AM 23.3°F-4.8°C 18.9°F-7.3°C 83% 13.0 mph SSE20.9 kmh SSE 19.0 mph30.6 kmh 29.96 in1014.6 mb 0.00 in0.0 mm 0.00 in/hr0.0 mm/hr 0.00 in0.0 mm
01:39 AM 23.3°F-4.8°C 18.9°F-7.3°C 83% 10.0 mph SE16.1 kmh SE 19.0 mph30.6 kmh 29.96 in1014.6 mb 0.00 in0.0 mm 0.00 in/hr0.0 mm/hr 0.00 in0.0 mm
01:40 AM 23.3°F-4.8°C 18.9°F-7.3°C 83% 13.0 mph SE20.9 kmh SE 19.0 mph30.6 kmh 29.96 in1014.6 mb 0.00 in0.0 mm 0.00 in/hr0.0 mm/hr 0.00 in0.0 mm
01:41 AM 23.3°F-4.8°C 18.9°F-7.3°C 83% 12.0 mph SE19.3 kmh SE 19.0 mph30.6 kmh 29.96 in1014.6 mb 0.00 in0.0 mm 0.00 in/hr0.0 mm/hr 0.00 in0.0 mm
01:42 AM 23.3°F-4.8°C 18.9°F-7.3°C 83% 11.0 mph SE17.7 kmh SE 19.0 mph30.6 kmh 29.96 in1014.6 mb 0.00 in0.0 mm 0.00 in/hr0.0 mm/hr 0.00 in0.0 mm
01:43 AM 23.3°F-4.8°C 18.9°F-7.3°C 83% 16.0 mph SE25.7 kmh SE 19.0 mph30.6 kmh 29.96 in1014.6 mb 0.00 in0.0 mm 0.00 in/hr0.0 mm/hr 0.00 in0.0 mm
01:44 AM 23.3°F-4.8°C 18.9°F-7.3°C 83% 12.0 mph SE19.3 kmh SE 19.0 mph30.6 kmh 29.96 in1014.6 mb 0.00 in0.0 mm 0.00 in/hr0.0 mm/hr 0.00 in0.0 mm
01:45 AM 23.3°F-4.8°C 18.9°F-7.3°C 83% 15.0 mph SSE24.1 kmh SSE 19.0 mph30.6 kmh 29.96 in1014.6 mb 0.00 in0.0 mm 0.00 in/hr0.0 mm/hr 0.00 in0.0 mm
01:46 AM 23.4°F-4.8°C 19.0°F-7.2°C 83% 13.0 mph SE20.9 kmh SE 19.0 mph30.6 kmh 29.96 in1014.6 mb 0.00 in0.0 mm 0.00 in/hr0.0 mm/hr 0.00 in0.0 mm
01:47 AM 23.3°F-4.8°C 18.9°F-7.3°C 83% 15.0 mph SE24.1 kmh SE 19.0 mph30.6 kmh 29.95 in1014.2 mb 0.00 in0.0 mm 0.00 in/hr0.0 mm/hr 0.00 in0.0 mm
01:48 AM 23.3°F-4.8°C 18.9°F-7.3°C 83% 12.0 mph SSE19.3 kmh SSE 19.0 mph30.6 kmh 29.96 in1014.6 mb 0.00 in0.0 mm 0.00 in/hr0.0 mm/hr 0.00 in0.0 mm
01:49 AM 23.4°F-4.8°C 19.0°F-7.2°C 83% 11.0 mph SE17.7 kmh SE 19.0 mph30.6 kmh 29.95 in1014.2 mb 0.00 in0.0 mm 0.00 in/hr0.0 mm/hr 0.00 in0.0 mm
01:50 AM 23.4°F-4.8°C 19.0°F-7.2°C 83% 13.0 mph SE20.9 kmh SE 19.0 mph30.6 kmh 29.95 in1014.2 mb 0.00 in0.0 mm 0.00 in/hr0.0 mm/hr 0.00 in0.0 mm
01:51 AM 23.4°F-4.8°C 19.0°F-7.2°C 83% 13.0 mph SE20.9 kmh SE 19.0 mph30.6 kmh 29.95 in1014.2 mb 0.00 in0.0 mm 0.00 in/hr0.0 mm/hr 0.00 in0.0 mm
01:52 AM 23.4°F-4.8°C 19.0°F-7.2°C 83% 14.0 mph SE22.5 kmh SE 19.0 mph30.6 kmh 29.95 in1014.2 mb 0.00 in0.0 mm 0.00 in/hr0.0 mm/hr 0.00 in0.0 mm
01:53 AM 23.4°F-4.8°C 19.0°F-7.2°C 83% 15.0 mph SE24.1 kmh SE 19.0 mph30.6 kmh 29.95 in1014.2 mb 0.00 in0.0 mm 0.00 in/hr0.0 mm/hr 0.00 in0.0 mm
01:54 AM 23.4°F-4.8°C 19.0°F-7.2°C 83% 13.0 mph SE20.9 kmh SE 19.0 mph30.6 kmh 29.95 in1014.2 mb 0.00 in0.0 mm 0.00 in/hr0.0 mm/hr 0.00 in0.0 mm
01:55 AM 23.4°F-4.8°C 19.0°F-7.2°C 83% 13.0 mph SE20.9 kmh SE 19.0 mph30.6 kmh 29.95 in1014.2 mb 0.00 in0.0 mm 0.00 in/hr0.0 mm/hr 0.00 in0.0 mm
01:56 AM 23.4°F-4.8°C 19.0°F-7.2°C 83% 13.0 mph SE20.9 kmh SE 19.0 mph30.6 kmh 29.95 in1014.2 mb 0.00 in0.0 mm 0.00 in/hr0.0 mm/hr 0.00 in0.0 mm
01:57 AM 23.4°F-4.8°C 19.0°F-7.2°C 83% 15.0 mph SSE24.1 kmh SSE 19.0 mph30.6 kmh 29.95 in1014.2 mb 0.00 in0.0 mm 0.00 in/hr0.0 mm/hr 0.00 in0.0 mm
01:58 AM 23.4°F-4.8°C 19.0°F-7.2°C 83% 16.0 mph SE25.7 kmh SE 19.0 mph30.6 kmh 29.95 in1014.2 mb 0.00 in0.0 mm 0.00 in/hr0.0 mm/hr 0.00 in0.0 mm
01:59 AM 23.4°F-4.8°C 19.0°F-7.2°C 83% 14.0 mph SE22.5 kmh SE 19.0 mph30.6 kmh 29.95 in1014.2 mb 0.00 in0.0 mm 0.00 in/hr0.0 mm/hr 0.00 in0.0 mm
02:00 AM 23.4°F-4.8°C 19.0°F-7.2°C 83% 11.0 mph SE17.7 kmh SE 19.0 mph30.6 kmh 29.95 in1014.2 mb 0.00 in0.0 mm 0.00 in/hr0.0 mm/hr 0.00 in0.0 mm
02:01 AM 23.4°F-4.8°C 19.0°F-7.2°C 83% 14.0 mph SE22.5 kmh SE 19.0 mph30.6 kmh 29.94 in1013.9 mb 0.00 in0.0 mm 0.00 in/hr0.0 mm/hr 0.00 in0.0 mm
02:02 AM 23.4°F-4.8°C 19.0°F-7.2°C 83% 16.0 mph SE25.7 kmh SE 16.0 mph25.7 kmh 29.94 in1013.9 mb 0.00 in0.0 mm 0.00 in/hr0.0 mm/hr 0.00 in0.0 mm
02:03 AM 23.4°F-4.8°C 19.0°F-7.2°C 83% 13.0 mph SSE20.9 kmh SSE 16.0 mph25.7 kmh 29.94 in1013.9 mb 0.00 in0.0 mm 0.00 in/hr0.0 mm/hr 0.00 in0.0 mm
02:04 AM 23.4°F-4.8°C 19.0°F-7.2°C 83% 14.0 mph SE22.5 kmh SE 19.0 mph30.6 kmh 29.94 in1013.9 mb 0.00 in0.0 mm 0.00 in/hr0.0 mm/hr 0.00 in0.0 mm
02:05 AM 23.4°F-4.8°C 19.0°F-7.2°C 83% 16.0 mph SE25.7 kmh SE 19.0 mph30.6 kmh 29.94 in1013.9 mb 0.00 in0.0 mm 0.00 in/hr0.0 mm/hr 0.00 in0.0 mm
02:06 AM 23.4°F-4.8°C 19.0°F-7.2°C 83% 19.0 mph SE30.6 kmh SE 19.0 mph30.6 kmh 29.94 in1013.9 mb 0.00 in0.0 mm 0.00 in/hr0.0 mm/hr 0.00 in0.0 mm
02:07 AM 23.4°F-4.8°C 19.0°F-7.2°C 83% 11.0 mph SE17.7 kmh SE 19.0 mph30.6 kmh 29.94 in1013.9 mb 0.00 in0.0 mm 0.00 in/hr0.0 mm/hr 0.00 in0.0 mm
02:08 AM 23.4°F-4.8°C 19.0°F-7.2°C 83% 11.0 mph SE17.7 kmh SE 19.0 mph30.6 kmh 29.94 in1013.9 mb 0.00 in0.0 mm 0.00 in/hr0.0 mm/hr 0.00 in0.0 mm
02:09 AM 23.4°F-4.8°C 19.0°F-7.2°C 83% 14.0 mph SSE22.5 kmh SSE 19.0 mph30.6 kmh 29.94 in1013.9 mb 0.00 in0.0 mm 0.00 in/hr0.0 mm/hr 0.00 in0.0 mm
02:10 AM 23.4°F-4.8°C 19.0°F-7.2°C 83% 14.0 mph SE22.5 kmh SE 19.0 mph30.6 kmh 29.94 in1013.9 mb 0.00 in0.0 mm 0.00 in/hr0.0 mm/hr 0.00 in0.0 mm
02:11 AM 23.4°F-4.8°C 19.0°F-7.2°C 83% 13.0 mph SSE20.9 kmh SSE 19.0 mph30.6 kmh 29.94 in1013.9 mb 0.00 in0.0 mm 0.00 in/hr0.0 mm/hr 0.00 in0.0 mm
02:12 AM 23.4°F-4.8°C 19.0°F-7.2°C 83% 12.0 mph SSE19.3 kmh SSE 19.0 mph30.6 kmh 29.94 in1013.9 mb 0.00 in0.0 mm 0.00 in/hr0.0 mm/hr 0.00 in0.0 mm
02:13 AM 23.4°F-4.8°C 19.0°F-7.2°C 83% 13.0 mph SSE20.9 kmh SSE 19.0 mph30.6 kmh 29.94 in1013.9 mb 0.00 in0.0 mm 0.00 in/hr0.0 mm/hr 0.00 in0.0 mm
02:14 AM 23.4°F-4.8°C 19.0°F-7.2°C 83% 13.0 mph SSE20.9 kmh SSE 19.0 mph30.6 kmh 29.94 in1013.9 mb 0.00 in0.0 mm 0.00 in/hr0.0 mm/hr 0.00 in0.0 mm
02:15 AM 23.4°F-4.8°C 19.0°F-7.2°C 83% 12.0 mph SE19.3 kmh SE 19.0 mph30.6 kmh 29.94 in1013.9 mb 0.00 in0.0 mm 0.00 in/hr0.0 mm/hr 0.00 in0.0 mm
02:16 AM 23.4°F-4.8°C 19.0°F-7.2°C 83% 9.0 mph SE14.5 kmh SE 19.0 mph30.6 kmh 29.93 in1013.5 mb 0.00 in0.0 mm 0.00 in/hr0.0 mm/hr 0.00 in0.0 mm
02:17 AM 23.4°F-4.8°C 19.0°F-7.2°C 83% 11.0 mph SE17.7 kmh SE 19.0 mph30.6 kmh 29.93 in1013.5 mb 0.00 in0.0 mm 0.00 in/hr0.0 mm/hr 0.00 in0.0 mm
02:18 AM 23.4°F-4.8°C 19.0°F-7.2°C 83% 12.0 mph SE19.3 kmh SE 19.0 mph30.6 kmh 29.93 in1013.5 mb 0.00 in0.0 mm 0.00 in/hr0.0 mm/hr 0.00 in0.0 mm
02:19 AM 23.4°F-4.8°C 19.0°F-7.2°C 83% 12.0 mph SE19.3 kmh SE 19.0 mph30.6 kmh 29.93 in1013.5 mb 0.00 in0.0 mm 0.00 in/hr0.0 mm/hr 0.00 in0.0 mm
02:20 AM 23.4°F-4.8°C 19.0°F-7.2°C 83% 13.0 mph SSE20.9 kmh SSE 19.0 mph30.6 kmh 29.93 in1013.5 mb 0.00 in0.0 mm 0.00 in/hr0.0 mm/hr 0.00 in0.0 mm
02:21 AM 23.4°F-4.8°C 19.0°F-7.2°C 83% 10.0 mph SE16.1 kmh SE 19.0 mph30.6 kmh 29.93 in1013.5 mb 0.00 in0.0 mm 0.00 in/hr0.0 mm/hr 0.00 in0.0 mm
02:22 AM 23.4°F-4.8°C 19.0°F-7.2°C 83% 13.0 mph SE20.9 kmh SE 19.0 mph30.6 kmh 29.93 in1013.5 mb 0.00 in0.0 mm 0.00 in/hr0.0 mm/hr 0.00 in0.0 mm
02:23 AM 23.4°F-4.8°C 19.0°F-7.2°C 83% 12.0 mph SE19.3 kmh SE 19.0 mph30.6 kmh 29.93 in1013.5 mb 0.00 in0.0 mm 0.00 in/hr0.0 mm/hr 0.00 in0.0 mm
02:24 AM 23.4°F-4.8°C 19.0°F-7.2°C 83% 10.0 mph SE16.1 kmh SE 19.0 mph30.6 kmh 29.93 in1013.5 mb 0.00 in0.0 mm 0.00 in/hr0.0 mm/hr 0.00 in0.0 mm
02:25 AM 23.4°F-4.8°C 19.0°F-7.2°C 83% 10.0 mph SSE16.1 kmh SSE 19.0 mph30.6 kmh 29.93 in1013.5 mb 0.00 in0.0 mm 0.00 in/hr0.0 mm/hr 0.00 in0.0 mm
02:26 AM 23.4°F-4.8°C 19.3°F-7.1°C 84% 12.0 mph SE19.3 kmh SE 19.0 mph30.6 kmh 29.93 in1013.5 mb 0.00 in0.0 mm 0.00 in/hr0.0 mm/hr 0.00 in0.0 mm
02:27 AM 23.4°F-4.8°C 19.0°F-7.2°C 83% 13.0 mph SE20.9 kmh SE 19.0 mph30.6 kmh 29.92 in1013.2 mb 0.00 in0.0 mm 0.00 in/hr0.0 mm/hr 0.00 in0.0 mm
02:28 AM 23.4°F-4.8°C 19.0°F-7.2°C 83% 11.0 mph SE17.7 kmh SE 19.0 mph30.6 kmh 29.92 in1013.2 mb 0.00 in0.0 mm 0.00 in/hr0.0 mm/hr 0.00 in0.0 mm
02:29 AM 23.4°F-4.8°C 19.0°F-7.2°C 83% 11.0 mph SSE17.7 kmh SSE 19.0 mph30.6 kmh 29.92 in1013.2 mb 0.00 in0.0 mm 0.00 in/hr0.0 mm/hr 0.00 in0.0 mm
02:30 AM 23.4°F-4.8°C 19.0°F-7.2°C 83% 10.0 mph SE16.1 kmh SE 19.0 mph30.6 kmh 29.92 in1013.2 mb 0.00 in0.0 mm 0.00 in/hr0.0 mm/hr 0.00 in0.0 mm
02:31 AM 23.4°F-4.8°C 19.3°F-7.1°C 84% 14.0 mph SE22.5 kmh SE 19.0 mph30.6 kmh 29.92 in1013.2 mb 0.00 in0.0 mm 0.00 in/hr0.0 mm/hr 0.00 in0.0 mm
02:32 AM 23.4°F-4.8°C 19.3°F-7.1°C 84% 14.0 mph SSE22.5 kmh SSE 15.0 mph24.1 kmh 29.92 in1013.2 mb 0.00 in0.0 mm 0.00 in/hr0.0 mm/hr 0.00 in0.0 mm
02:33 AM 23.4°F-4.8°C 19.3°F-7.1°C 84% 13.0 mph SSE20.9 kmh SSE 16.0 mph25.7 kmh 29.92 in1013.2 mb 0.00 in0.0 mm 0.00 in/hr0.0 mm/hr 0.00 in0.0 mm
02:34 AM 23.4°F-4.8°C 19.3°F-7.1°C 84% 12.0 mph SSE19.3 kmh SSE 16.0 mph25.7 kmh 29.92 in1013.2 mb 0.00 in0.0 mm 0.00 in/hr0.0 mm/hr 0.00 in0.0 mm
02:35 AM 23.4°F-4.8°C 19.3°F-7.1°C 84% 15.0 mph SSE24.1 kmh SSE 16.0 mph25.7 kmh 29.92 in1013.2 mb 0.00 in0.0 mm 0.00 in/hr0.0 mm/hr 0.00 in0.0 mm
02:36 AM 23.4°F-4.8°C 19.3°F-7.1°C 84% 15.0 mph SE24.1 kmh SE 17.0 mph27.4 kmh 29.92 in1013.2 mb 0.00 in0.0 mm 0.00 in/hr0.0 mm/hr 0.00 in0.0 mm
02:37 AM 23.4°F-4.8°C 19.3°F-7.1°C 84% 15.0 mph SE24.1 kmh SE 17.0 mph27.4 kmh 29.92 in1013.2 mb 0.00 in0.0 mm 0.00 in/hr0.0 mm/hr 0.00 in0.0 mm
02:38 AM 23.5°F-4.7°C 19.4°F-7.0°C 84% 12.0 mph SSE19.3 kmh SSE 17.0 mph27.4 kmh 29.92 in1013.2 mb 0.00 in0.0 mm 0.00 in/hr0.0 mm/hr 0.00 in0.0 mm
02:39 AM 23.4°F-4.8°C 19.3°F-7.1°C 84% 12.0 mph SE19.3 kmh SE 17.0 mph27.4 kmh 29.91 in1012.9 mb 0.00 in0.0 mm 0.00 in/hr0.0 mm/hr 0.00 in0.0 mm
02:40 AM 23.4°F-4.8°C 19.3°F-7.1°C 84% 11.0 mph SE17.7 kmh SE 17.0 mph27.4 kmh 29.92 in1013.2 mb 0.00 in0.0 mm 0.00 in/hr0.0 mm/hr 0.00 in0.0 mm
02:41 AM 23.5°F-4.7°C 19.4°F-7.0°C 84% 12.0 mph SE19.3 kmh SE 17.0 mph27.4 kmh 29.91 in1012.9 mb 0.00 in0.0 mm 0.00 in/hr0.0 mm/hr 0.00 in0.0 mm
02:42 AM 23.5°F-4.7°C 19.4°F-7.0°C 84% 12.0 mph SE19.3 kmh SE 17.0 mph27.4 kmh 29.91 in1012.9 mb 0.00 in0.0 mm 0.00 in/hr0.0 mm/hr 0.00 in0.0 mm
02:43 AM 23.5°F-4.7°C 19.4°F-7.0°C 84% 15.0 mph SSE24.1 kmh SSE 17.0 mph27.4 kmh 29.91 in1012.9 mb 0.00 in0.0 mm 0.00 in/hr0.0 mm/hr 0.00 in0.0 mm
02:44 AM 23.5°F-4.7°C 19.4°F-7.0°C 84% 13.0 mph SE20.9 kmh SE 17.0 mph27.4 kmh 29.91 in1012.9 mb 0.00 in0.0 mm 0.00 in/hr0.0 mm/hr 0.00 in0.0 mm
02:45 AM 23.5°F-4.7°C 19.4°F-7.0°C 84% 11.0 mph SE17.7 kmh SE 17.0 mph27.4 kmh 29.91 in1012.9 mb 0.00 in0.0 mm 0.00 in/hr0.0 mm/hr 0.00 in0.0 mm
02:46 AM 23.5°F-4.7°C 19.4°F-7.0°C 84% 13.0 mph SE20.9 kmh SE 17.0 mph27.4 kmh 29.91 in1012.9 mb 0.00 in0.0 mm 0.00 in/hr0.0 mm/hr 0.00 in0.0 mm
02:47 AM 23.5°F-4.7°C 19.4°F-7.0°C 84% 14.0 mph SE22.5 kmh SE 17.0 mph27.4 kmh 29.91 in1012.9 mb 0.00 in0.0 mm 0.00 in/hr0.0 mm/hr 0.00 in0.0 mm
02:48 AM 23.5°F-4.7°C 19.4°F-7.0°C 84% 13.0 mph SE20.9 kmh SE 17.0 mph27.4 kmh 29.91 in1012.9 mb 0.00 in0.0 mm 0.00 in/hr0.0 mm/hr 0.00 in0.0 mm
02:49 AM 23.5°F-4.7°C 19.4°F-7.0°C 84% 10.0 mph SE16.1 kmh SE 17.0 mph27.4 kmh 29.91 in1012.9 mb 0.00 in0.0 mm 0.00 in/hr0.0 mm/hr 0.00 in0.0 mm
02:50 AM 23.6°F-4.7°C 19.5°F-6.9°C 84% 14.0 mph SSE22.5 kmh SSE 17.0 mph27.4 kmh 29.91 in1012.9 mb 0.00 in0.0 mm 0.00 in/hr0.0 mm/hr 0.00 in0.0 mm
02:51 AM 23.6°F-4.7°C 19.5°F-6.9°C 84% 16.0 mph SE25.7 kmh SE 17.0 mph27.4 kmh 29.91 in1012.9 mb 0.00 in0.0 mm 0.00 in/hr0.0 mm/hr 0.00 in0.0 mm
02:52 AM 23.6°F-4.7°C 19.5°F-6.9°C 84% 17.0 mph SE27.4 kmh SE 17.0 mph27.4 kmh 29.90 in1012.5 mb 0.00 in0.0 mm 0.00 in/hr0.0 mm/hr 0.00 in0.0 mm
02:53 AM 23.6°F-4.7°C 19.5°F-6.9°C 84% 14.0 mph SE22.5 kmh SE 17.0 mph27.4 kmh 29.90 in1012.5 mb 0.00 in0.0 mm 0.00 in/hr0.0 mm/hr 0.00 in0.0 mm
02:54 AM 23.6°F-4.7°C 19.5°F-6.9°C 84% 13.0 mph SE20.9 kmh SE 17.0 mph27.4 kmh 29.90 in1012.5 mb 0.00 in0.0 mm 0.00 in/hr0.0 mm/hr 0.00 in0.0 mm
02:55 AM 23.6°F-4.7°C 19.5°F-6.9°C 84% 12.0 mph SE19.3 kmh SE 17.0 mph27.4 kmh 29.91 in1012.9 mb 0.00 in0.0 mm 0.00 in/hr0.0 mm/hr 0.00 in0.0 mm
02:56 AM 23.6°F-4.7°C 19.5°F-6.9°C 84% 13.0 mph SE20.9 kmh SE 17.0 mph27.4 kmh 29.90 in1012.5 mb 0.00 in0.0 mm 0.00 in/hr0.0 mm/hr 0.00 in0.0 mm
02:57 AM 23.6°F-4.7°C 19.5°F-6.9°C 84% 12.0 mph SE19.3 kmh SE 17.0 mph27.4 kmh 29.90 in1012.5 mb 0.00 in0.0 mm 0.00 in/hr0.0 mm/hr 0.00 in0.0 mm
02:58 AM 23.6°F-4.7°C 19.5°F-6.9°C 84% 11.0 mph SE17.7 kmh SE 17.0 mph27.4 kmh 29.90 in1012.5 mb 0.00 in0.0 mm 0.00 in/hr0.0 mm/hr 0.00 in0.0 mm
02:59 AM 23.6°F-4.7°C 19.5°F-6.9°C 84% 11.0 mph SE17.7 kmh SE 17.0 mph27.4 kmh 29.90 in1012.5 mb 0.00 in0.0 mm 0.00 in/hr0.0 mm/hr 0.00 in0.0 mm
03:00 AM 23.6°F-4.7°C 19.5°F-6.9°C 84% 11.0 mph SE17.7 kmh SE 17.0 mph27.4 kmh 29.90 in1012.5 mb 0.00 in0.0 mm 0.00 in/hr0.0 mm/hr 0.00 in0.0 mm
03:01 AM 23.6°F-4.7°C 19.5°F-6.9°C 84% 10.0 mph SE16.1 kmh SE 17.0 mph27.4 kmh 29.90 in1012.5 mb 0.00 in0.0 mm 0.00 in/hr0.0 mm/hr 0.00 in0.0 mm
03:02 AM 23.6°F-4.7°C 19.5°F-6.9°C 84% 8.0 mph SE12.9 kmh SE 10.0 mph16.1 kmh 29.89 in1012.2 mb 0.00 in0.0 mm 0.00 in/hr0.0 mm/hr 0.00 in0.0 mm
03:03 AM 23.5°F-4.7°C 19.4°F-7.0°C 84% 11.0 mph SE17.7 kmh SE 12.0 mph19.3 kmh 29.89 in1012.2 mb 0.00 in0.0 mm 0.00 in/hr0.0 mm/hr 0.00 in0.0 mm
03:04 AM 23.6°F-4.7°C 19.5°F-6.9°C 84% 9.0 mph SE14.5 kmh SE 12.0 mph19.3 kmh 29.89 in1012.2 mb 0.00 in0.0 mm 0.00 in/hr0.0 mm/hr 0.00 in0.0 mm
03:05 AM 23.5°F-4.7°C 19.4°F-7.0°C 84% 12.0 mph SE19.3 kmh SE 13.0 mph20.9 kmh 29.89 in1012.2 mb 0.00 in0.0 mm 0.00 in/hr0.0 mm/hr 0.00 in0.0 mm
03:06 AM 23.5°F-4.7°C 19.4°F-7.0°C 84% 12.0 mph SE19.3 kmh SE 14.0 mph22.5 kmh 29.89 in1012.2 mb 0.00 in0.0 mm 0.00 in/hr0.0 mm/hr 0.00 in0.0 mm
03:07 AM 23.5°F-4.7°C 19.4°F-7.0°C 84% 11.0 mph SE17.7 kmh SE 15.0 mph24.1 kmh 29.89 in1012.2 mb 0.00 in0.0 mm 0.00 in/hr0.0 mm/hr 0.00 in0.0 mm
03:08 AM 23.5°F-4.7°C 19.4°F-7.0°C 84% 9.0 mph SE14.5 kmh SE 15.0 mph24.1 kmh 29.89 in1012.2 mb 0.00 in0.0 mm 0.00 in/hr0.0 mm/hr 0.00 in0.0 mm
03:09 AM 23.5°F-4.7°C 19.4°F-7.0°C 84% 7.0 mph SE11.3 kmh SE 15.0 mph24.1 kmh 29.89 in1012.2 mb 0.00 in0.0 mm 0.00 in/hr0.0 mm/hr 0.00 in0.0 mm
03:10 AM 23.5°F-4.7°C 19.4°F-7.0°C 84% 10.0 mph SE16.1 kmh SE 15.0 mph24.1 kmh 29.89 in1012.2 mb 0.00 in0.0 mm 0.00 in/hr0.0 mm/hr 0.00 in0.0 mm
03:11 AM 23.5°F-4.7°C 19.7°F-6.8°C 85% 9.0 mph SE14.5 kmh SE 15.0 mph24.1 kmh 29.89 in1012.2 mb 0.00 in0.0 mm 0.00 in/hr0.0 mm/hr 0.00 in0.0 mm
03:12 AM 23.5°F-4.7°C 19.7°F-6.8°C 85% 10.0 mph SSE16.1 kmh SSE 15.0 mph24.1 kmh 29.89 in1012.2 mb 0.00 in0.0 mm 0.00 in/hr0.0 mm/hr 0.00 in0.0 mm
03:13 AM 23.5°F-4.7°C 19.7°F-6.8°C 85% 8.0 mph SE12.9 kmh SE 15.0 mph24.1 kmh 29.89 in1012.2 mb 0.00 in0.0 mm 0.00 in/hr0.0 mm/hr 0.00 in0.0 mm
03:14 AM 23.5°F-4.7°C 19.7°F-6.8°C 85% 9.0 mph SE14.5 kmh SE 15.0 mph24.1 kmh 29.89 in1012.2 mb 0.00 in0.0 mm 0.00 in/hr0.0 mm/hr 0.00 in0.0 mm
03:15 AM 23.5°F-4.7°C 19.7°F-6.8°C 85% 11.0 mph SE17.7 kmh SE 15.0 mph24.1 kmh 29.89 in1012.2 mb 0.00 in0.0 mm 0.00 in/hr0.0 mm/hr 0.00 in0.0 mm
03:16 AM 23.5°F-4.7°C 19.7°F-6.8°C 85% 11.0 mph SE17.7 kmh SE 15.0 mph24.1 kmh 29.89 in1012.2 mb 0.00 in0.0 mm 0.00 in/hr0.0 mm/hr 0.00 in0.0 mm
03:17 AM 23.5°F-4.7°C 19.7°F-6.8°C 85% 10.0 mph SSE16.1 kmh SSE 15.0 mph24.1 kmh 29.89 in1012.2 mb 0.00 in0.0 mm 0.00 in/hr0.0 mm/hr 0.00 in0.0 mm
03:18 AM 23.5°F-4.7°C 19.7°F-6.8°C 85% 10.0 mph SE16.1 kmh SE 15.0 mph24.1 kmh 29.88 in1011.9 mb 0.00 in0.0 mm 0.00 in/hr0.0 mm/hr 0.00 in0.0 mm
03:19 AM 23.5°F-4.7°C 19.7°F-6.8°C 85% 10.0 mph SE16.1 kmh SE 15.0 mph24.1 kmh 29.88 in1011.9 mb 0.00 in0.0 mm 0.00 in/hr0.0 mm/hr 0.00 in0.0 mm
03:20 AM 23.5°F-4.7°C 19.7°F-6.8°C 85% 11.0 mph SE17.7 kmh SE 15.0 mph24.1 kmh 29.88 in1011.9 mb 0.00 in0.0 mm 0.00 in/hr0.0 mm/hr 0.00 in0.0 mm
03:21 AM 23.5°F-4.7°C 19.7°F-6.8°C 85% 9.0 mph SE14.5 kmh SE 15.0 mph24.1 kmh 29.88 in1011.9 mb 0.00 in0.0 mm 0.00 in/hr0.0 mm/hr 0.00 in0.0 mm
03:22 AM 23.5°F-4.7°C 19.7°F-6.8°C 85% 11.0 mph SE17.7 kmh SE 15.0 mph24.1 kmh 29.87 in1011.5 mb 0.00 in0.0 mm 0.00 in/hr0.0 mm/hr 0.00 in0.0 mm
03:23 AM 23.5°F-4.7°C 19.7°F-6.8°C 85% 8.0 mph SE12.9 kmh SE 15.0 mph24.1 kmh 29.87 in1011.5 mb 0.00 in0.0 mm 0.00 in/hr0.0 mm/hr 0.00 in0.0 mm
03:24 AM 23.4°F-4.8°C 19.6°F-6.9°C 85% 8.0 mph SE12.9 kmh SE 15.0 mph24.1 kmh 29.87 in1011.5 mb 0.00 in0.0 mm 0.00 in/hr0.0 mm/hr 0.00 in0.0 mm
03:25 AM 23.4°F-4.8°C 19.6°F-6.9°C 85% 11.0 mph SE17.7 kmh SE 15.0 mph24.1 kmh 29.87 in1011.5 mb 0.00 in0.0 mm 0.00 in/hr0.0 mm/hr 0.00 in0.0 mm
03:26 AM 23.4°F-4.8°C 19.6°F-6.9°C 85% 11.0 mph SE17.7 kmh SE 15.0 mph24.1 kmh 29.87 in1011.5 mb 0.00 in0.0 mm 0.00 in/hr0.0 mm/hr 0.00 in0.0 mm
03:27 AM 23.4°F-4.8°C 19.6°F-6.9°C 85% 11.0 mph SE17.7 kmh SE 15.0 mph24.1 kmh 29.87 in1011.5 mb 0.00 in0.0 mm 0.00 in/hr0.0 mm/hr 0.00 in0.0 mm
03:28 AM 23.4°F-4.8°C 19.6°F-6.9°C 85% 9.0 mph SE14.5 kmh SE 15.0 mph24.1 kmh 29.86 in1011.2 mb 0.00 in0.0 mm 0.00 in/hr0.0 mm/hr 0.00 in0.0 mm
03:29 AM 23.5°F-4.7°C 19.7°F-6.8°C 85% 11.0 mph SE17.7 kmh SE 15.0 mph24.1 kmh 29.86 in1011.2 mb 0.00 in0.0 mm 0.00 in/hr0.0 mm/hr 0.00 in0.0 mm
03:30 AM 23.5°F-4.7°C 19.7°F-6.8°C 85% 8.0 mph SE12.9 kmh SE 15.0 mph24.1 kmh 29.86 in1011.2 mb 0.00 in0.0 mm 0.00 in/hr0.0 mm/hr 0.00 in0.0 mm
03:31 AM 23.4°F-4.8°C 19.6°F-6.9°C 85% 10.0 mph SE16.1 kmh SE 15.0 mph24.1 kmh 29.86 in1011.2 mb 0.00 in0.0 mm 0.00 in/hr0.0 mm/hr 0.00 in0.0 mm
03:32 AM 23.4°F-4.8°C 19.6°F-6.9°C 85% 12.0 mph SE19.3 kmh SE 12.0 mph19.3 kmh 29.86 in1011.2 mb 0.00 in0.0 mm 0.00 in/hr0.0 mm/hr 0.00 in0.0 mm
03:33 AM 23.4°F-4.8°C 19.6°F-6.9°C 85% 10.0 mph SE16.1 kmh SE 12.0 mph19.3 kmh 29.86 in1011.2 mb 0.00 in0.0 mm 0.00 in/hr0.0 mm/hr 0.00 in0.0 mm
03:34 AM 23.4°F-4.8°C 19.6°F-6.9°C 85% 10.0 mph SE16.1 kmh SE 13.0 mph20.9 kmh 29.86 in1011.2 mb 0.00 in0.0 mm 0.00 in/hr0.0 mm/hr 0.00 in0.0 mm
03:35 AM 23.4°F-4.8°C 19.6°F-6.9°C 85% 10.0 mph SE16.1 kmh SE 13.0 mph20.9 kmh 29.86 in1011.2 mb 0.00 in0.0 mm 0.00 in/hr0.0 mm/hr 0.00 in0.0 mm
03:36 AM 23.4°F-4.8°C 19.6°F-6.9°C 85% 13.0 mph SE20.9 kmh SE 13.0 mph20.9 kmh 29.85 in1010.8 mb 0.00 in0.0 mm 0.00 in/hr0.0 mm/hr 0.00 in0.0 mm
03:37 AM 23.4°F-4.8°C 19.6°F-6.9°C 85% 10.0 mph SE16.1 kmh SE 13.0 mph20.9 kmh 29.85 in1010.8 mb 0.00 in0.0 mm 0.00 in/hr0.0 mm/hr 0.00 in0.0 mm
03:38 AM 23.4°F-4.8°C 19.6°F-6.9°C 85% 11.0 mph SE17.7 kmh SE 13.0 mph20.9 kmh 29.85 in1010.8 mb 0.00 in0.0 mm 0.00 in/hr0.0 mm/hr 0.00 in0.0 mm
03:39 AM 23.4°F-4.8°C 19.6°F-6.9°C 85% 7.0 mph SE11.3 kmh SE 13.0 mph20.9 kmh 29.85 in1010.8 mb 0.00 in0.0 mm 0.00 in/hr0.0 mm/hr 0.00 in0.0 mm
03:40 AM 23.4°F-4.8°C 19.6°F-6.9°C 85% 10.0 mph SE16.1 kmh SE 13.0 mph20.9 kmh 29.85 in1010.8 mb 0.00 in0.0 mm 0.00 in/hr0.0 mm/hr 0.00 in0.0 mm
03:41 AM 23.4°F-4.8°C 19.6°F-6.9°C 85% 9.0 mph SE14.5 kmh SE 13.0 mph20.9 kmh 29.85 in1010.8 mb 0.00 in0.0 mm 0.00 in/hr0.0 mm/hr 0.00 in0.0 mm
03:42 AM 23.4°F-4.8°C 19.6°F-6.9°C 85% 7.0 mph SE11.3 kmh SE 13.0 mph20.9 kmh 29.85 in1010.8 mb 0.00 in0.0 mm 0.00 in/hr0.0 mm/hr 0.00 in0.0 mm
03:43 AM 23.4°F-4.8°C 19.6°F-6.9°C 85% 12.0 mph SE19.3 kmh SE 13.0 mph20.9 kmh 29.85 in1010.8 mb 0.00 in0.0 mm 0.00 in/hr0.0 mm/hr 0.00 in0.0 mm
03:44 AM 23.4°F-4.8°C 19.6°F-6.9°C 85% 10.0 mph SE16.1 kmh SE 13.0 mph20.9 kmh 29.85 in1010.8 mb 0.00 in0.0 mm 0.00 in/hr0.0 mm/hr 0.00 in0.0 mm
03:45 AM 23.4°F-4.8°C 19.6°F-6.9°C 85% 9.0 mph SE14.5 kmh SE 13.0 mph20.9 kmh 29.85 in1010.8 mb 0.00 in0.0 mm 0.00 in/hr0.0 mm/hr 0.00 in0.0 mm
03:46 AM 23.4°F-4.8°C 19.6°F-6.9°C 85% 9.0 mph SE14.5 kmh SE 13.0 mph20.9 kmh 29.85 in1010.8 mb 0.00 in0.0 mm 0.00 in/hr0.0 mm/hr 0.00 in0.0 mm
03:47 AM 23.5°F-4.7°C 19.7°F-6.8°C 85% 8.0 mph SE12.9 kmh SE 13.0 mph20.9 kmh 29.85 in1010.8 mb 0.00 in0.0 mm 0.00 in/hr0.0 mm/hr 0.00 in0.0 mm
03:48 AM 23.5°F-4.7°C 19.7°F-6.8°C 85% 11.0 mph SE17.7 kmh SE 13.0 mph20.9 kmh 29.85 in1010.8 mb 0.00 in0.0 mm 0.00 in/hr0.0 mm/hr 0.00 in0.0 mm
03:49 AM 23.4°F-4.8°C 19.6°F-6.9°C 85% 10.0 mph SE16.1 kmh SE 13.0 mph20.9 kmh 29.85 in1010.8 mb 0.00 in0.0 mm 0.00 in/hr0.0 mm/hr 0.00 in0.0 mm
03:50 AM 23.4°F-4.8°C 19.6°F-6.9°C 85% 10.0 mph SE16.1 kmh SE 13.0 mph20.9 kmh 29.85 in1010.8 mb 0.00 in0.0 mm 0.00 in/hr0.0 mm/hr 0.00 in0.0 mm
03:51 AM 23.5°F-4.7°C 19.7°F-6.8°C 85% 11.0 mph SE17.7 kmh SE 13.0 mph20.9 kmh 29.85 in1010.8 mb 0.00 in0.0 mm 0.00 in/hr0.0 mm/hr 0.00 in0.0 mm
03:52 AM 23.5°F-4.7°C 19.7°F-6.8°C 85% 9.0 mph SE14.5 kmh SE 13.0 mph20.9 kmh 29.85 in1010.8 mb 0.00 in0.0 mm 0.00 in/hr0.0 mm/hr 0.00 in0.0 mm
03:53 AM 23.5°F-4.7°C 19.7°F-6.8°C 85% 9.0 mph SSE14.5 kmh SSE 13.0 mph20.9 kmh 29.85 in1010.8 mb 0.00 in0.0 mm 0.00 in/hr0.0 mm/hr 0.00 in0.0 mm
03:54 AM 23.5°F-4.7°C 19.7°F-6.8°C 85% 7.0 mph SE11.3 kmh SE 13.0 mph20.9 kmh 29.85 in1010.8 mb 0.00 in0.0 mm 0.00 in/hr0.0 mm/hr 0.00 in0.0 mm
03:55 AM 23.5°F-4.7°C 19.7°F-6.8°C 85% 8.0 mph SE12.9 kmh SE 13.0 mph20.9 kmh 29.85 in1010.8 mb 0.00 in0.0 mm 0.00 in/hr0.0 mm/hr 0.00 in0.0 mm
03:56 AM 23.5°F-4.7°C 19.7°F-6.8°C 85% 10.0 mph SE16.1 kmh SE 13.0 mph20.9 kmh 29.85 in1010.8 mb 0.00 in0.0 mm 0.00 in/hr0.0 mm/hr 0.00 in0.0 mm
03:57 AM 23.5°F-4.7°C 19.9°F-6.7°C 86% 9.0 mph SE14.5 kmh SE 13.0 mph20.9 kmh 29.85 in1010.8 mb 0.00 in0.0 mm 0.00 in/hr0.0 mm/hr 0.00 in0.0 mm
03:58 AM 23.5°F-4.7°C 19.9°F-6.7°C 86% 9.0 mph SE14.5 kmh SE 13.0 mph20.9 kmh 29.85 in1010.8 mb 0.00 in0.0 mm 0.00 in/hr0.0 mm/hr 0.00 in0.0 mm
03:59 AM 23.5°F-4.7°C 19.9°F-6.7°C 86% 10.0 mph SE16.1 kmh SE 13.0 mph20.9 kmh 29.85 in1010.8 mb 0.00 in0.0 mm 0.00 in/hr0.0 mm/hr 0.00 in0.0 mm
04:00 AM 23.5°F-4.7°C 19.9°F-6.7°C 86% 11.0 mph SE17.7 kmh SE 13.0 mph20.9 kmh 29.85 in1010.8 mb 0.00 in0.0 mm 0.00 in/hr0.0 mm/hr 0.00 in0.0 mm
04:01 AM 23.5°F-4.7°C 19.9°F-6.7°C 86% 8.0 mph SE12.9 kmh SE 13.0 mph20.9 kmh 29.84 in1010.5 mb 0.00 in0.0 mm 0.00 in/hr0.0 mm/hr 0.00 in0.0 mm
04:02 AM 23.5°F-4.7°C 19.9°F-6.7°C 86% 7.0 mph SE11.3 kmh SE 9.0 mph14.5 kmh 29.84 in1010.5 mb 0.00 in0.0 mm 0.00 in/hr0.0 mm/hr 0.00 in0.0 mm
04:03 AM 23.5°F-4.7°C 19.9°F-6.7°C 86% 9.0 mph SE14.5 kmh SE 11.0 mph17.7 kmh 29.84 in1010.5 mb 0.00 in0.0 mm 0.00 in/hr0.0 mm/hr 0.00 in0.0 mm
04:04 AM 23.5°F-4.7°C 19.9°F-6.7°C 86% 11.0 mph SE17.7 kmh SE 12.0 mph19.3 kmh 29.84 in1010.5 mb 0.00 in0.0 mm 0.00 in/hr0.0 mm/hr 0.00 in0.0 mm
04:05 AM 23.5°F-4.7°C 19.9°F-6.7°C 86% 10.0 mph SE16.1 kmh SE 12.0 mph19.3 kmh 29.84 in1010.5 mb 0.00 in0.0 mm 0.00 in/hr0.0 mm/hr 0.00 in0.0 mm
04:06 AM 23.5°F-4.7°C 19.9°F-6.7°C 86% 8.0 mph SE12.9 kmh SE 12.0 mph19.3 kmh 29.84 in1010.5 mb 0.00 in0.0 mm 0.00 in/hr0.0 mm/hr 0.00 in0.0 mm
04:07 AM 23.5°F-4.7°C 19.9°F-6.7°C 86% 7.0 mph SE11.3 kmh SE 12.0 mph19.3 kmh 29.84 in1010.5 mb 0.00 in0.0 mm 0.00 in/hr0.0 mm/hr 0.00 in0.0 mm
04:08 AM 23.5°F-4.7°C 19.9°F-6.7°C 86% 8.0 mph SE12.9 kmh SE 12.0 mph19.3 kmh 29.84 in1010.5 mb 0.00 in0.0 mm 0.00 in/hr0.0 mm/hr 0.00 in0.0 mm
04:09 AM 23.5°F-4.7°C 19.9°F-6.7°C 86% 8.0 mph SE12.9 kmh SE 12.0 mph19.3 kmh 29.84 in1010.5 mb 0.00 in0.0 mm 0.00 in/hr0.0 mm/hr 0.00 in0.0 mm
04:10 AM 23.5°F-4.7°C 19.9°F-6.7°C 86% 10.0 mph SE16.1 kmh SE 12.0 mph19.3 kmh 29.84 in1010.5 mb 0.00 in0.0 mm 0.00 in/hr0.0 mm/hr 0.00 in0.0 mm
04:11 AM 23.5°F-4.7°C 19.9°F-6.7°C 86% 7.0 mph SE11.3 kmh SE 12.0 mph19.3 kmh 29.84 in1010.5 mb 0.00 in0.0 mm 0.00 in/hr0.0 mm/hr 0.00 in0.0 mm
04:12 AM 23.5°F-4.7°C 19.9°F-6.7°C 86% 9.0 mph SE14.5 kmh SE 12.0 mph19.3 kmh 29.84 in1010.5 mb 0.00 in0.0 mm 0.00 in/hr0.0 mm/hr 0.00 in0.0 mm
04:13 AM 23.5°F-4.7°C 19.9°F-6.7°C 86% 11.0 mph SE17.7 kmh SE 13.0 mph20.9 kmh 29.84 in1010.5 mb 0.00 in0.0 mm 0.00 in/hr0.0 mm/hr 0.00 in0.0 mm
04:14 AM 23.5°F-4.7°C 19.9°F-6.7°C 86% 10.0 mph SE16.1 kmh SE 13.0 mph20.9 kmh 29.84 in1010.5 mb 0.00 in0.0 mm 0.00 in/hr0.0 mm/hr 0.00 in0.0 mm
04:15 AM 23.6°F-4.7°C 20.0°F-6.7°C 86% 9.0 mph SE14.5 kmh SE 13.0 mph20.9 kmh 29.83 in1010.2 mb 0.00 in0.0 mm 0.00 in/hr0.0 mm/hr 0.00 in0.0 mm
04:16 AM 23.6°F-4.7°C 20.0°F-6.7°C 86% 8.0 mph SE12.9 kmh SE 13.0 mph20.9 kmh 29.83 in1010.2 mb 0.00 in0.0 mm 0.00 in/hr0.0 mm/hr 0.00 in0.0 mm
04:17 AM 23.6°F-4.7°C 20.0°F-6.7°C 86% 7.0 mph SE11.3 kmh SE 13.0 mph20.9 kmh 29.83 in1010.2 mb 0.00 in0.0 mm 0.00 in/hr0.0 mm/hr 0.00 in0.0 mm
04:18 AM 23.6°F-4.7°C 20.0°F-6.7°C 86% 8.0 mph SE12.9 kmh SE 13.0 mph20.9 kmh 29.83 in1010.2 mb 0.00 in0.0 mm 0.00 in/hr0.0 mm/hr 0.00 in0.0 mm
04:19 AM 23.6°F-4.7°C 20.0°F-6.7°C 86% 8.0 mph SE12.9 kmh SE 13.0 mph20.9 kmh 29.83 in1010.2 mb 0.00 in0.0 mm 0.00 in/hr0.0 mm/hr 0.00 in0.0 mm
04:20 AM 23.6°F-4.7°C 20.0°F-6.7°C 86% 9.0 mph SE14.5 kmh SE 13.0 mph20.9 kmh 29.83 in1010.2 mb 0.00 in0.0 mm 0.00 in/hr0.0 mm/hr 0.00 in0.0 mm
04:21 AM 23.6°F-4.7°C 20.0°F-6.7°C 86% 8.0 mph SE12.9 kmh SE 13.0 mph20.9 kmh 29.83 in1010.2 mb 0.00 in0.0 mm 0.00 in/hr0.0 mm/hr 0.00 in0.0 mm
04:22 AM 23.6°F-4.7°C 20.0°F-6.7°C 86% 10.0 mph SE16.1 kmh SE 13.0 mph20.9 kmh 29.83 in1010.2 mb 0.00 in0.0 mm 0.00 in/hr0.0 mm/hr 0.00 in0.0 mm
04:23 AM 23.6°F-4.7°C 20.0°F-6.7°C 86% 8.0 mph SE12.9 kmh SE 13.0 mph20.9 kmh 29.83 in1010.2 mb 0.00 in0.0 mm 0.00 in/hr0.0 mm/hr 0.00 in0.0 mm
04:24 AM 23.6°F-4.7°C 20.0°F-6.7°C 86% 8.0 mph SE12.9 kmh SE 13.0 mph20.9 kmh 29.83 in1010.2 mb 0.00 in0.0 mm 0.00 in/hr0.0 mm/hr 0.00 in0.0 mm
04:25 AM 23.6°F-4.7°C 20.0°F-6.7°C 86% 9.0 mph SE14.5 kmh SE 13.0 mph20.9 kmh 29.83 in1010.2 mb 0.00 in0.0 mm 0.00 in/hr0.0 mm/hr 0.00 in0.0 mm
04:26 AM 23.6°F-4.7°C 20.0°F-6.7°C 86% 7.0 mph SE11.3 kmh SE 13.0 mph20.9 kmh 29.83 in1010.2 mb 0.00 in0.0 mm 0.00 in/hr0.0 mm/hr 0.00 in0.0 mm
04:27 AM 23.6°F-4.7°C 20.0°F-6.7°C 86% 7.0 mph SE11.3 kmh SE 13.0 mph20.9 kmh 29.83 in1010.2 mb 0.00 in0.0 mm 0.00 in/hr0.0 mm/hr 0.00 in0.0 mm
04:28 AM 23.6°F-4.7°C 20.0°F-6.7°C 86% 9.0 mph SE14.5 kmh SE 13.0 mph20.9 kmh 29.83 in1010.2 mb 0.00 in0.0 mm 0.00 in/hr0.0 mm/hr 0.00 in0.0 mm
04:29 AM 23.6°F-4.7°C 20.0°F-6.7°C 86% 8.0 mph SE12.9 kmh SE 13.0 mph20.9 kmh 29.83 in1010.2 mb 0.00 in0.0 mm 0.00 in/hr0.0 mm/hr 0.00 in0.0 mm
04:30 AM 23.6°F-4.7°C 20.0°F-6.7°C 86% 8.0 mph SE12.9 kmh SE 13.0 mph20.9 kmh 29.82 in1009.8 mb 0.00 in0.0 mm 0.00 in/hr0.0 mm/hr 0.00 in0.0 mm
04:31 AM 23.6°F-4.7°C 20.0°F-6.7°C 86% 7.0 mph SE11.3 kmh SE 13.0 mph20.9 kmh 29.82 in1009.8 mb 0.00 in0.0 mm 0.00 in/hr0.0 mm/hr 0.00 in0.0 mm
04:32 AM 23.6°F-4.7°C 20.0°F-6.7°C 86% 8.0 mph SE12.9 kmh SE 9.0 mph14.5 kmh 29.82 in1009.8 mb 0.00 in0.0 mm 0.00 in/hr0.0 mm/hr 0.00 in0.0 mm
04:33 AM 23.6°F-4.7°C 20.0°F-6.7°C 86% 8.0 mph SE12.9 kmh SE 9.0 mph14.5 kmh 29.82 in1009.8 mb 0.00 in0.0 mm 0.00 in/hr0.0 mm/hr 0.00 in0.0 mm
04:34 AM 23.6°F-4.7°C 20.0°F-6.7°C 86% 11.0 mph SE17.7 kmh SE 11.0 mph17.7 kmh 29.82 in1009.8 mb 0.00 in0.0 mm 0.00 in/hr0.0 mm/hr 0.00 in0.0 mm
04:35 AM 23.6°F-4.7°C 20.0°F-6.7°C 86% 8.0 mph SE12.9 kmh SE 11.0 mph17.7 kmh 29.82 in1009.8 mb 0.00 in0.0 mm 0.00 in/hr0.0 mm/hr 0.00 in0.0 mm
04:36 AM 23.6°F-4.7°C 20.0°F-6.7°C 86% 8.0 mph SE12.9 kmh SE 11.0 mph17.7 kmh 29.82 in1009.8 mb 0.00 in0.0 mm 0.00 in/hr0.0 mm/hr 0.00 in0.0 mm
04:37 AM 23.6°F-4.7°C 20.0°F-6.7°C 86% 9.0 mph SE14.5 kmh SE 11.0 mph17.7 kmh 29.82 in1009.8 mb 0.00 in0.0 mm 0.00 in/hr0.0 mm/hr 0.00 in0.0 mm
04:38 AM 23.6°F-4.7°C 20.0°F-6.7°C 86% 9.0 mph SE14.5 kmh SE 12.0 mph19.3 kmh 29.81 in1009.5 mb 0.00 in0.0 mm 0.00 in/hr0.0 mm/hr 0.00 in0.0 mm
04:39 AM 23.6°F-4.7°C 20.0°F-6.7°C 86% 7.0 mph SE11.3 kmh SE 12.0 mph19.3 kmh 29.82 in1009.8 mb 0.00 in0.0 mm 0.00 in/hr0.0 mm/hr 0.00 in0.0 mm
04:40 AM 23.6°F-4.7°C 20.0°F-6.7°C 86% 10.0 mph SE16.1 kmh SE 12.0 mph19.3 kmh 29.81 in1009.5 mb 0.00 in0.0 mm 0.00 in/hr0.0 mm/hr 0.00 in0.0 mm
04:41 AM 23.6°F-4.7°C 20.0°F-6.7°C 86% 10.0 mph SE16.1 kmh SE 12.0 mph19.3 kmh 29.81 in1009.5 mb 0.00 in0.0 mm 0.00 in/hr0.0 mm/hr 0.00 in0.0 mm
04:42 AM 23.6°F-4.7°C 20.0°F-6.7°C 86% 10.0 mph SE16.1 kmh SE 12.0 mph19.3 kmh 29.81 in1009.5 mb 0.00 in0.0 mm 0.00 in/hr0.0 mm/hr 0.00 in0.0 mm
04:43 AM 23.6°F-4.7°C 20.0°F-6.7°C 86% 9.0 mph SE14.5 kmh SE 12.0 mph19.3 kmh 29.81 in1009.5 mb 0.00 in0.0 mm 0.00 in/hr0.0 mm/hr 0.00 in0.0 mm
04:44 AM 23.7°F-4.6°C 20.1°F-6.6°C 86% 6.0 mph SE9.7 kmh SE 12.0 mph19.3 kmh 29.81 in1009.5 mb 0.00 in0.0 mm 0.00 in/hr0.0 mm/hr 0.00 in0.0 mm
04:45 AM 23.6°F-4.7°C 20.0°F-6.7°C 86% 10.0 mph SE16.1 kmh SE 12.0 mph19.3 kmh 29.81 in1009.5 mb 0.00 in0.0 mm 0.00 in/hr0.0 mm/hr 0.00 in0.0 mm
04:46 AM 23.7°F-4.6°C 20.4°F-6.4°C 87% 10.0 mph SE16.1 kmh SE 12.0 mph19.3 kmh 29.81 in1009.5 mb 0.00 in0.0 mm 0.00 in/hr0.0 mm/hr 0.00 in0.0 mm
04:47 AM 23.7°F-4.6°C 20.4°F-6.4°C 87% 10.0 mph SE16.1 kmh SE 12.0 mph19.3 kmh 29.81 in1009.5 mb 0.00 in0.0 mm 0.00 in/hr0.0 mm/hr 0.00 in0.0 mm
04:48 AM 23.6°F-4.7°C 20.3°F-6.5°C 87% 7.0 mph SE11.3 kmh SE 12.0 mph19.3 kmh 29.80 in1009.1 mb 0.00 in0.0 mm 0.00 in/hr0.0 mm/hr 0.00 in0.0 mm
04:49 AM 23.7°F-4.6°C 20.4°F-6.4°C 87% 11.0 mph SE17.7 kmh SE 12.0 mph19.3 kmh 29.80 in1009.1 mb 0.00 in0.0 mm 0.00 in/hr0.0 mm/hr 0.00 in0.0 mm
04:50 AM 23.7°F-4.6°C 20.4°F-6.4°C 87% 9.0 mph SE14.5 kmh SE 12.0 mph19.3 kmh 29.80 in1009.1 mb 0.00 in0.0 mm 0.00 in/hr0.0 mm/hr 0.00 in0.0 mm
04:51 AM 23.7°F-4.6°C 20.4°F-6.4°C 87% 9.0 mph SE14.5 kmh SE 12.0 mph19.3 kmh 29.80 in1009.1 mb 0.00 in0.0 mm 0.00 in/hr0.0 mm/hr 0.00 in0.0 mm
04:52 AM 23.7°F-4.6°C 20.4°F-6.4°C 87% 9.0 mph SE14.5 kmh SE 12.0 mph19.3 kmh 29.80 in1009.1 mb 0.00 in0.0 mm 0.00 in/hr0.0 mm/hr 0.00 in0.0 mm
04:53 AM 23.7°F-4.6°C 20.4°F-6.4°C 87% 10.0 mph SE16.1 kmh SE 12.0 mph19.3 kmh 29.80 in1009.1 mb 0.00 in0.0 mm 0.00 in/hr0.0 mm/hr 0.00 in0.0 mm
04:54 AM 23.7°F-4.6°C 20.4°F-6.4°C 87% 7.0 mph SE11.3 kmh SE 12.0 mph19.3 kmh 29.80 in1009.1 mb 0.00 in0.0 mm 0.00 in/hr0.0 mm/hr 0.00 in0.0 mm
04:55 AM 23.7°F-4.6°C 20.4°F-6.4°C 87% 6.0 mph SE9.7 kmh SE 12.0 mph19.3 kmh 29.80 in1009.1 mb 0.00 in0.0 mm 0.00 in/hr0.0 mm/hr 0.00 in0.0 mm
04:56 AM 23.7°F-4.6°C 20.4°F-6.4°C 87% 8.0 mph SE12.9 kmh SE 12.0 mph19.3 kmh 29.79 in1008.8 mb 0.00 in0.0 mm 0.00 in/hr0.0 mm/hr 0.00 in0.0 mm
04:57 AM 23.7°F-4.6°C 20.4°F-6.4°C 87% 7.0 mph SE11.3 kmh SE 12.0 mph19.3 kmh 29.79 in1008.8 mb 0.00 in0.0 mm 0.00 in/hr0.0 mm/hr 0.00 in0.0 mm
04:58 AM 23.7°F-4.6°C 20.4°F-6.4°C 87% 8.0 mph SE12.9 kmh SE 12.0 mph19.3 kmh 29.79 in1008.8 mb 0.00 in0.0 mm 0.00 in/hr0.0 mm/hr 0.00 in0.0 mm
04:59 AM 23.7°F-4.6°C 20.4°F-6.4°C 87% 7.0 mph SE11.3 kmh SE 12.0 mph19.3 kmh 29.79 in1008.8 mb 0.00 in0.0 mm 0.00 in/hr0.0 mm/hr 0.00 in0.0 mm
05:00 AM 23.7°F-4.6°C 20.4°F-6.4°C 87% 11.0 mph SE17.7 kmh SE 12.0 mph19.3 kmh 29.79 in1008.8 mb 0.00 in0.0 mm 0.00 in/hr0.0 mm/hr 0.00 in0.0 mm
05:01 AM 23.7°F-4.6°C 20.4°F-6.4°C 87% 8.0 mph SE12.9 kmh SE 12.0 mph19.3 kmh 29.79 in1008.8 mb 0.00 in0.0 mm 0.00 in/hr0.0 mm/hr 0.00 in0.0 mm
05:02 AM 23.7°F-4.6°C 20.4°F-6.4°C 87% 11.0 mph SE17.7 kmh SE 11.0 mph17.7 kmh 29.79 in1008.8 mb 0.00 in0.0 mm 0.00 in/hr0.0 mm/hr 0.00 in0.0 mm
05:03 AM 23.7°F-4.6°C 20.4°F-6.4°C 87% 9.0 mph SE14.5 kmh SE 13.0 mph20.9 kmh 29.79 in1008.8 mb 0.00 in0.0 mm 0.00 in/hr0.0 mm/hr 0.00 in0.0 mm
05:04 AM 23.7°F-4.6°C 20.4°F-6.4°C 87% 8.0 mph SE12.9 kmh SE 13.0 mph20.9 kmh 29.79 in1008.8 mb 0.00 in0.0 mm 0.00 in/hr0.0 mm/hr 0.00 in0.0 mm
05:05 AM 23.7°F-4.6°C 20.4°F-6.4°C 87% 9.0 mph SE14.5 kmh SE 13.0 mph20.9 kmh 29.79 in1008.8 mb 0.00 in0.0 mm 0.00 in/hr0.0 mm/hr 0.00 in0.0 mm
05:06 AM 23.7°F-4.6°C 20.4°F-6.4°C 87% 8.0 mph SE12.9 kmh SE 13.0 mph20.9 kmh 29.78 in1008.5 mb 0.00 in0.0 mm 0.00 in/hr0.0 mm/hr 0.00 in0.0 mm
05:07 AM 23.8°F-4.6°C 20.5°F-6.4°C 87% 8.0 mph SE12.9 kmh SE 13.0 mph20.9 kmh 29.78 in1008.5 mb 0.00 in0.0 mm 0.00 in/hr0.0 mm/hr 0.00 in0.0 mm
05:08 AM 23.8°F-4.6°C 20.5°F-6.4°C 87% 8.0 mph SE12.9 kmh SE 13.0 mph20.9 kmh 29.78 in1008.5 mb 0.00 in0.0 mm 0.00 in/hr0.0 mm/hr 0.00 in0.0 mm
05:09 AM 23.8°F-4.6°C 20.5°F-6.4°C 87% 8.0 mph SE12.9 kmh SE 13.0 mph20.9 kmh 29.78 in1008.5 mb 0.00 in0.0 mm 0.00 in/hr0.0 mm/hr 0.00 in0.0 mm
05:10 AM 23.8°F-4.6°C 20.5°F-6.4°C 87% 8.0 mph SE12.9 kmh SE 13.0 mph20.9 kmh 29.78 in1008.5 mb 0.00 in0.0 mm 0.00 in/hr0.0 mm/hr 0.00 in0.0 mm
05:11 AM 23.8°F-4.6°C 20.5°F-6.4°C 87% 9.0 mph SE14.5 kmh SE 13.0 mph20.9 kmh 29.78 in1008.5 mb 0.00 in0.0 mm 0.00 in/hr0.0 mm/hr 0.00 in0.0 mm
05:12 AM 23.8°F-4.6°C 20.5°F-6.4°C 87% 10.0 mph SE16.1 kmh SE 13.0 mph20.9 kmh 29.78 in1008.5 mb 0.00 in0.0 mm 0.00 in/hr0.0 mm/hr 0.00 in0.0 mm
05:13 AM 23.8°F-4.6°C 20.5°F-6.4°C 87% 9.0 mph SE14.5 kmh SE 13.0 mph20.9 kmh 29.78 in1008.5 mb 0.00 in0.0 mm 0.00 in/hr0.0 mm/hr 0.00 in0.0 mm
05:14 AM 23.8°F-4.6°C 20.5°F-6.4°C 87% 8.0 mph SE12.9 kmh SE 13.0 mph20.9 kmh 29.79 in1008.8 mb 0.00 in0.0 mm 0.00 in/hr0.0 mm/hr 0.00 in0.0 mm
05:15 AM 23.8°F-4.6°C 20.5°F-6.4°C 87% 10.0 mph SE16.1 kmh SE 13.0 mph20.9 kmh 29.79 in1008.8 mb 0.00 in0.0 mm 0.00 in/hr0.0 mm/hr 0.00 in0.0 mm
05:16 AM 23.8°F-4.6°C 20.5°F-6.4°C 87% 9.0 mph SE14.5 kmh SE 13.0 mph20.9 kmh 29.78 in1008.5 mb 0.00 in0.0 mm 0.00 in/hr0.0 mm/hr 0.00 in0.0 mm
05:17 AM 23.8°F-4.6°C 20.5°F-6.4°C 87% 8.0 mph SE12.9 kmh SE 13.0 mph20.9 kmh 29.78 in1008.5 mb 0.00 in0.0 mm 0.00 in/hr0.0 mm/hr 0.00 in0.0 mm
05:18 AM 23.8°F-4.6°C 20.5°F-6.4°C 87% 9.0 mph SE14.5 kmh SE 13.0 mph20.9 kmh 29.78 in1008.5 mb 0.00 in0.0 mm 0.00 in/hr0.0 mm/hr 0.00 in0.0 mm
05:19 AM 23.8°F-4.6°C 20.5°F-6.4°C 87% 10.0 mph SSE16.1 kmh SSE 13.0 mph20.9 kmh 29.78 in1008.5 mb 0.00 in0.0 mm 0.00 in/hr0.0 mm/hr 0.00 in0.0 mm
05:20 AM 23.9°F-4.5°C 20.6°F-6.3°C 87% 8.0 mph SE12.9 kmh SE 13.0 mph20.9 kmh 29.79 in1008.8 mb 0.00 in0.0 mm 0.00 in/hr0.0 mm/hr 0.00 in0.0 mm
05:21 AM 23.9°F-4.5°C 20.6°F-6.3°C 87% 11.0 mph SSE17.7 kmh SSE 13.0 mph20.9 kmh 29.79 in1008.8 mb 0.00 in0.0 mm 0.00 in/hr0.0 mm/hr 0.00 in0.0 mm
05:22 AM 23.8°F-4.6°C 20.5°F-6.4°C 87% 11.0 mph SE17.7 kmh SE 13.0 mph20.9 kmh 29.79 in1008.8 mb 0.00 in0.0 mm 0.00 in/hr0.0 mm/hr 0.00 in0.0 mm
05:23 AM 23.9°F-4.5°C 20.6°F-6.3°C 87% 9.0 mph SE14.5 kmh SE 13.0 mph20.9 kmh 29.79 in1008.8 mb 0.00 in0.0 mm 0.00 in/hr0.0 mm/hr 0.00 in0.0 mm
05:24 AM 23.9°F-4.5°C 20.6°F-6.3°C 87% 8.0 mph SSE12.9 kmh SSE 13.0 mph20.9 kmh 29.79 in1008.8 mb 0.00 in0.0 mm 0.00 in/hr0.0 mm/hr 0.00 in0.0 mm
05:25 AM 23.9°F-4.5°C 20.6°F-6.3°C 87% 9.0 mph SE14.5 kmh SE 13.0 mph20.9 kmh 29.79 in1008.8 mb 0.00 in0.0 mm 0.00 in/hr0.0 mm/hr 0.00 in0.0 mm
05:26 AM 23.9°F-4.5°C 20.6°F-6.3°C 87% 11.0 mph SE17.7 kmh SE 13.0 mph20.9 kmh 29.78 in1008.5 mb 0.00 in0.0 mm 0.00 in/hr0.0 mm/hr 0.00 in0.0 mm
05:27 AM 23.9°F-4.5°C 20.6°F-6.3°C 87% 9.0 mph SSE14.5 kmh SSE 13.0 mph20.9 kmh 29.78 in1008.5 mb 0.00 in0.0 mm 0.00 in/hr0.0 mm/hr 0.00 in0.0 mm
05:28 AM 23.9°F-4.5°C 20.6°F-6.3°C 87% 9.0 mph SE14.5 kmh SE 13.0 mph20.9 kmh 29.78 in1008.5 mb 0.00 in0.0 mm 0.00 in/hr0.0 mm/hr 0.00 in0.0 mm
05:29 AM 23.9°F-4.5°C 20.6°F-6.3°C 87% 9.0 mph SE14.5 kmh SE 13.0 mph20.9 kmh 29.78 in1008.5 mb 0.00 in0.0 mm 0.00 in/hr0.0 mm/hr 0.00 in0.0 mm
05:30 AM 23.9°F-4.5°C 20.6°F-6.3°C 87% 9.0 mph SE14.5 kmh SE 13.0 mph20.9 kmh 29.78 in1008.5 mb 0.00 in0.0 mm 0.00 in/hr0.0 mm/hr 0.00 in0.0 mm
05:31 AM 23.9°F-4.5°C 20.6°F-6.3°C 87% 10.0 mph SE16.1 kmh SE 13.0 mph20.9 kmh 29.78 in1008.5 mb 0.00 in0.0 mm 0.00 in/hr0.0 mm/hr 0.00 in0.0 mm
05:32 AM 23.9°F-4.5°C 20.6°F-6.3°C 87% 8.0 mph SE12.9 kmh SE 10.0 mph16.1 kmh 29.78 in1008.5 mb 0.00 in0.0 mm 0.00 in/hr0.0 mm/hr 0.00 in0.0 mm
05:33 AM 23.9°F-4.5°C 20.6°F-6.3°C 87% 7.0 mph SE11.3 kmh SE 10.0 mph16.1 kmh 29.78 in1008.5 mb 0.00 in0.0 mm 0.00 in/hr0.0 mm/hr 0.00 in0.0 mm
05:34 AM 23.9°F-4.5°C 20.6°F-6.3°C 87% 9.0 mph SE14.5 kmh SE 10.0 mph16.1 kmh 29.78 in1008.5 mb 0.00 in0.0 mm 0.00 in/hr0.0 mm/hr 0.00 in0.0 mm
05:35 AM 23.9°F-4.5°C 20.6°F-6.3°C 87% 9.0 mph SE14.5 kmh SE 10.0 mph16.1 kmh 29.78 in1008.5 mb 0.00 in0.0 mm 0.00 in/hr0.0 mm/hr 0.00 in0.0 mm
05:36 AM 23.9°F-4.5°C 20.6°F-6.3°C 87% 8.0 mph SE12.9 kmh SE 10.0 mph16.1 kmh 29.78 in1008.5 mb 0.00 in0.0 mm 0.00 in/hr0.0 mm/hr 0.00 in0.0 mm
05:37 AM 23.9°F-4.5°C 20.6°F-6.3°C 87% 7.0 mph SE11.3 kmh SE 10.0 mph16.1 kmh 29.77 in1008.1 mb 0.00 in0.0 mm 0.00 in/hr0.0 mm/hr 0.00 in0.0 mm
05:38 AM 23.9°F-4.5°C 20.6°F-6.3°C 87% 9.0 mph SE14.5 kmh SE 10.0 mph16.1 kmh 29.77 in1008.1 mb 0.00 in0.0 mm 0.00 in/hr0.0 mm/hr 0.00 in0.0 mm
05:39 AM 23.9°F-4.5°C 20.6°F-6.3°C 87% 7.0 mph SE11.3 kmh SE 10.0 mph16.1 kmh 29.77 in1008.1 mb 0.00 in0.0 mm 0.00 in/hr0.0 mm/hr 0.00 in0.0 mm
05:40 AM 23.9°F-4.5°C 20.6°F-6.3°C 87% 6.0 mph SE9.7 kmh SE 10.0 mph16.1 kmh 29.77 in1008.1 mb 0.00 in0.0 mm 0.00 in/hr0.0 mm/hr 0.00 in0.0 mm
05:41 AM 23.9°F-4.5°C 20.6°F-6.3°C 87% 9.0 mph SSE14.5 kmh SSE 10.0 mph16.1 kmh 29.77 in1008.1 mb 0.00 in0.0 mm 0.00 in/hr0.0 mm/hr 0.00 in0.0 mm
05:42 AM 23.9°F-4.5°C 20.6°F-6.3°C 87% 8.0 mph SE12.9 kmh SE 10.0 mph16.1 kmh 29.77 in1008.1 mb 0.00 in0.0 mm 0.00 in/hr0.0 mm/hr 0.00 in0.0 mm
05:43 AM 23.9°F-4.5°C 20.6°F-6.3°C 87% 9.0 mph SE14.5 kmh SE 10.0 mph16.1 kmh 29.77 in1008.1 mb 0.00 in0.0 mm 0.00 in/hr0.0 mm/hr 0.00 in0.0 mm
05:44 AM 23.9°F-4.5°C 20.6°F-6.3°C 87% 6.0 mph SE9.7 kmh SE 10.0 mph16.1 kmh 29.77 in1008.1 mb 0.00 in0.0 mm 0.00 in/hr0.0 mm/hr 0.00 in0.0 mm
05:45 AM 23.9°F-4.5°C 20.6°F-6.3°C 87% 7.0 mph SE11.3 kmh SE 10.0 mph16.1 kmh 29.77 in1008.1 mb 0.00 in0.0 mm 0.00 in/hr0.0 mm/hr 0.00 in0.0 mm
05:46 AM 23.9°F-4.5°C 20.6°F-6.3°C 87% 6.0 mph SE9.7 kmh SE 10.0 mph16.1 kmh 29.76 in1007.8 mb 0.00 in0.0 mm 0.00 in/hr0.0 mm/hr 0.00 in0.0 mm
05:47 AM 23.9°F-4.5°C 20.6°F-6.3°C 87% 9.0 mph SE14.5 kmh SE 10.0 mph16.1 kmh 29.76 in1007.8 mb 0.00 in0.0 mm 0.00 in/hr0.0 mm/hr 0.00 in0.0 mm
05:48 AM 23.9°F-4.5°C 20.6°F-6.3°C 87% 9.0 mph SE14.5 kmh SE 10.0 mph16.1 kmh 29.76 in1007.8 mb 0.00 in0.0 mm 0.00 in/hr0.0 mm/hr 0.00 in0.0 mm
05:49 AM 23.9°F-4.5°C 20.6°F-6.3°C 87% 7.0 mph SE11.3 kmh SE 10.0 mph16.1 kmh 29.76 in1007.8 mb 0.00 in0.0 mm 0.00 in/hr0.0 mm/hr 0.00 in0.0 mm
05:50 AM 23.9°F-4.5°C 20.6°F-6.3°C 87% 8.0 mph SE12.9 kmh SE 10.0 mph16.1 kmh 29.76 in1007.8 mb 0.00 in0.0 mm 0.00 in/hr0.0 mm/hr 0.00 in0.0 mm
05:51 AM 23.9°F-4.5°C 20.6°F-6.3°C 87% 8.0 mph SE12.9 kmh SE 10.0 mph16.1 kmh 29.76 in1007.8 mb 0.00 in0.0 mm 0.00 in/hr0.0 mm/hr 0.00 in0.0 mm
05:52 AM 23.9°F-4.5°C 20.6°F-6.3°C 87% 7.0 mph SE11.3 kmh SE 10.0 mph16.1 kmh 29.76 in1007.8 mb 0.00 in0.0 mm 0.00 in/hr0.0 mm/hr 0.00 in0.0 mm
05:53 AM 23.9°F-4.5°C 20.6°F-6.3°C 87% 8.0 mph SE12.9 kmh SE 10.0 mph16.1 kmh 29.76 in1007.8 mb 0.00 in0.0 mm 0.00 in/hr0.0 mm/hr 0.00 in0.0 mm
05:54 AM 23.9°F-4.5°C 20.6°F-6.3°C 87% 9.0 mph SE14.5 kmh SE 10.0 mph16.1 kmh 29.76 in1007.8 mb 0.00 in0.0 mm 0.00 in/hr0.0 mm/hr 0.00 in0.0 mm
05:55 AM 23.9°F-4.5°C 20.6°F-6.3°C 87% 8.0 mph SE12.9 kmh SE 11.0 mph17.7 kmh 29.76 in1007.8 mb 0.00 in0.0 mm 0.00 in/hr0.0 mm/hr 0.00 in0.0 mm
05:56 AM 23.9°F-4.5°C 20.6°F-6.3°C 87% 8.0 mph SE12.9 kmh SE 11.0 mph17.7 kmh 29.76 in1007.8 mb 0.00 in0.0 mm 0.00 in/hr0.0 mm/hr 0.00 in0.0 mm
05:57 AM 23.9°F-4.5°C 20.6°F-6.3°C 87% 6.0 mph SE9.7 kmh SE 11.0 mph17.7 kmh 29.76 in1007.8 mb 0.00 in0.0 mm 0.00 in/hr0.0 mm/hr 0.00 in0.0 mm
05:58 AM 23.9°F-4.5°C 20.6°F-6.3°C 87% 6.0 mph SE9.7 kmh SE 11.0 mph17.7 kmh 29.76 in1007.8 mb 0.00 in0.0 mm 0.00 in/hr0.0 mm/hr 0.00 in0.0 mm
05:59 AM 23.9°F-4.5°C 20.6°F-6.3°C 87% 9.0 mph SE14.5 kmh SE 11.0 mph17.7 kmh 29.75 in1007.5 mb 0.00 in0.0 mm 0.00 in/hr0.0 mm/hr 0.00 in0.0 mm
06:00 AM 23.9°F-4.5°C 20.6°F-6.3°C 87% 10.0 mph SE16.1 kmh SE 11.0 mph17.7 kmh 29.75 in1007.5 mb 0.00 in0.0 mm 0.00 in/hr0.0 mm/hr 0.00 in0.0 mm
06:01 AM 23.9°F-4.5°C 20.6°F-6.3°C 87% 8.0 mph SE12.9 kmh SE 11.0 mph17.7 kmh 29.75 in1007.5 mb 0.00 in0.0 mm 0.00 in/hr0.0 mm/hr 0.00 in0.0 mm
06:02 AM 23.9°F-4.5°C 20.6°F-6.3°C 87% 7.0 mph SE11.3 kmh SE 10.0 mph16.1 kmh 29.75 in1007.5 mb 0.00 in0.0 mm 0.00 in/hr0.0 mm/hr 0.00 in0.0 mm
06:03 AM 23.9°F-4.5°C 20.9°F-6.2°C 88% 5.0 mph SSE8.0 kmh SSE 10.0 mph16.1 kmh 29.75 in1007.5 mb 0.00 in0.0 mm 0.00 in/hr0.0 mm/hr 0.00 in0.0 mm
06:04 AM 23.9°F-4.5°C 20.9°F-6.2°C 88% 7.0 mph SE11.3 kmh SE 10.0 mph16.1 kmh 29.76 in1007.8 mb 0.00 in0.0 mm 0.00 in/hr0.0 mm/hr 0.00 in0.0 mm
06:05 AM 23.9°F-4.5°C 20.9°F-6.2°C 88% 9.0 mph SSE14.5 kmh SSE 10.0 mph16.1 kmh 29.75 in1007.5 mb 0.00 in0.0 mm 0.00 in/hr0.0 mm/hr 0.00 in0.0 mm
06:06 AM 23.9°F-4.5°C 20.9°F-6.2°C 88% 6.0 mph SSE9.7 kmh SSE 10.0 mph16.1 kmh 29.75 in1007.5 mb 0.00 in0.0 mm 0.00 in/hr0.0 mm/hr 0.00 in0.0 mm
06:07 AM 23.9°F-4.5°C 20.9°F-6.2°C 88% 7.0 mph SSE11.3 kmh SSE 10.0 mph16.1 kmh 29.75 in1007.5 mb 0.00 in0.0 mm 0.00 in/hr0.0 mm/hr 0.00 in0.0 mm
06:08 AM 23.9°F-4.5°C 20.9°F-6.2°C 88% 9.0 mph SE14.5 kmh SE 10.0 mph16.1 kmh 29.75 in1007.5 mb 0.00 in0.0 mm 0.00 in/hr0.0 mm/hr 0.00 in0.0 mm
06:09 AM 23.9°F-4.5°C 20.9°F-6.2°C 88% 7.0 mph SSE11.3 kmh SSE 10.0 mph16.1 kmh 29.75 in1007.5 mb 0.00 in0.0 mm 0.00 in/hr0.0 mm/hr 0.00 in0.0 mm
06:10 AM 23.9°F-4.5°C 20.9°F-6.2°C 88% 7.0 mph SE11.3 kmh SE 10.0 mph16.1 kmh 29.75 in1007.5 mb 0.00 in0.0 mm 0.00 in/hr0.0 mm/hr 0.00 in0.0 mm
06:11 AM 23.9°F-4.5°C 20.9°F-6.2°C 88% 7.0 mph SSE11.3 kmh SSE 10.0 mph16.1 kmh 29.75 in1007.5 mb 0.00 in0.0 mm 0.00 in/hr0.0 mm/hr 0.00 in0.0 mm
06:12 AM 23.9°F-4.5°C 20.9°F-6.2°C 88% 7.0 mph SE11.3 kmh SE 10.0 mph16.1 kmh 29.75 in1007.5 mb 0.00 in0.0 mm 0.00 in/hr0.0 mm/hr 0.00 in0.0 mm
06:13 AM 23.9°F-4.5°C 20.9°F-6.2°C 88% 7.0 mph SSE11.3 kmh SSE 10.0 mph16.1 kmh 29.75 in1007.5 mb 0.00 in0.0 mm 0.00 in/hr0.0 mm/hr 0.00 in0.0 mm
06:14 AM 23.9°F-4.5°C 20.9°F-6.2°C 88% 6.0 mph SSE9.7 kmh SSE 10.0 mph16.1 kmh 29.75 in1007.5 mb 0.00 in0.0 mm 0.00 in/hr0.0 mm/hr 0.00 in0.0 mm
06:15 AM 23.9°F-4.5°C 20.9°F-6.2°C 88% 7.0 mph SE11.3 kmh SE 10.0 mph16.1 kmh 29.75 in1007.5 mb 0.00 in0.0 mm 0.00 in/hr0.0 mm/hr 0.00 in0.0 mm
06:16 AM 23.9°F-4.5°C 20.9°F-6.2°C 88% 8.0 mph SE12.9 kmh SE 10.0 mph16.1 kmh 29.75 in1007.5 mb 0.00 in0.0 mm 0.00 in/hr0.0 mm/hr 0.00 in0.0 mm
06:17 AM 24.0°F-4.4°C 21.0°F-6.1°C 88% 8.0 mph SSE12.9 kmh SSE 10.0 mph16.1 kmh 29.75 in1007.5 mb 0.00 in0.0 mm 0.00 in/hr0.0 mm/hr 0.00 in0.0 mm
06:18 AM 24.0°F-4.4°C 21.0°F-6.1°C 88% 9.0 mph SSE14.5 kmh SSE 11.0 mph17.7 kmh 29.75 in1007.5 mb 0.00 in0.0 mm 0.00 in/hr0.0 mm/hr 0.00 in0.0 mm
06:19 AM 24.0°F-4.4°C 21.0°F-6.1°C 88% 8.0 mph SSE12.9 kmh SSE 11.0 mph17.7 kmh 29.75 in1007.5 mb 0.00 in0.0 mm 0.00 in/hr0.0 mm/hr 0.00 in0.0 mm
06:20 AM 24.0°F-4.4°C 21.0°F-6.1°C 88% 8.0 mph S12.9 kmh S 11.0 mph17.7 kmh 29.75 in1007.5 mb 0.00 in0.0 mm 0.00 in/hr0.0 mm/hr 0.00 in0.0 mm
06:21 AM 24.0°F-4.4°C 21.0°F-6.1°C 88% 7.0 mph SSE11.3 kmh SSE 11.0 mph17.7 kmh 29.75 in1007.5 mb 0.00 in0.0 mm 0.00 in/hr0.0 mm/hr 0.00 in0.0 mm
06:22 AM 24.0°F-4.4°C 21.2°F-6.0°C 89% 8.0 mph SSE12.9 kmh SSE 11.0 mph17.7 kmh 29.75 in1007.5 mb 0.00 in0.0 mm 0.00 in/hr0.0 mm/hr 0.00 in0.0 mm
06:23 AM 23.9°F-4.5°C 21.1°F-6.1°C 89% 8.0 mph SSE12.9 kmh SSE 11.0 mph17.7 kmh 29.75 in1007.5 mb 0.00 in0.0 mm 0.00 in/hr0.0 mm/hr 0.00 in0.0 mm
06:24 AM 24.0°F-4.4°C 21.2°F-6.0°C 89% 6.0 mph SSE9.7 kmh SSE 11.0 mph17.7 kmh 29.75 in1007.5 mb 0.00 in0.0 mm 0.00 in/hr0.0 mm/hr 0.00 in0.0 mm
06:25 AM 24.0°F-4.4°C 21.2°F-6.0°C 89% 8.0 mph SSE12.9 kmh SSE 11.0 mph17.7 kmh 29.75 in1007.5 mb 0.00 in0.0 mm 0.00 in/hr0.0 mm/hr 0.00 in0.0 mm
06:26 AM 24.0°F-4.4°C 21.2°F-6.0°C 89% 10.0 mph SSE16.1 kmh SSE 11.0 mph17.7 kmh 29.75 in1007.5 mb 0.00 in0.0 mm 0.00 in/hr0.0 mm/hr 0.00 in0.0 mm
06:27 AM 24.0°F-4.4°C 21.2°F-6.0°C 89% 8.0 mph S12.9 kmh S 11.0 mph17.7 kmh 29.75 in1007.5 mb 0.00 in0.0 mm 0.00 in/hr0.0 mm/hr 0.00 in0.0 mm
06:28 AM 23.9°F-4.5°C 21.1°F-6.1°C 89% 7.0 mph SSE11.3 kmh SSE 11.0 mph17.7 kmh 29.75 in1007.5 mb 0.00 in0.0 mm 0.00 in/hr0.0 mm/hr 0.00 in0.0 mm
06:29 AM 24.0°F-4.4°C 21.2°F-6.0°C 89% 9.0 mph SE14.5 kmh SE 11.0 mph17.7 kmh 29.75 in1007.5 mb 0.00 in0.0 mm 0.00 in/hr0.0 mm/hr 0.00 in0.0 mm
06:30 AM 24.0°F-4.4°C 21.2°F-6.0°C 89% 8.0 mph SSE12.9 kmh SSE 11.0 mph17.7 kmh 29.75 in1007.5 mb 0.00 in0.0 mm 0.00 in/hr0.0 mm/hr 0.00 in0.0 mm
06:31 AM 24.0°F-4.4°C 21.2°F-6.0°C 89% 7.0 mph SSE11.3 kmh SSE 11.0 mph17.7 kmh 29.75 in1007.5 mb 0.00 in0.0 mm 0.00 in/hr0.0 mm/hr 0.00 in0.0 mm
06:32 AM 23.9°F-4.5°C 21.1°F-6.1°C 89% 7.0 mph S11.3 kmh S 8.0 mph12.9 kmh 29.75 in1007.5 mb 0.00 in0.0 mm 0.00 in/hr0.0 mm/hr 0.00 in0.0 mm
06:33 AM 23.9°F-4.5°C 21.4°F-5.9°C 90% 8.0 mph SSE12.9 kmh SSE 10.0 mph16.1 kmh 29.75 in1007.5 mb 0.00 in0.0 mm 0.00 in/hr0.0 mm/hr 0.00 in0.0 mm
06:34 AM 24.0°F-4.4°C 21.5°F-5.8°C 90% 7.0 mph SSE11.3 kmh SSE 11.0 mph17.7 kmh 29.75 in1007.5 mb 0.00 in0.0 mm 0.00 in/hr0.0 mm/hr 0.00 in0.0 mm
06:35 AM 24.0°F-4.4°C 21.5°F-5.8°C 90% 6.0 mph SSE9.7 kmh SSE 11.0 mph17.7 kmh 29.75 in1007.5 mb 0.00 in0.0 mm 0.00 in/hr0.0 mm/hr 0.00 in0.0 mm
06:36 AM 24.0°F-4.4°C 21.5°F-5.8°C 90% 6.0 mph SSE9.7 kmh SSE 11.0 mph17.7 kmh 29.75 in1007.5 mb 0.00 in0.0 mm 0.00 in/hr0.0 mm/hr 0.00 in0.0 mm
06:37 AM 24.0°F-4.4°C 21.5°F-5.8°C 90% 7.0 mph SSE11.3 kmh SSE 11.0 mph17.7 kmh 29.75 in1007.5 mb 0.00 in0.0 mm 0.00 in/hr0.0 mm/hr 0.00 in0.0 mm
06:38 AM 24.0°F-4.4°C 21.5°F-5.8°C 90% 6.0 mph SSE9.7 kmh SSE 11.0 mph17.7 kmh 29.75 in1007.5 mb 0.00 in0.0 mm 0.00 in/hr0.0 mm/hr 0.00 in0.0 mm
06:39 AM 24.0°F-4.4°C 21.5°F-5.8°C 90% 6.0 mph SSE9.7 kmh SSE 11.0 mph17.7 kmh 29.75 in1007.5 mb 0.00 in0.0 mm 0.00 in/hr0.0 mm/hr 0.00 in0.0 mm
06:40 AM 24.0°F-4.4°C 21.5°F-5.8°C 90% 6.0 mph S9.7 kmh S 11.0 mph17.7 kmh 29.75 in1007.5 mb 0.00 in0.0 mm 0.00 in/hr0.0 mm/hr 0.00 in0.0 mm
06:41 AM 24.0°F-4.4°C 21.5°F-5.8°C 90% 5.0 mph S8.0 kmh S 11.0 mph17.7 kmh 29.75 in1007.5 mb 0.00 in0.0 mm 0.00 in/hr0.0 mm/hr 0.00 in0.0 mm
06:42 AM 24.0°F-4.4°C 21.5°F-5.8°C 90% 6.0 mph SSE9.7 kmh SSE 11.0 mph17.7 kmh 29.75 in1007.5 mb 0.00 in0.0 mm 0.00 in/hr0.0 mm/hr 0.00 in0.0 mm
06:43 AM 24.0°F-4.4°C 21.5°F-5.8°C 90% 6.0 mph S9.7 kmh S 11.0 mph17.7 kmh 29.75 in1007.5 mb 0.00 in0.0 mm 0.00 in/hr0.0 mm/hr 0.00 in0.0 mm
06:44 AM 24.0°F-4.4°C 21.5°F-5.8°C 90% 6.0 mph S9.7 kmh S 11.0 mph17.7 kmh 29.75 in1007.5 mb 0.00 in0.0 mm 0.00 in/hr0.0 mm/hr 0.00 in0.0 mm
06:45 AM 24.0°F-4.4°C 21.5°F-5.8°C 90% 6.0 mph SSE9.7 kmh SSE 11.0 mph17.7 kmh 29.75 in1007.5 mb 0.00 in0.0 mm 0.00 in/hr0.0 mm/hr 0.00 in0.0 mm
06:46 AM 24.0°F-4.4°C 21.5°F-5.8°C 90% 6.0 mph S9.7 kmh S 11.0 mph17.7 kmh 29.76 in1007.8 mb 0.00 in0.0 mm 0.00 in/hr0.0 mm/hr 0.00 in0.0 mm
06:47 AM 24.0°F-4.4°C 21.5°F-5.8°C 90% 5.0 mph S8.0 kmh S 11.0 mph17.7 kmh 29.76 in1007.8 mb 0.00 in0.0 mm 0.00 in/hr0.0 mm/hr 0.00 in0.0 mm
06:48 AM 24.0°F-4.4°C 21.5°F-5.8°C 90% 5.0 mph S8.0 kmh S 11.0 mph17.7 kmh 29.76 in1007.8 mb 0.00 in0.0 mm 0.00 in/hr0.0 mm/hr 0.00 in0.0 mm
06:49 AM 24.0°F-4.4°C 21.8°F-5.7°C 91% 5.0 mph S8.0 kmh S 11.0 mph17.7 kmh 29.76 in1007.8 mb 0.00 in0.0 mm 0.00 in/hr0.0 mm/hr 0.00 in0.0 mm
06:50 AM 24.0°F-4.4°C 21.8°F-5.7°C 91% 5.0 mph S8.0 kmh S 11.0 mph17.7 kmh 29.76 in1007.8 mb 0.00 in0.0 mm 0.00 in/hr0.0 mm/hr 0.00 in0.0 mm
06:51 AM 24.0°F-4.4°C 21.8°F-5.7°C 91% 6.0 mph S9.7 kmh S 11.0 mph17.7 kmh 29.76 in1007.8 mb 0.00 in0.0 mm 0.00 in/hr0.0 mm/hr 0.00 in0.0 mm
06:52 AM 24.0°F-4.4°C 21.8°F-5.7°C 91% 4.0 mph S6.4 kmh S 11.0 mph17.7 kmh 29.76 in1007.8 mb 0.00 in0.0 mm 0.00 in/hr0.0 mm/hr 0.00 in0.0 mm
06:53 AM 24.0°F-4.4°C 21.8°F-5.7°C 91% 5.0 mph S8.0 kmh S 11.0 mph17.7 kmh 29.76 in1007.8 mb 0.00 in0.0 mm 0.00 in/hr0.0 mm/hr 0.00 in0.0 mm
06:54 AM 24.0°F-4.4°C 21.8°F-5.7°C 91% 6.0 mph S9.7 kmh S 11.0 mph17.7 kmh 29.76 in1007.8 mb 0.00 in0.0 mm 0.00 in/hr0.0 mm/hr 0.00 in0.0 mm
06:55 AM 24.0°F-4.4°C 21.8°F-5.7°C 91% 4.0 mph S6.4 kmh S 11.0 mph17.7 kmh 29.76 in1007.8 mb 0.00 in0.0 mm 0.00 in/hr0.0 mm/hr 0.00 in0.0 mm
06:56 AM 24.0°F-4.4°C 21.8°F-5.7°C 91% 4.0 mph SSW6.4 kmh SSW 11.0 mph17.7 kmh 29.76 in1007.8 mb 0.00 in0.0 mm 0.00 in/hr0.0 mm/hr 0.00 in0.0 mm
06:57 AM 24.0°F-4.4°C 21.8°F-5.7°C 91% 4.0 mph S6.4 kmh S 11.0 mph17.7 kmh 29.76 in1007.8 mb 0.00 in0.0 mm 0.00 in/hr0.0 mm/hr 0.00 in0.0 mm
06:58 AM 24.0°F-4.4°C 21.8°F-5.7°C 91% 5.0 mph S8.0 kmh S 11.0 mph17.7 kmh 29.76 in1007.8 mb 0.00 in0.0 mm 0.00 in/hr0.0 mm/hr 0.00 in0.0 mm
06:59 AM 24.0°F-4.4°C 21.8°F-5.7°C 91% 5.0 mph S8.0 kmh S 11.0 mph17.7 kmh 29.76 in1007.8 mb 0.00 in0.0 mm 0.00 in/hr0.0 mm/hr 0.00 in0.0 mm
07:00 AM 24.0°F-4.4°C 21.8°F-5.7°C 91% 4.0 mph S6.4 kmh S 11.0 mph17.7 kmh 29.76 in1007.8 mb 0.00 in0.0 mm 0.00 in/hr0.0 mm/hr 0.00 in0.0 mm
07:01 AM 24.0°F-4.4°C 21.8°F-5.7°C 91% 4.0 mph SSW6.4 kmh SSW 11.0 mph17.7 kmh 29.76 in1007.8 mb 0.00 in0.0 mm 0.00 in/hr0.0 mm/hr 0.00 in0.0 mm
07:02 AM 24.0°F-4.4°C 21.8°F-5.7°C 91% 4.0 mph SSW6.4 kmh SSW 5.0 mph8.0 kmh 29.76 in1007.8 mb 0.00 in0.0 mm 0.00 in/hr0.0 mm/hr 0.00 in0.0 mm
07:03 AM 24.0°F-4.4°C 21.8°F-5.7°C 91% 4.0 mph S6.4 kmh S 5.0 mph8.0 kmh 29.76 in1007.8 mb 0.00 in0.0 mm 0.00 in/hr0.0 mm/hr 0.00 in0.0 mm
07:04 AM 23.9°F-4.5°C 21.7°F-5.7°C 91% 4.0 mph S6.4 kmh S 6.0 mph9.7 kmh 29.76 in1007.8 mb 0.00 in0.0 mm 0.00 in/hr0.0 mm/hr 0.00 in0.0 mm
07:05 AM 23.9°F-4.5°C 21.7°F-5.7°C 91% 3.0 mph S4.8 kmh S 6.0 mph9.7 kmh 29.76 in1007.8 mb 0.00 in0.0 mm 0.00 in/hr0.0 mm/hr 0.00 in0.0 mm
07:06 AM 24.0°F-4.4°C 21.8°F-5.7°C 91% 5.0 mph S8.0 kmh S 7.0 mph11.3 kmh 29.76 in1007.8 mb 0.00 in0.0 mm 0.00 in/hr0.0 mm/hr 0.00 in0.0 mm
07:07 AM 23.9°F-4.5°C 21.7°F-5.7°C 91% 6.0 mph S9.7 kmh S 7.0 mph11.3 kmh 29.76 in1007.8 mb 0.00 in0.0 mm 0.00 in/hr0.0 mm/hr 0.00 in0.0 mm
07:08 AM 23.9°F-4.5°C 21.7°F-5.7°C 91% 5.0 mph S8.0 kmh S 7.0 mph11.3 kmh 29.76 in1007.8 mb 0.00 in0.0 mm 0.00 in/hr0.0 mm/hr 0.00 in0.0 mm
07:09 AM 23.9°F-4.5°C 21.7°F-5.7°C 91% 5.0 mph S8.0 kmh S 7.0 mph11.3 kmh 29.76 in1007.8 mb 0.00 in0.0 mm 0.00 in/hr0.0 mm/hr 0.00 in0.0 mm
07:10 AM 23.9°F-4.5°C 21.7°F-5.7°C 91% 4.0 mph S6.4 kmh S 7.0 mph11.3 kmh 29.76 in1007.8 mb 0.00 in0.0 mm 0.00 in/hr0.0 mm/hr 0.00 in0.0 mm
07:11 AM 23.9°F-4.5°C 21.7°F-5.7°C 91% 6.0 mph S9.7 kmh S 7.0 mph11.3 kmh 29.76 in1007.8 mb 0.00 in0.0 mm 0.00 in/hr0.0 mm/hr 0.00 in0.0 mm
07:12 AM 23.9°F-4.5°C 21.7°F-5.7°C 91% 5.0 mph SSW8.0 kmh SSW 7.0 mph11.3 kmh 29.76 in1007.8 mb 0.00 in0.0 mm 0.00 in/hr0.0 mm/hr 0.00 in0.0 mm
07:13 AM 23.9°F-4.5°C 21.7°F-5.7°C 91% 6.0 mph SSW9.7 kmh SSW 7.0 mph11.3 kmh 29.76 in1007.8 mb 0.00 in0.0 mm 0.00 in/hr0.0 mm/hr 0.00 in0.0 mm
07:14 AM 23.9°F-4.5°C 21.7°F-5.7°C 91% 6.0 mph S9.7 kmh S 7.0 mph11.3 kmh 29.76 in1007.8 mb 0.00 in0.0 mm 0.00 in/hr0.0 mm/hr 0.00 in0.0 mm
07:15 AM 23.9°F-4.5°C 21.7°F-5.7°C 91% 6.0 mph S9.7 kmh S 7.0 mph11.3 kmh 29.76 in1007.8 mb 0.00 in0.0 mm 0.00 in/hr0.0 mm/hr 0.00 in0.0 mm
07:16 AM 23.9°F-4.5°C 21.7°F-5.7°C 91% 6.0 mph S9.7 kmh S 7.0 mph11.3 kmh 29.76 in1007.8 mb 0.00 in0.0 mm 0.00 in/hr0.0 mm/hr 0.00 in0.0 mm
07:17 AM 23.9°F-4.5°C 21.7°F-5.7°C 91% 7.0 mph SSW11.3 kmh SSW 7.0 mph11.3 kmh 29.76 in1007.8 mb 0.00 in0.0 mm 0.00 in/hr0.0 mm/hr 0.00 in0.0 mm
07:18 AM 23.9°F-4.5°C 21.7°F-5.7°C 91% 4.0 mph S6.4 kmh S 7.0 mph11.3 kmh 29.76 in1007.8 mb 0.00 in0.0 mm 0.00 in/hr0.0 mm/hr 0.00 in0.0 mm
07:19 AM 23.9°F-4.5°C 21.7°F-5.7°C 91% 5.0 mph S8.0 kmh S 7.0 mph11.3 kmh 29.76 in1007.8 mb 0.00 in0.0 mm 0.00 in/hr0.0 mm/hr 0.00 in0.0 mm
07:20 AM 23.9°F-4.5°C 21.7°F-5.7°C 91% 4.0 mph S6.4 kmh S 7.0 mph11.3 kmh 29.76 in1007.8 mb 0.00 in0.0 mm 0.00 in/hr0.0 mm/hr 0.00 in0.0 mm
07:21 AM 23.9°F-4.5°C 21.7°F-5.7°C 91% 5.0 mph S8.0 kmh S 7.0 mph11.3 kmh 29.76 in1007.8 mb 0.00 in0.0 mm 0.00 in/hr0.0 mm/hr 0.00 in0.0 mm
07:22 AM 23.9°F-4.5°C 21.7°F-5.7°C 91% 4.0 mph S6.4 kmh S 7.0 mph11.3 kmh 29.76 in1007.8 mb 0.00 in0.0 mm 0.00 in/hr0.0 mm/hr 0.00 in0.0 mm
07:23 AM 23.9°F-4.5°C 21.7°F-5.7°C 91% 5.0 mph S8.0 kmh S 7.0 mph11.3 kmh 29.75 in1007.5 mb 0.00 in0.0 mm 0.00 in/hr0.0 mm/hr 0.00 in0.0 mm
07:24 AM 23.9°F-4.5°C 21.7°F-5.7°C 91% 3.0 mph S4.8 kmh S 7.0 mph11.3 kmh 29.75 in1007.5 mb 0.00 in0.0 mm 0.00 in/hr0.0 mm/hr 0.00 in0.0 mm
07:25 AM 23.9°F-4.5°C 21.7°F-5.7°C 91% 2.0 mph S3.2 kmh S 7.0 mph11.3 kmh 29.75 in1007.5 mb 0.00 in0.0 mm 0.00 in/hr0.0 mm/hr 0.00 in0.0 mm
07:26 AM 23.9°F-4.5°C 21.7°F-5.7°C 91% 2.0 mph S3.2 kmh S 7.0 mph11.3 kmh 29.75 in1007.5 mb 0.00 in0.0 mm 0.00 in/hr0.0 mm/hr 0.00 in0.0 mm
07:27 AM 23.9°F-4.5°C 21.7°F-5.7°C 91% 3.0 mph S4.8 kmh S 7.0 mph11.3 kmh 29.75 in1007.5 mb 0.00 in0.0 mm 0.00 in/hr0.0 mm/hr 0.00 in0.0 mm
07:28 AM 23.9°F-4.5°C 21.7°F-5.7°C 91% 2.0 mph S3.2 kmh S 7.0 mph11.3 kmh 29.75 in1007.5 mb 0.00 in0.0 mm 0.00 in/hr0.0 mm/hr 0.00 in0.0 mm
07:29 AM 23.9°F-4.5°C 21.7°F-5.7°C 91% 3.0 mph S4.8 kmh S 7.0 mph11.3 kmh 29.75 in1007.5 mb 0.00 in0.0 mm 0.00 in/hr0.0 mm/hr 0.00 in0.0 mm
07:30 AM 23.9°F-4.5°C 21.7°F-5.7°C 91% 2.0 mph S3.2 kmh S 7.0 mph11.3 kmh 29.75 in1007.5 mb 0.00 in0.0 mm 0.00 in/hr0.0 mm/hr 0.00 in0.0 mm
07:31 AM 23.9°F-4.5°C 21.7°F-5.7°C 91% 1.0 mph S1.6 kmh S 7.0 mph11.3 kmh 29.75 in1007.5 mb 0.00 in0.0 mm 0.00 in/hr0.0 mm/hr 0.00 in0.0 mm
07:32 AM 23.9°F-4.5°C 21.7°F-5.7°C 91% 2.0 mph S3.2 kmh S 2.0 mph3.2 kmh 29.75 in1007.5 mb 0.00 in0.0 mm 0.00 in/hr0.0 mm/hr 0.00 in0.0 mm
07:33 AM 23.9°F-4.5°C 21.7°F-5.7°C 91% 2.0 mph S3.2 kmh S 3.0 mph4.8 kmh 29.75 in1007.5 mb 0.00 in0.0 mm 0.00 in/hr0.0 mm/hr 0.00 in0.0 mm
07:34 AM 23.9°F-4.5°C 21.7°F-5.7°C 91% 3.0 mph S4.8 kmh S 4.0 mph6.4 kmh 29.76 in1007.8 mb 0.00 in0.0 mm 0.00 in/hr0.0 mm/hr 0.00 in0.0 mm
07:35 AM 23.9°F-4.5°C 21.7°F-5.7°C 91% 3.0 mph S4.8 kmh S 4.0 mph6.4 kmh 29.76 in1007.8 mb 0.00 in0.0 mm 0.00 in/hr0.0 mm/hr 0.00 in0.0 mm
07:36 AM 23.9°F-4.5°C 21.7°F-5.7°C 91% 3.0 mph S4.8 kmh S 4.0 mph6.4 kmh 29.76 in1007.8 mb 0.00 in0.0 mm 0.00 in/hr0.0 mm/hr 0.00 in0.0 mm
07:37 AM 23.9°F-4.5°C 21.7°F-5.7°C 91% 3.0 mph SSW4.8 kmh SSW 4.0 mph6.4 kmh 29.76 in1007.8 mb 0.00 in0.0 mm 0.00 in/hr0.0 mm/hr 0.00 in0.0 mm
07:38 AM 23.9°F-4.5°C 21.7°F-5.7°C 91% 4.0 mph SSW6.4 kmh SSW 4.0 mph6.4 kmh 29.76 in1007.8 mb 0.00 in0.0 mm 0.00 in/hr0.0 mm/hr 0.00 in0.0 mm
07:39 AM 23.9°F-4.5°C 21.7°F-5.7°C 91% 3.0 mph SSW4.8 kmh SSW 4.0 mph6.4 kmh 29.76 in1007.8 mb 0.00 in0.0 mm 0.00 in/hr0.0 mm/hr 0.00 in0.0 mm
07:40 AM 23.9°F-4.5°C 21.7°F-5.7°C 91% 3.0 mph S4.8 kmh S 4.0 mph6.4 kmh 29.76 in1007.8 mb 0.00 in0.0 mm 0.00 in/hr0.0 mm/hr 0.00 in0.0 mm
07:41 AM 23.9°F-4.5°C 21.7°F-5.7°C 91% 3.0 mph S4.8 kmh S 4.0 mph6.4 kmh 29.76 in1007.8 mb 0.00 in0.0 mm 0.00 in/hr0.0 mm/hr 0.00 in0.0 mm
07:42 AM 23.9°F-4.5°C 21.7°F-5.7°C 91% 4.0 mph S6.4 kmh S 4.0 mph6.4 kmh 29.76 in1007.8 mb 0.00 in0.0 mm 0.00 in/hr0.0 mm/hr 0.00 in0.0 mm
07:43 AM 23.9°F-4.5°C 21.7°F-5.7°C 91% 5.0 mph SSW8.0 kmh SSW 5.0 mph8.0 kmh 29.76 in1007.8 mb 0.00 in0.0 mm 0.00 in/hr0.0 mm/hr 0.00 in0.0 mm
07:44 AM 23.9°F-4.5°C 21.7°F-5.7°C 91% 4.0 mph SSW6.4 kmh SSW 6.0 mph9.7 kmh 29.76 in1007.8 mb 0.00 in0.0 mm 0.00 in/hr0.0 mm/hr 0.00 in0.0 mm
07:45 AM 23.9°F-4.5°C 21.7°F-5.7°C 91% 3.0 mph S4.8 kmh S 6.0 mph9.7 kmh 29.76 in1007.8 mb 0.00 in0.0 mm 0.00 in/hr0.0 mm/hr 0.00 in0.0 mm
07:46 AM 23.9°F-4.5°C 21.7°F-5.7°C 91% 3.0 mph SSW4.8 kmh SSW 6.0 mph9.7 kmh 29.76 in1007.8 mb 0.00 in0.0 mm 0.00 in/hr0.0 mm/hr 0.00 in0.0 mm
07:47 AM 23.9°F-4.5°C 21.7°F-5.7°C 91% 3.0 mph SSW4.8 kmh SSW 6.0 mph9.7 kmh 29.76 in1007.8 mb 0.00 in0.0 mm 0.00 in/hr0.0 mm/hr 0.00 in0.0 mm
07:48 AM 23.9°F-4.5°C 21.7°F-5.7°C 91% 3.0 mph S4.8 kmh S 6.0 mph9.7 kmh 29.76 in1007.8 mb 0.00 in0.0 mm 0.00 in/hr0.0 mm/hr 0.00 in0.0 mm
07:49 AM 23.9°F-4.5°C 21.7°F-5.7°C 91% 2.0 mph S3.2 kmh S 6.0 mph9.7 kmh 29.76 in1007.8 mb 0.00 in0.0 mm 0.00 in/hr0.0 mm/hr 0.00 in0.0 mm
07:50 AM 23.9°F-4.5°C 21.7°F-5.7°C 91% 2.0 mph S3.2 kmh S 6.0 mph9.7 kmh 29.76 in1007.8 mb 0.00 in0.0 mm 0.00 in/hr0.0 mm/hr 0.00 in0.0 mm
07:51 AM 23.9°F-4.5°C 21.9°F-5.6°C 92% 1.0 mph S1.6 kmh S 6.0 mph9.7 kmh 29.76 in1007.8 mb 0.00 in0.0 mm 0.00 in/hr0.0 mm/hr 0.00 in0.0 mm
07:52 AM 23.9°F-4.5°C 21.9°F-5.6°C 92% 1.0 mph S1.6 kmh S 6.0 mph9.7 kmh 29.76 in1007.8 mb 0.00 in0.0 mm 0.00 in/hr0.0 mm/hr 0.00 in0.0 mm
07:53 AM 23.9°F-4.5°C 21.9°F-5.6°C 92% 2.0 mph S3.2 kmh S 6.0 mph9.7 kmh 29.76 in1007.8 mb 0.00 in0.0 mm 0.00 in/hr0.0 mm/hr 0.00 in0.0 mm
07:54 AM 23.9°F-4.5°C 21.9°F-5.6°C 92% 1.0 mph S1.6 kmh S 6.0 mph9.7 kmh 29.76 in1007.8 mb 0.00 in0.0 mm 0.00 in/hr0.0 mm/hr 0.00 in0.0 mm
07:55 AM 23.9°F-4.5°C 21.9°F-5.6°C 92% 3.0 mph S4.8 kmh S 6.0 mph9.7 kmh 29.75 in1007.5 mb 0.00 in0.0 mm 0.00 in/hr0.0 mm/hr 0.00 in0.0 mm
07:56 AM 24.0°F-4.4°C 22.0°F-5.6°C 92% 2.0 mph S3.2 kmh S 6.0 mph9.7 kmh 29.75 in1007.5 mb 0.00 in0.0 mm 0.00 in/hr0.0 mm/hr 0.00 in0.0 mm
07:57 AM 23.9°F-4.5°C 21.9°F-5.6°C 92% 1.0 mph S1.6 kmh S 6.0 mph9.7 kmh 29.75 in1007.5 mb 0.00 in0.0 mm 0.00 in/hr0.0 mm/hr 0.00 in0.0 mm
07:58 AM 23.9°F-4.5°C 21.9°F-5.6°C 92% Calm Calm 6.0 mph9.7 kmh 29.75 in1007.5 mb 0.00 in0.0 mm 0.00 in/hr0.0 mm/hr 0.00 in0.0 mm
07:59 AM 23.9°F-4.5°C 21.9°F-5.6°C 92% Calm Calm 6.0 mph9.7 kmh 29.75 in1007.5 mb 0.00 in0.0 mm 0.00 in/hr0.0 mm/hr 0.00 in0.0 mm
08:00 AM 23.9°F-4.5°C 21.9°F-5.6°C 92% Calm Calm 6.0 mph9.7 kmh 29.75 in1007.5 mb 0.00 in0.0 mm 0.00 in/hr0.0 mm/hr 0.00 in0.0 mm
08:01 AM 23.9°F-4.5°C 21.9°F-5.6°C 92% 1.0 mph S1.6 kmh S 6.0 mph9.7 kmh 29.75 in1007.5 mb 0.00 in0.0 mm 0.00 in/hr0.0 mm/hr 0.00 in0.0 mm
08:02 AM 24.0°F-4.4°C 22.0°F-5.6°C 92% Calm Calm 1.0 mph1.6 kmh 29.75 in1007.5 mb 0.00 in0.0 mm 0.00 in/hr0.0 mm/hr 0.00 in0.0 mm
08:03 AM 24.0°F-4.4°C 22.0°F-5.6°C 92% 2.0 mph S3.2 kmh S 2.0 mph3.2 kmh 29.76 in1007.8 mb 0.00 in0.0 mm 0.00 in/hr0.0 mm/hr 0.00 in0.0 mm
08:04 AM 24.0°F-4.4°C 22.0°F-5.6°C 92% Calm Calm 2.0 mph3.2 kmh 29.76 in1007.8 mb 0.00 in0.0 mm 0.00 in/hr0.0 mm/hr 0.00 in0.0 mm
08:05 AM 24.0°F-4.4°C 22.0°F-5.6°C 92% 1.0 mph S1.6 kmh S 2.0 mph3.2 kmh 29.75 in1007.5 mb 0.00 in0.0 mm 0.00 in/hr0.0 mm/hr 0.00 in0.0 mm
08:06 AM 24.0°F-4.4°C 22.0°F-5.6°C 92% 1.0 mph S1.6 kmh S 2.0 mph3.2 kmh 29.75 in1007.5 mb 0.00 in0.0 mm 0.00 in/hr0.0 mm/hr 0.00 in0.0 mm
08:07 AM 24.0°F-4.4°C 22.0°F-5.6°C 92% 1.0 mph S1.6 kmh S 2.0 mph3.2 kmh 29.75 in1007.5 mb 0.00 in0.0 mm 0.00 in/hr0.0 mm/hr 0.00 in0.0 mm
08:08 AM 24.0°F-4.4°C 22.0°F-5.6°C 92% 1.0 mph S1.6 kmh S 2.0 mph3.2 kmh 29.75 in1007.5 mb 0.00 in0.0 mm 0.00 in/hr0.0 mm/hr 0.00 in0.0 mm
08:09 AM 24.0°F-4.4°C 22.0°F-5.6°C 92% 1.0 mph SSW1.6 kmh SSW 3.0 mph4.8 kmh 29.75 in1007.5 mb 0.00 in0.0 mm 0.00 in/hr0.0 mm/hr 0.00 in0.0 mm
08:10 AM 24.0°F-4.4°C 22.0°F-5.6°C 92% Calm Calm 3.0 mph4.8 kmh 29.75 in1007.5 mb 0.00 in0.0 mm 0.00 in/hr0.0 mm/hr 0.00 in0.0 mm
08:11 AM 24.0°F-4.4°C 22.0°F-5.6°C 92% Calm Calm 3.0 mph4.8 kmh 29.75 in1007.5 mb 0.00 in0.0 mm 0.00 in/hr0.0 mm/hr 0.00 in0.0 mm
08:12 AM 24.1°F-4.4°C 22.1°F-5.5°C 92% Calm Calm 3.0 mph4.8 kmh 29.75 in1007.5 mb 0.00 in0.0 mm 0.00 in/hr0.0 mm/hr 0.00 in0.0 mm
08:13 AM 24.1°F-4.4°C 22.1°F-5.5°C 92% 1.0 mph SSW1.6 kmh SSW 3.0 mph4.8 kmh 29.75 in1007.5 mb 0.00 in0.0 mm 0.00 in/hr0.0 mm/hr 0.00 in0.0 mm
08:14 AM 24.1°F-4.4°C 22.1°F-5.5°C 92% Calm Calm 3.0 mph4.8 kmh 29.75 in1007.5 mb 0.00 in0.0 mm 0.00 in/hr0.0 mm/hr 0.00 in0.0 mm
08:15 AM 24.1°F-4.4°C 22.1°F-5.5°C 92% 1.0 mph SSW1.6 kmh SSW 3.0 mph4.8 kmh 29.74 in1007.1 mb 0.00 in0.0 mm 0.00 in/hr0.0 mm/hr 0.00 in0.0 mm
08:16 AM 24.1°F-4.4°C 22.1°F-5.5°C 92% 1.0 mph SSW1.6 kmh SSW 3.0 mph4.8 kmh 29.74 in1007.1 mb 0.00 in0.0 mm 0.00 in/hr0.0 mm/hr 0.00 in0.0 mm
08:17 AM 24.2°F-4.3°C 22.2°F-5.4°C 92% 2.0 mph SSW3.2 kmh SSW 3.0 mph4.8 kmh 29.74 in1007.1 mb 0.00 in0.0 mm 0.00 in/hr0.0 mm/hr 0.00 in0.0 mm
08:18 AM 24.2°F-4.3°C 22.2°F-5.4°C 92% 2.0 mph SSW3.2 kmh SSW 3.0 mph4.8 kmh 29.74 in1007.1 mb 0.00 in0.0 mm 0.00 in/hr0.0 mm/hr 0.00 in0.0 mm
08:19 AM 24.2°F-4.3°C 22.2°F-5.4°C 92% 1.0 mph SSW1.6 kmh SSW 3.0 mph4.8 kmh 29.75 in1007.5 mb 0.00 in0.0 mm 0.00 in/hr0.0 mm/hr 0.00 in0.0 mm
08:20 AM 24.2°F-4.3°C 22.2°F-5.4°C 92% 2.0 mph SSW3.2 kmh SSW 3.0 mph4.8 kmh 29.75 in1007.5 mb 0.00 in0.0 mm 0.00 in/hr0.0 mm/hr 0.00 in0.0 mm
08:21 AM 24.2°F-4.3°C 22.2°F-5.4°C 92% 2.0 mph SSW3.2 kmh SSW 3.0 mph4.8 kmh 29.75 in1007.5 mb 0.00 in0.0 mm 0.00 in/hr0.0 mm/hr 0.00 in0.0 mm
08:22 AM 24.2°F-4.3°C 22.5°F-5.3°C 93% 2.0 mph SSW3.2 kmh SSW 3.0 mph4.8 kmh 29.75 in1007.5 mb 0.00 in0.0 mm 0.00 in/hr0.0 mm/hr 0.00 in0.0 mm
08:23 AM 24.2°F-4.3°C 22.5°F-5.3°C 93% 2.0 mph SSW3.2 kmh SSW 3.0 mph4.8 kmh 29.75 in1007.5 mb 0.00 in0.0 mm 0.00 in/hr0.0 mm/hr 0.00 in0.0 mm
08:24 AM 24.2°F-4.3°C 22.5°F-5.3°C 93% 2.0 mph SSW3.2 kmh SSW 3.0 mph4.8 kmh 29.75 in1007.5 mb 0.00 in0.0 mm 0.00 in/hr0.0 mm/hr 0.00 in0.0 mm
08:25 AM 24.2°F-4.3°C 22.5°F-5.3°C 93% 3.0 mph SSW4.8 kmh SSW 3.0 mph4.8 kmh 29.75 in1007.5 mb 0.00 in0.0 mm 0.00 in/hr0.0 mm/hr 0.00 in0.0 mm
08:26 AM 24.3°F-4.3°C 22.3°F-5.4°C 92% 3.0 mph SSW4.8 kmh SSW 3.0 mph4.8 kmh 29.75 in1007.5 mb 0.00 in0.0 mm 0.00 in/hr0.0 mm/hr 0.00 in0.0 mm
08:27 AM 24.3°F-4.3°C 22.6°F-5.2°C 93% 3.0 mph S4.8 kmh S 4.0 mph6.4 kmh 29.75 in1007.5 mb 0.00 in0.0 mm 0.00 in/hr0.0 mm/hr 0.00 in0.0 mm
08:28 AM 24.3°F-4.3°C 22.3°F-5.4°C 92% 3.0 mph S4.8 kmh S 4.0 mph6.4 kmh 29.75 in1007.5 mb 0.00 in0.0 mm 0.00 in/hr0.0 mm/hr 0.00 in0.0 mm
08:29 AM 24.3°F-4.3°C 22.6°F-5.2°C 93% 3.0 mph S4.8 kmh S 4.0 mph6.4 kmh 29.75 in1007.5 mb 0.00 in0.0 mm 0.00 in/hr0.0 mm/hr 0.00 in0.0 mm
08:30 AM 24.3°F-4.3°C 22.6°F-5.2°C 93% 3.0 mph S4.8 kmh S 4.0 mph6.4 kmh 29.75 in1007.5 mb 0.00 in0.0 mm 0.00 in/hr0.0 mm/hr 0.00 in0.0 mm
08:31 AM 24.3°F-4.3°C 22.6°F-5.2°C 93% 3.0 mph S4.8 kmh S 4.0 mph6.4 kmh 29.75 in1007.5 mb 0.00 in0.0 mm 0.00 in/hr0.0 mm/hr 0.00 in0.0 mm
08:32 AM 24.3°F-4.3°C 22.6°F-5.2°C 93% 2.0 mph S3.2 kmh S 3.0 mph4.8 kmh 29.75 in1007.5 mb 0.00 in0.0 mm 0.00 in/hr0.0 mm/hr 0.00 in0.0 mm
08:33 AM 24.3°F-4.3°C 22.6°F-5.2°C 93% 3.0 mph S4.8 kmh S 3.0 mph4.8 kmh 29.75 in1007.5 mb 0.00 in0.0 mm 0.00 in/hr0.0 mm/hr 0.00 in0.0 mm
08:34 AM 24.3°F-4.3°C 22.6°F-5.2°C 93% 3.0 mph S4.8 kmh S 4.0 mph6.4 kmh 29.75 in1007.5 mb 0.00 in0.0 mm 0.00 in/hr0.0 mm/hr 0.00 in0.0 mm
08:35 AM 24.3°F-4.3°C 22.6°F-5.2°C 93% 4.0 mph S6.4 kmh S 4.0 mph6.4 kmh 29.75 in1007.5 mb 0.00 in0.0 mm 0.00 in/hr0.0 mm/hr 0.00 in0.0 mm
08:36 AM 24.3°F-4.3°C 22.6°F-5.2°C 93% 4.0 mph S6.4 kmh S 5.0 mph8.0 kmh 29.75 in1007.5 mb 0.00 in0.0 mm 0.00 in/hr0.0 mm/hr 0.00 in0.0 mm
08:37 AM 24.4°F-4.2°C 22.7°F-5.2°C 93% 4.0 mph S6.4 kmh S 5.0 mph8.0 kmh 29.75 in1007.5 mb 0.00 in0.0 mm 0.00 in/hr0.0 mm/hr 0.00 in0.0 mm
08:38 AM 24.4°F-4.2°C 22.7°F-5.2°C 93% 4.0 mph S6.4 kmh S 5.0 mph8.0 kmh 29.75 in1007.5 mb 0.00 in0.0 mm 0.00 in/hr0.0 mm/hr 0.00 in0.0 mm
08:39 AM 24.4°F-4.2°C 22.7°F-5.2°C 93% 3.0 mph S4.8 kmh S 5.0 mph8.0 kmh 29.75 in1007.5 mb 0.00 in0.0 mm 0.00 in/hr0.0 mm/hr 0.00 in0.0 mm
08:40 AM 24.4°F-4.2°C 22.7°F-5.2°C 93% 3.0 mph S4.8 kmh S 5.0 mph8.0 kmh 29.75 in1007.5 mb 0.00 in0.0 mm 0.00 in/hr0.0 mm/hr 0.00 in0.0 mm
08:41 AM 24.4°F-4.2°C 22.7°F-5.2°C 93% 5.0 mph S8.0 kmh S 5.0 mph8.0 kmh 29.75 in1007.5 mb 0.00 in0.0 mm 0.00 in/hr0.0 mm/hr 0.00 in0.0 mm
08:42 AM 24.5°F-4.2°C 22.8°F-5.1°C 93% 3.0 mph S4.8 kmh S 5.0 mph8.0 kmh 29.75 in1007.5 mb 0.00 in0.0 mm 0.00 in/hr0.0 mm/hr 0.00 in0.0 mm
08:43 AM 24.5°F-4.2°C 22.8°F-5.1°C 93% 5.0 mph SSW8.0 kmh SSW 5.0 mph8.0 kmh 29.75 in1007.5 mb 0.00 in0.0 mm 0.00 in/hr0.0 mm/hr 0.00 in0.0 mm
08:44 AM 24.5°F-4.2°C 22.8°F-5.1°C 93% 4.0 mph S6.4 kmh S 5.0 mph8.0 kmh 29.75 in1007.5 mb 0.00 in0.0 mm 0.00 in/hr0.0 mm/hr 0.00 in0.0 mm
08:45 AM 24.5°F-4.2°C 22.8°F-5.1°C 93% 4.0 mph S6.4 kmh S 5.0 mph8.0 kmh 29.74 in1007.1 mb 0.00 in0.0 mm 0.00 in/hr0.0 mm/hr 0.00 in0.0 mm
08:46 AM 24.5°F-4.2°C 22.8°F-5.1°C 93% 3.0 mph S4.8 kmh S 5.0 mph8.0 kmh 29.74 in1007.1 mb 0.00 in0.0 mm 0.00 in/hr0.0 mm/hr 0.00 in0.0 mm
08:47 AM 24.6°F-4.1°C 22.9°F-5.1°C 93% 4.0 mph S6.4 kmh S 5.0 mph8.0 kmh 29.74 in1007.1 mb 0.00 in0.0 mm 0.00 in/hr0.0 mm/hr 0.00 in0.0 mm
08:48 AM 24.6°F-4.1°C 22.9°F-5.1°C 93% 4.0 mph S6.4 kmh S 5.0 mph8.0 kmh 29.74 in1007.1 mb 0.00 in0.0 mm 0.00 in/hr0.0 mm/hr 0.00 in0.0 mm
08:49 AM 24.6°F-4.1°C 22.9°F-5.1°C 93% 4.0 mph S6.4 kmh S 5.0 mph8.0 kmh 29.75 in1007.5 mb 0.00 in0.0 mm 0.00 in/hr0.0 mm/hr 0.00 in0.0 mm
08:50 AM 24.7°F-4.1°C 23.0°F-5.0°C 93% 4.0 mph S6.4 kmh S 5.0 mph8.0 kmh 29.75 in1007.5 mb 0.00 in0.0 mm 0.00 in/hr0.0 mm/hr 0.00 in0.0 mm
08:51 AM 24.7°F-4.1°C 23.0°F-5.0°C 93% 4.0 mph SSW6.4 kmh SSW 5.0 mph8.0 kmh 29.75 in1007.5 mb 0.00 in0.0 mm 0.00 in/hr0.0 mm/hr 0.00 in0.0 mm
08:52 AM 24.7°F-4.1°C 23.0°F-5.0°C 93% 3.0 mph SSW4.8 kmh SSW 5.0 mph8.0 kmh 29.75 in1007.5 mb 0.00 in0.0 mm 0.00 in/hr0.0 mm/hr 0.00 in0.0 mm
08:53 AM 24.8°F-4.0°C 23.1°F-4.9°C 93% 4.0 mph S6.4 kmh S 5.0 mph8.0 kmh 29.75 in1007.5 mb 0.00 in0.0 mm 0.00 in/hr0.0 mm/hr 0.00 in0.0 mm
08:54 AM 24.8°F-4.0°C 23.1°F-4.9°C 93% 4.0 mph SSW6.4 kmh SSW 5.0 mph8.0 kmh 29.75 in1007.5 mb 0.00 in0.0 mm 0.00 in/hr0.0 mm/hr 0.00 in0.0 mm
08:55 AM 24.8°F-4.0°C 23.1°F-4.9°C 93% 3.0 mph SSW4.8 kmh SSW 5.0 mph8.0 kmh 29.75 in1007.5 mb 0.00 in0.0 mm 0.00 in/hr0.0 mm/hr 0.00 in0.0 mm
08:56 AM 24.9°F-3.9°C 23.2°F-4.9°C 93% 3.0 mph SSW4.8 kmh SSW 5.0 mph8.0 kmh 29.75 in1007.5 mb 0.00 in0.0 mm 0.00 in/hr0.0 mm/hr 0.00 in0.0 mm
08:57 AM 25.0°F-3.9°C 23.3°F-4.8°C 93% 2.0 mph SSW3.2 kmh SSW 5.0 mph8.0 kmh 29.75 in1007.5 mb 0.00 in0.0 mm 0.00 in/hr0.0 mm/hr 0.00 in0.0 mm
08:58 AM 25.0°F-3.9°C 23.3°F-4.8°C 93% 3.0 mph SSW4.8 kmh SSW 5.0 mph8.0 kmh 29.74 in1007.1 mb 0.00 in0.0 mm 0.00 in/hr0.0 mm/hr 0.00 in0.0 mm
08:59 AM 25.0°F-3.9°C 23.3°F-4.8°C 93% 3.0 mph SSW4.8 kmh SSW 5.0 mph8.0 kmh 29.75 in1007.5 mb 0.00 in0.0 mm 0.00 in/hr0.0 mm/hr 0.00 in0.0 mm
09:00 AM 25.1°F-3.8°C 23.4°F-4.8°C 93% 4.0 mph S6.4 kmh S 5.0 mph8.0 kmh 29.75 in1007.5 mb 0.00 in0.0 mm 0.00 in/hr0.0 mm/hr 0.00 in0.0 mm
09:01 AM 25.2°F-3.8°C 23.5°F-4.7°C 93% 3.0 mph S4.8 kmh S 5.0 mph8.0 kmh 29.75 in1007.5 mb 0.00 in0.0 mm 0.00 in/hr0.0 mm/hr 0.00 in0.0 mm
09:02 AM 25.2°F-3.8°C 23.5°F-4.7°C 93% 3.0 mph S4.8 kmh S 4.0 mph6.4 kmh 29.74 in1007.1 mb 0.00 in0.0 mm 0.00 in/hr0.0 mm/hr 0.00 in0.0 mm
09:03 AM 25.2°F-3.8°C 23.5°F-4.7°C 93% 2.0 mph S3.2 kmh S 4.0 mph6.4 kmh 29.74 in1007.1 mb 0.00 in0.0 mm 0.00 in/hr0.0 mm/hr 0.00 in0.0 mm
09:04 AM 25.3°F-3.7°C 23.6°F-4.7°C 93% 3.0 mph S4.8 kmh S 4.0 mph6.4 kmh 29.74 in1007.1 mb 0.00 in0.0 mm 0.00 in/hr0.0 mm/hr 0.00 in0.0 mm
09:05 AM 25.3°F-3.7°C 23.6°F-4.7°C 93% 4.0 mph S6.4 kmh S 4.0 mph6.4 kmh 29.74 in1007.1 mb 0.00 in0.0 mm 0.00 in/hr0.0 mm/hr 0.00 in0.0 mm
09:06 AM 25.3°F-3.7°C 23.6°F-4.7°C 93% 3.0 mph S4.8 kmh S 4.0 mph6.4 kmh 29.74 in1007.1 mb 0.00 in0.0 mm 0.00 in/hr0.0 mm/hr 0.00 in0.0 mm
09:07 AM 25.4°F-3.7°C 23.7°F-4.6°C 93% 3.0 mph S4.8 kmh S 4.0 mph6.4 kmh 29.74 in1007.1 mb 0.00 in0.0 mm 0.00 in/hr0.0 mm/hr 0.00 in0.0 mm
09:08 AM 25.4°F-3.7°C 23.7°F-4.6°C 93% 4.0 mph S6.4 kmh S 4.0 mph6.4 kmh 29.74 in1007.1 mb 0.00 in0.0 mm 0.00 in/hr0.0 mm/hr 0.00 in0.0 mm
09:09 AM 25.4°F-3.7°C 23.7°F-4.6°C 93% 3.0 mph S4.8 kmh S 4.0 mph6.4 kmh 29.74 in1007.1 mb 0.00 in0.0 mm 0.00 in/hr0.0 mm/hr 0.00 in0.0 mm
09:10 AM 25.4°F-3.7°C 23.7°F-4.6°C 93% 3.0 mph S4.8 kmh S 4.0 mph6.4 kmh 29.74 in1007.1 mb 0.00 in0.0 mm 0.00 in/hr0.0 mm/hr 0.00 in0.0 mm
09:11 AM 25.5°F-3.6°C 23.8°F-4.6°C 93% 4.0 mph S6.4 kmh S 5.0 mph8.0 kmh 29.74 in1007.1 mb 0.00 in0.0 mm 0.00 in/hr0.0 mm/hr 0.00 in0.0 mm
09:12 AM 25.5°F-3.6°C 23.8°F-4.6°C 93% 3.0 mph S4.8 kmh S 5.0 mph8.0 kmh 29.74 in1007.1 mb 0.00 in0.0 mm 0.00 in/hr0.0 mm/hr 0.00 in0.0 mm
09:13 AM 25.6°F-3.6°C 23.9°F-4.5°C 93% 3.0 mph SSW4.8 kmh SSW 5.0 mph8.0 kmh 29.74 in1007.1 mb 0.00 in0.0 mm 0.00 in/hr0.0 mm/hr 0.00 in0.0 mm
09:14 AM 25.6°F-3.6°C 23.9°F-4.5°C 93% 4.0 mph SSW6.4 kmh SSW 5.0 mph8.0 kmh 29.74 in1007.1 mb 0.00 in0.0 mm 0.00 in/hr0.0 mm/hr 0.00 in0.0 mm
09:15 AM 25.6°F-3.6°C 23.9°F-4.5°C 93% 3.0 mph SSW4.8 kmh SSW 5.0 mph8.0 kmh 29.74 in1007.1 mb 0.00 in0.0 mm 0.00 in/hr0.0 mm/hr 0.00 in0.0 mm
09:16 AM 25.7°F-3.5°C 24.0°F-4.4°C 93% 5.0 mph SSW8.0 kmh SSW 5.0 mph8.0 kmh 29.74 in1007.1 mb 0.00 in0.0 mm 0.00 in/hr0.0 mm/hr 0.00 in0.0 mm
09:17 AM 25.7°F-3.5°C 24.0°F-4.4°C 93% 5.0 mph SSW8.0 kmh SSW 6.0 mph9.7 kmh 29.74 in1007.1 mb 0.00 in0.0 mm 0.00 in/hr0.0 mm/hr 0.00 in0.0 mm
09:18 AM 25.8°F-3.4°C 23.8°F-4.6°C 92% 5.0 mph SW8.0 kmh SW 6.0 mph9.7 kmh 29.74 in1007.1 mb 0.00 in0.0 mm 0.00 in/hr0.0 mm/hr 0.00 in0.0 mm
09:19 AM 25.8°F-3.4°C 23.8°F-4.6°C 92% 4.0 mph SW6.4 kmh SW 6.0 mph9.7 kmh 29.74 in1007.1 mb 0.00 in0.0 mm 0.00 in/hr0.0 mm/hr 0.00 in0.0 mm
09:20 AM 25.8°F-3.4°C 24.1°F-4.4°C 93% 4.0 mph SW6.4 kmh SW 6.0 mph9.7 kmh 29.74 in1007.1 mb 0.00 in0.0 mm 0.00 in/hr0.0 mm/hr 0.00 in0.0 mm
09:21 AM 25.9°F-3.4°C 23.9°F-4.5°C 92% 6.0 mph SW9.7 kmh SW 7.0 mph11.3 kmh 29.74 in1007.1 mb 0.00 in0.0 mm 0.00 in/hr0.0 mm/hr 0.00 in0.0 mm
09:22 AM 25.9°F-3.4°C 23.9°F-4.5°C 92% 5.0 mph SSW8.0 kmh SSW 7.0 mph11.3 kmh 29.74 in1007.1 mb 0.00 in0.0 mm 0.00 in/hr0.0 mm/hr 0.00 in0.0 mm
09:23 AM 25.9°F-3.4°C 23.9°F-4.5°C 92% 5.0 mph SSW8.0 kmh SSW 7.0 mph11.3 kmh 29.74 in1007.1 mb 0.00 in0.0 mm 0.00 in/hr0.0 mm/hr 0.00 in0.0 mm
09:24 AM 25.9°F-3.4°C 23.9°F-4.5°C 92% 6.0 mph SW9.7 kmh SW 7.0 mph11.3 kmh 29.74 in1007.1 mb 0.00 in0.0 mm 0.00 in/hr0.0 mm/hr 0.00 in0.0 mm
09:25 AM 25.9°F-3.4°C 23.9°F-4.5°C 92% 4.0 mph SW6.4 kmh SW 7.0 mph11.3 kmh 29.74 in1007.1 mb 0.00 in0.0 mm 0.00 in/hr0.0 mm/hr 0.00 in0.0 mm
09:26 AM 25.9°F-3.4°C 23.9°F-4.5°C 92% 4.0 mph SW6.4 kmh SW 7.0 mph11.3 kmh 29.75 in1007.5 mb 0.00 in0.0 mm 0.00 in/hr0.0 mm/hr 0.00 in0.0 mm
09:27 AM 25.9°F-3.4°C 23.9°F-4.5°C 92% 3.0 mph SW4.8 kmh SW 7.0 mph11.3 kmh 29.74 in1007.1 mb 0.00 in0.0 mm 0.00 in/hr0.0 mm/hr 0.00 in0.0 mm
09:28 AM 25.9°F-3.4°C 23.9°F-4.5°C 92% 4.0 mph SW6.4 kmh SW 7.0 mph11.3 kmh 29.74 in1007.1 mb 0.00 in0.0 mm 0.00 in/hr0.0 mm/hr 0.00 in0.0 mm
09:29 AM 26.0°F-3.3°C 24.0°F-4.4°C 92% 4.0 mph SW6.4 kmh SW 7.0 mph11.3 kmh 29.74 in1007.1 mb 0.00 in0.0 mm 0.00 in/hr0.0 mm/hr 0.00 in0.0 mm
09:30 AM 26.0°F-3.3°C 24.0°F-4.4°C 92% 7.0 mph SW11.3 kmh SW 7.0 mph11.3 kmh 29.75 in1007.5 mb 0.00 in0.0 mm 0.00 in/hr0.0 mm/hr 0.00 in0.0 mm
09:31 AM 26.0°F-3.3°C 24.0°F-4.4°C 92% 6.0 mph SW9.7 kmh SW 7.0 mph11.3 kmh 29.75 in1007.5 mb 0.00 in0.0 mm 0.00 in/hr0.0 mm/hr 0.00 in0.0 mm
09:32 AM 26.0°F-3.3°C 24.0°F-4.4°C 92% 3.0 mph SW4.8 kmh SW 5.0 mph8.0 kmh 29.75 in1007.5 mb 0.00 in0.0 mm 0.00 in/hr0.0 mm/hr 0.00 in0.0 mm
09:33 AM 26.1°F-3.3°C 24.1°F-4.4°C 92% 5.0 mph SW8.0 kmh SW 7.0 mph11.3 kmh 29.75 in1007.5 mb 0.00 in0.0 mm 0.00 in/hr0.0 mm/hr 0.00 in0.0 mm
09:34 AM 26.1°F-3.3°C 24.1°F-4.4°C 92% 5.0 mph SW8.0 kmh SW 7.0 mph11.3 kmh 29.75 in1007.5 mb 0.00 in0.0 mm 0.00 in/hr0.0 mm/hr 0.00 in0.0 mm
09:35 AM 26.1°F-3.3°C 24.1°F-4.4°C 92% 3.0 mph SW4.8 kmh SW 7.0 mph11.3 kmh 29.75 in1007.5 mb 0.00 in0.0 mm 0.00 in/hr0.0 mm/hr 0.00 in0.0 mm
09:36 AM 26.2°F-3.2°C 24.2°F-4.3°C 92% 4.0 mph SW6.4 kmh SW 7.0 mph11.3 kmh 29.75 in1007.5 mb 0.00 in0.0 mm 0.00 in/hr0.0 mm/hr 0.00 in0.0 mm
09:37 AM 26.2°F-3.2°C 24.2°F-4.3°C 92% 3.0 mph SW4.8 kmh SW 7.0 mph11.3 kmh 29.75 in1007.5 mb 0.00 in0.0 mm 0.00 in/hr0.0 mm/hr 0.00 in0.0 mm
09:38 AM 26.2°F-3.2°C 24.2°F-4.3°C 92% 4.0 mph SW6.4 kmh SW 7.0 mph11.3 kmh 29.75 in1007.5 mb 0.00 in0.0 mm 0.00 in/hr0.0 mm/hr 0.00 in0.0 mm
09:39 AM 26.2°F-3.2°C 24.2°F-4.3°C 92% 2.0 mph SW3.2 kmh SW 7.0 mph11.3 kmh 29.75 in1007.5 mb 0.00 in0.0 mm 0.00 in/hr0.0 mm/hr 0.00 in0.0 mm
09:40 AM 26.2°F-3.2°C 24.2°F-4.3°C 92% 3.0 mph SW4.8 kmh SW 7.0 mph11.3 kmh 29.75 in1007.5 mb 0.00 in0.0 mm 0.00 in/hr0.0 mm/hr 0.00 in0.0 mm
09:41 AM 26.2°F-3.2°C 24.2°F-4.3°C 92% 2.0 mph SW3.2 kmh SW 7.0 mph11.3 kmh 29.75 in1007.5 mb 0.00 in0.0 mm 0.00 in/hr0.0 mm/hr 0.00 in0.0 mm
09:42 AM 26.3°F-3.2°C 24.3°F-4.3°C 92% 4.0 mph SW6.4 kmh SW 7.0 mph11.3 kmh 29.75 in1007.5 mb 0.00 in0.0 mm 0.00 in/hr0.0 mm/hr 0.00 in0.0 mm
09:43 AM 26.3°F-3.2°C 24.3°F-4.3°C 92% 4.0 mph W6.4 kmh W 7.0 mph11.3 kmh 29.75 in1007.5 mb 0.00 in0.0 mm 0.00 in/hr0.0 mm/hr 0.00 in0.0 mm
09:44 AM 26.3°F-3.2°C 24.3°F-4.3°C 92% 3.0 mph WSW4.8 kmh WSW 7.0 mph11.3 kmh 29.75 in1007.5 mb 0.00 in0.0 mm 0.00 in/hr0.0 mm/hr 0.00 in0.0 mm
09:45 AM 26.4°F-3.1°C 24.4°F-4.2°C 92% 3.0 mph WSW4.8 kmh WSW 7.0 mph11.3 kmh 29.76 in1007.8 mb 0.00 in0.0 mm 0.00 in/hr0.0 mm/hr 0.00 in0.0 mm
09:46 AM 26.4°F-3.1°C 24.4°F-4.2°C 92% 2.0 mph W3.2 kmh W 7.0 mph11.3 kmh 29.76 in1007.8 mb 0.00 in0.0 mm 0.00 in/hr0.0 mm/hr 0.00 in0.0 mm
09:47 AM 26.4°F-3.1°C 24.4°F-4.2°C 92% 3.0 mph SW4.8 kmh SW 7.0 mph11.3 kmh 29.76 in1007.8 mb 0.00 in0.0 mm 0.00 in/hr0.0 mm/hr 0.00 in0.0 mm
09:48 AM 26.5°F-3.1°C 24.5°F-4.2°C 92% 3.0 mph SW4.8 kmh SW 7.0 mph11.3 kmh 29.75 in1007.5 mb 0.00 in0.0 mm 0.00 in/hr0.0 mm/hr 0.00 in0.0 mm
09:49 AM 26.5°F-3.1°C 24.5°F-4.2°C 92% 4.0 mph WSW6.4 kmh WSW 7.0 mph11.3 kmh 29.76 in1007.8 mb 0.00 in0.0 mm 0.00 in/hr0.0 mm/hr 0.00 in0.0 mm
09:50 AM 26.6°F-3.0°C 24.6°F-4.1°C 92% 4.0 mph WSW6.4 kmh WSW 7.0 mph11.3 kmh 29.76 in1007.8 mb 0.00 in0.0 mm 0.00 in/hr0.0 mm/hr 0.00 in0.0 mm
09:51 AM 26.6°F-3.0°C 24.6°F-4.1°C 92% 2.0 mph WSW3.2 kmh WSW 7.0 mph11.3 kmh 29.76 in1007.8 mb 0.00 in0.0 mm 0.00 in/hr0.0 mm/hr 0.00 in0.0 mm
09:52 AM 26.7°F-2.9°C 24.7°F-4.1°C 92% 2.0 mph SW3.2 kmh SW 7.0 mph11.3 kmh 29.76 in1007.8 mb 0.00 in0.0 mm 0.00 in/hr0.0 mm/hr 0.00 in0.0 mm
09:53 AM 26.7°F-2.9°C 24.7°F-4.1°C 92% 2.0 mph W3.2 kmh W 7.0 mph11.3 kmh 29.75 in1007.5 mb 0.00 in0.0 mm 0.00 in/hr0.0 mm/hr 0.00 in0.0 mm
09:54 AM 26.8°F-2.9°C 24.8°F-4.0°C 92% 4.0 mph SW6.4 kmh SW 7.0 mph11.3 kmh 29.76 in1007.8 mb 0.00 in0.0 mm 0.00 in/hr0.0 mm/hr 0.00 in0.0 mm
09:55 AM 26.9°F-2.8°C 24.9°F-3.9°C 92% 4.0 mph W6.4 kmh W 7.0 mph11.3 kmh 29.76 in1007.8 mb 0.00 in0.0 mm 0.00 in/hr0.0 mm/hr 0.00 in0.0 mm
09:56 AM 26.9°F-2.8°C 24.9°F-3.9°C 92% 4.0 mph WSW6.4 kmh WSW 7.0 mph11.3 kmh 29.76 in1007.8 mb 0.00 in0.0 mm 0.00 in/hr0.0 mm/hr 0.00 in0.0 mm
09:57 AM 27.0°F-2.8°C 25.0°F-3.9°C 92% 4.0 mph W6.4 kmh W 7.0 mph11.3 kmh 29.75 in1007.5 mb 0.00 in0.0 mm 0.00 in/hr0.0 mm/hr 0.00 in0.0 mm
09:58 AM 27.1°F-2.7°C 25.1°F-3.8°C 92% 2.0 mph SW3.2 kmh SW 7.0 mph11.3 kmh 29.75 in1007.5 mb 0.00 in0.0 mm 0.00 in/hr0.0 mm/hr 0.00 in0.0 mm
09:59 AM 27.1°F-2.7°C 25.1°F-3.8°C 92% 3.0 mph WSW4.8 kmh WSW 7.0 mph11.3 kmh 29.75 in1007.5 mb 0.00 in0.0 mm 0.00 in/hr0.0 mm/hr 0.00 in0.0 mm
10:00 AM 27.1°F-2.7°C 25.1°F-3.8°C 92% 3.0 mph WSW4.8 kmh WSW 7.0 mph11.3 kmh 29.75 in1007.5 mb 0.00 in0.0 mm 0.00 in/hr0.0 mm/hr 0.00 in0.0 mm
10:01 AM 27.2°F-2.7°C 25.2°F-3.8°C 92% 2.0 mph SW3.2 kmh SW 7.0 mph11.3 kmh 29.75 in1007.5 mb 0.00 in0.0 mm 0.00 in/hr0.0 mm/hr 0.00 in0.0 mm
10:02 AM 27.2°F-2.7°C 25.2°F-3.8°C 92% 3.0 mph WSW4.8 kmh WSW 6.0 mph9.7 kmh 29.75 in1007.5 mb 0.00 in0.0 mm 0.00 in/hr0.0 mm/hr 0.00 in0.0 mm
10:03 AM 27.2°F-2.7°C 25.2°F-3.8°C 92% 2.0 mph W3.2 kmh W 6.0 mph9.7 kmh 29.75 in1007.5 mb 0.00 in0.0 mm 0.00 in/hr0.0 mm/hr 0.00 in0.0 mm
10:04 AM 27.3°F-2.6°C 25.3°F-3.7°C 92% 3.0 mph WSW4.8 kmh WSW 6.0 mph9.7 kmh 29.75 in1007.5 mb 0.00 in0.0 mm 0.00 in/hr0.0 mm/hr 0.00 in0.0 mm
10:05 AM 27.4°F-2.6°C 25.4°F-3.7°C 92% 4.0 mph WSW6.4 kmh WSW 6.0 mph9.7 kmh 29.75 in1007.5 mb 0.00 in0.0 mm 0.00 in/hr0.0 mm/hr 0.00 in0.0 mm
10:06 AM 27.5°F-2.5°C 25.5°F-3.6°C 92% 3.0 mph W4.8 kmh W 6.0 mph9.7 kmh 29.75 in1007.5 mb 0.00 in0.0 mm 0.00 in/hr0.0 mm/hr 0.00 in0.0 mm
10:07 AM 27.5°F-2.5°C 25.5°F-3.6°C 92% 4.0 mph W6.4 kmh W 6.0 mph9.7 kmh 29.75 in1007.5 mb 0.00 in0.0 mm 0.00 in/hr0.0 mm/hr 0.00 in0.0 mm
10:08 AM 27.6°F-2.4°C 25.6°F-3.6°C 92% 5.0 mph WSW8.0 kmh WSW 6.0 mph9.7 kmh 29.75 in1007.5 mb 0.00 in0.0 mm 0.00 in/hr0.0 mm/hr 0.00 in0.0 mm
10:09 AM 27.7°F-2.4°C 25.7°F-3.5°C 92% 1.0 mph WSW1.6 kmh WSW 6.0 mph9.7 kmh 29.75 in1007.5 mb 0.00 in0.0 mm 0.00 in/hr0.0 mm/hr 0.00 in0.0 mm
10:10 AM 27.8°F-2.3°C 26.0°F-3.3°C 93% 1.0 mph W1.6 kmh W 6.0 mph9.7 kmh 29.75 in1007.5 mb 0.00 in0.0 mm 0.00 in/hr0.0 mm/hr 0.00 in0.0 mm
10:11 AM 27.9°F-2.3°C 26.1°F-3.3°C 93% 3.0 mph W4.8 kmh W 6.0 mph9.7 kmh 29.75 in1007.5 mb 0.00 in0.0 mm 0.00 in/hr0.0 mm/hr 0.00 in0.0 mm
10:12 AM 28.0°F-2.2°C 26.2°F-3.2°C 93% 2.0 mph WSW3.2 kmh WSW 6.0 mph9.7 kmh 29.75 in1007.5 mb 0.00 in0.0 mm 0.00 in/hr0.0 mm/hr 0.00 in0.0 mm
10:13 AM 28.2°F-2.1°C 26.4°F-3.1°C 93% 1.0 mph WSW1.6 kmh WSW 6.0 mph9.7 kmh 29.75 in1007.5 mb 0.00 in0.0 mm 0.00 in/hr0.0 mm/hr 0.00 in0.0 mm
10:14 AM 28.3°F-2.1°C 26.5°F-3.1°C 93% 2.0 mph SW3.2 kmh SW 6.0 mph9.7 kmh 29.75 in1007.5 mb 0.00 in0.0 mm 0.00 in/hr0.0 mm/hr 0.00 in0.0 mm
10:15 AM 28.4°F-2.0°C 26.6°F-3.0°C 93% 5.0 mph WSW8.0 kmh WSW 6.0 mph9.7 kmh 29.75 in1007.5 mb 0.00 in0.0 mm 0.00 in/hr0.0 mm/hr 0.00 in0.0 mm
10:16 AM 28.5°F-1.9°C 26.7°F-2.9°C 93% 1.0 mph SW1.6 kmh SW 6.0 mph9.7 kmh 29.75 in1007.5 mb 0.00 in0.0 mm 0.00 in/hr0.0 mm/hr 0.00 in0.0 mm
10:17 AM 28.7°F-1.8°C 26.7°F-2.9°C 92% 2.0 mph NW3.2 kmh NW 6.0 mph9.7 kmh 29.75 in1007.5 mb 0.00 in0.0 mm 0.00 in/hr0.0 mm/hr 0.00 in0.0 mm
10:18 AM 28.8°F-1.8°C 26.8°F-2.9°C 92% 2.0 mph WNW3.2 kmh WNW 6.0 mph9.7 kmh 29.75 in1007.5 mb 0.00 in0.0 mm 0.00 in/hr0.0 mm/hr 0.00 in0.0 mm
10:19 AM 28.8°F-1.8°C 27.0°F-2.8°C 93% 2.0 mph S3.2 kmh S 6.0 mph9.7 kmh 29.75 in1007.5 mb 0.00 in0.0 mm 0.00 in/hr0.0 mm/hr 0.00 in0.0 mm
10:20 AM 29.0°F-1.7°C 27.0°F-2.8°C 92% 1.0 mph S1.6 kmh S 6.0 mph9.7 kmh 29.75 in1007.5 mb 0.00 in0.0 mm 0.00 in/hr0.0 mm/hr 0.00 in0.0 mm
10:21 AM 29.0°F-1.7°C 27.0°F-2.8°C 92% 2.0 mph NNE3.2 kmh NNE 7.0 mph11.3 kmh 29.75 in1007.5 mb 0.00 in0.0 mm 0.00 in/hr0.0 mm/hr 0.00 in0.0 mm
10:22 AM 29.2°F-1.6°C 27.2°F-2.7°C 92% 2.0 mph SW3.2 kmh SW 7.0 mph11.3 kmh 29.75 in1007.5 mb 0.00 in0.0 mm 0.00 in/hr0.0 mm/hr 0.00 in0.0 mm
10:23 AM 29.2°F-1.6°C 27.2°F-2.7°C 92% 5.0 mph W8.0 kmh W 7.0 mph11.3 kmh 29.75 in1007.5 mb 0.00 in0.0 mm 0.00 in/hr0.0 mm/hr 0.00 in0.0 mm
10:24 AM 29.3°F-1.5°C 27.3°F-2.6°C 92% 1.0 mph W1.6 kmh W 7.0 mph11.3 kmh 29.75 in1007.5 mb 0.00 in0.0 mm 0.00 in/hr0.0 mm/hr 0.00 in0.0 mm
10:26 AM 29.4°F-1.4°C 27.4°F-2.6°C 92% 2.0 mph NE3.2 kmh NE 7.0 mph11.3 kmh 29.75 in1007.5 mb 0.00 in0.0 mm 0.00 in/hr0.0 mm/hr 0.00 in0.0 mm
10:27 AM 29.5°F-1.4°C 27.5°F-2.5°C 92% 1.0 mph NW1.6 kmh NW 7.0 mph11.3 kmh 29.75 in1007.5 mb 0.00 in0.0 mm 0.00 in/hr0.0 mm/hr 0.00 in0.0 mm
10:28 AM 29.6°F-1.3°C 27.6°F-2.4°C 92% 2.0 mph SW3.2 kmh SW 7.0 mph11.3 kmh 29.75 in1007.5 mb 0.00 in0.0 mm 0.00 in/hr0.0 mm/hr 0.00 in0.0 mm
10:29 AM 29.7°F-1.3°C 27.7°F-2.4°C 92% 2.0 mph NW3.2 kmh NW 7.0 mph11.3 kmh 29.75 in1007.5 mb 0.00 in0.0 mm 0.00 in/hr0.0 mm/hr 0.00 in0.0 mm
10:30 AM 29.7°F-1.3°C 27.7°F-2.4°C 92% 4.0 mph W6.4 kmh W 7.0 mph11.3 kmh 29.75 in1007.5 mb 0.00 in0.0 mm 0.00 in/hr0.0 mm/hr 0.00 in0.0 mm
10:31 AM 29.8°F-1.2°C 27.8°F-2.3°C 92% 2.0 mph W3.2 kmh W 7.0 mph11.3 kmh 29.75 in1007.5 mb 0.00 in0.0 mm 0.00 in/hr0.0 mm/hr 0.00 in0.0 mm
10:32 AM 29.9°F-1.2°C 27.6°F-2.4°C 91% 3.0 mph WSW4.8 kmh WSW 4.0 mph6.4 kmh 29.75 in1007.5 mb 0.00 in0.0 mm 0.00 in/hr0.0 mm/hr 0.00 in0.0 mm
10:33 AM 30.0°F-1.1°C 27.7°F-2.4°C 91% 2.0 mph SW3.2 kmh SW 8.0 mph12.9 kmh 29.75 in1007.5 mb 0.00 in0.0 mm 0.00 in/hr0.0 mm/hr 0.00 in0.0 mm
10:34 AM 30.1°F-1.1°C 27.8°F-2.3°C 91% 7.0 mph NW11.3 kmh NW 9.0 mph14.5 kmh 29.75 in1007.5 mb 0.00 in0.0 mm 0.00 in/hr0.0 mm/hr 0.00 in0.0 mm
10:35 AM 30.1°F-1.1°C 27.8°F-2.3°C 91% 1.0 mph SW1.6 kmh SW 9.0 mph14.5 kmh 29.75 in1007.5 mb 0.00 in0.0 mm 0.00 in/hr0.0 mm/hr 0.00 in0.0 mm
10:36 AM 30.2°F-1.0°C 27.9°F-2.3°C 91% 3.0 mph WNW4.8 kmh WNW 9.0 mph14.5 kmh 29.75 in1007.5 mb 0.00 in0.0 mm 0.00 in/hr0.0 mm/hr 0.00 in0.0 mm
10:37 AM 30.2°F-1.0°C 27.9°F-2.3°C 91% 2.0 mph WNW3.2 kmh WNW 9.0 mph14.5 kmh 29.75 in1007.5 mb 0.00 in0.0 mm 0.00 in/hr0.0 mm/hr 0.00 in0.0 mm
10:38 AM 30.3°F-0.9°C 28.0°F-2.2°C 91% 1.0 mph WSW1.6 kmh WSW 9.0 mph14.5 kmh 29.75 in1007.5 mb 0.00 in0.0 mm 0.00 in/hr0.0 mm/hr 0.00 in0.0 mm
10:39 AM 30.3°F-0.9°C 28.0°F-2.2°C 91% 4.0 mph NW6.4 kmh NW 9.0 mph14.5 kmh 29.75 in1007.5 mb 0.00 in0.0 mm 0.00 in/hr0.0 mm/hr 0.00 in0.0 mm
10:40 AM 30.3°F-0.9°C 27.7°F-2.4°C 90% 4.0 mph WNW6.4 kmh WNW 9.0 mph14.5 kmh 29.75 in1007.5 mb 0.00 in0.0 mm 0.00 in/hr0.0 mm/hr 0.00 in0.0 mm
10:41 AM 30.4°F-0.9°C 27.8°F-2.3°C 90% 2.0 mph SW3.2 kmh SW 11.0 mph17.7 kmh 29.75 in1007.5 mb 0.00 in0.0 mm 0.00 in/hr0.0 mm/hr 0.00 in0.0 mm
10:42 AM 30.4°F-0.9°C 27.8°F-2.3°C 90% 8.0 mph WNW12.9 kmh WNW 11.0 mph17.7 kmh 29.75 in1007.5 mb 0.00 in0.0 mm 0.00 in/hr0.0 mm/hr 0.00 in0.0 mm
10:43 AM 30.3°F-0.9°C 27.7°F-2.4°C 90% 7.0 mph W11.3 kmh W 18.0 mph29.0 kmh 29.75 in1007.5 mb 0.00 in0.0 mm 0.00 in/hr0.0 mm/hr 0.00 in0.0 mm
10:44 AM 30.3°F-0.9°C 27.5°F-2.5°C 89% 14.0 mph W22.5 kmh W 18.0 mph29.0 kmh 29.75 in1007.5 mb 0.00 in0.0 mm 0.00 in/hr0.0 mm/hr 0.00 in0.0 mm
10:45 AM 30.1°F-1.1°C 27.3°F-2.6°C 89% 7.0 mph W11.3 kmh W 18.0 mph29.0 kmh 29.75 in1007.5 mb 0.00 in0.0 mm 0.00 in/hr0.0 mm/hr 0.00 in0.0 mm
10:46 AM 30.0°F-1.1°C 27.2°F-2.7°C 89% 8.0 mph W12.9 kmh W 18.0 mph29.0 kmh 29.75 in1007.5 mb 0.00 in0.0 mm 0.00 in/hr0.0 mm/hr 0.00 in0.0 mm
10:47 AM 29.9°F-1.2°C 27.1°F-2.7°C 89% 8.0 mph W12.9 kmh W 18.0 mph29.0 kmh 29.75 in1007.5 mb 0.00 in0.0 mm 0.00 in/hr0.0 mm/hr 0.00 in0.0 mm
10:48 AM 29.8°F-1.2°C 27.0°F-2.8°C 89% 12.0 mph NW19.3 kmh NW 18.0 mph29.0 kmh 29.75 in1007.5 mb 0.00 in0.0 mm 0.00 in/hr0.0 mm/hr 0.00 in0.0 mm
10:49 AM 29.7°F-1.3°C 26.9°F-2.8°C 89% 5.0 mph W8.0 kmh W 18.0 mph29.0 kmh 29.75 in1007.5 mb 0.00 in0.0 mm 0.00 in/hr0.0 mm/hr 0.00 in0.0 mm
10:50 AM 29.6°F-1.3°C 26.8°F-2.9°C 89% 8.0 mph W12.9 kmh W 18.0 mph29.0 kmh 29.76 in1007.8 mb 0.00 in0.0 mm 0.00 in/hr0.0 mm/hr 0.00 in0.0 mm
10:51 AM 29.5°F-1.4°C 26.7°F-2.9°C 89% 8.0 mph WNW12.9 kmh WNW 18.0 mph29.0 kmh 29.75 in1007.5 mb 0.00 in0.0 mm 0.00 in/hr0.0 mm/hr 0.00 in0.0 mm
10:52 AM 29.5°F-1.4°C 26.9°F-2.8°C 90% 5.0 mph SW8.0 kmh SW 18.0 mph29.0 kmh 29.75 in1007.5 mb 0.00 in0.0 mm 0.00 in/hr0.0 mm/hr 0.00 in0.0 mm
10:53 AM 29.5°F-1.4°C 26.9°F-2.8°C 90% 11.0 mph NW17.7 kmh NW 18.0 mph29.0 kmh 29.75 in1007.5 mb 0.00 in0.0 mm 0.00 in/hr0.0 mm/hr 0.00 in0.0 mm
10:54 AM 29.5°F-1.4°C 26.9°F-2.8°C 90% 3.0 mph WNW4.8 kmh WNW 18.0 mph29.0 kmh 29.76 in1007.8 mb 0.00 in0.0 mm 0.00 in/hr0.0 mm/hr 0.00 in0.0 mm
10:55 AM 29.5°F-1.4°C 26.9°F-2.8°C 90% 15.0 mph WNW24.1 kmh WNW 21.0 mph33.8 kmh 29.76 in1007.8 mb 0.00 in0.0 mm 0.00 in/hr0.0 mm/hr 0.00 in0.0 mm
10:56 AM 29.4°F-1.4°C 26.6°F-3.0°C 89% 18.0 mph WNW29.0 kmh WNW 21.0 mph33.8 kmh 29.76 in1007.8 mb 0.00 in0.0 mm 0.00 in/hr0.0 mm/hr 0.00 in0.0 mm
10:57 AM 29.3°F-1.5°C 26.7°F-2.9°C 90% 24.0 mph NW38.6 kmh NW 24.0 mph38.6 kmh 29.76 in1007.8 mb 0.00 in0.0 mm 0.00 in/hr0.0 mm/hr 0.00 in0.0 mm
10:58 AM 29.2°F-1.6°C 26.4°F-3.1°C 89% 11.0 mph W17.7 kmh W 24.0 mph38.6 kmh 29.76 in1007.8 mb 0.00 in0.0 mm 0.00 in/hr0.0 mm/hr 0.00 in0.0 mm
10:59 AM 29.1°F-1.6°C 26.3°F-3.2°C 89% 11.0 mph W17.7 kmh W 24.0 mph38.6 kmh 29.76 in1007.8 mb 0.00 in0.0 mm 0.00 in/hr0.0 mm/hr 0.00 in0.0 mm
11:00 AM 29.0°F-1.7°C 26.4°F-3.1°C 90% 14.0 mph W22.5 kmh W 24.0 mph38.6 kmh 29.76 in1007.8 mb 0.00 in0.0 mm 0.00 in/hr0.0 mm/hr 0.00 in0.0 mm
11:01 AM 28.9°F-1.7°C 26.3°F-3.2°C 90% 17.0 mph WNW27.4 kmh WNW 24.0 mph38.6 kmh 29.76 in1007.8 mb 0.00 in0.0 mm 0.00 in/hr0.0 mm/hr 0.00 in0.0 mm
11:02 AM 28.8°F-1.8°C 26.2°F-3.2°C 90% 10.0 mph WNW16.1 kmh WNW 17.0 mph27.4 kmh 29.76 in1007.8 mb 0.00 in0.0 mm 0.00 in/hr0.0 mm/hr 0.00 in0.0 mm
11:03 AM 28.7°F-1.8°C 25.9°F-3.4°C 89% 13.0 mph SW20.9 kmh SW 19.0 mph30.6 kmh 29.76 in1007.8 mb 0.00 in0.0 mm 0.00 in/hr0.0 mm/hr 0.00 in0.0 mm
11:04 AM 28.6°F-1.9°C 25.8°F-3.4°C 89% 23.0 mph WNW37.0 kmh WNW 23.0 mph37.0 kmh 29.76 in1007.8 mb 0.00 in0.0 mm 0.00 in/hr0.0 mm/hr 0.00 in0.0 mm
11:05 AM 28.4°F-2.0°C 25.9°F-3.4°C 90% 18.0 mph WNW29.0 kmh WNW 24.0 mph38.6 kmh 29.76 in1007.8 mb 0.00 in0.0 mm 0.00 in/hr0.0 mm/hr 0.00 in0.0 mm
11:06 AM 28.3°F-2.1°C 25.8°F-3.4°C 90% 12.0 mph WNW19.3 kmh WNW 24.0 mph38.6 kmh 29.76 in1007.8 mb 0.00 in0.0 mm 0.00 in/hr0.0 mm/hr 0.00 in0.0 mm
11:07 AM 28.3°F-2.1°C 25.8°F-3.4°C 90% 14.0 mph W22.5 kmh W 24.0 mph38.6 kmh 29.76 in1007.8 mb 0.00 in0.0 mm 0.00 in/hr0.0 mm/hr 0.00 in0.0 mm
11:08 AM 28.2°F-2.1°C 25.7°F-3.5°C 90% 15.0 mph WNW24.1 kmh WNW 24.0 mph38.6 kmh 29.76 in1007.8 mb 0.00 in0.0 mm 0.00 in/hr0.0 mm/hr 0.00 in0.0 mm
11:09 AM 28.2°F-2.1°C 25.7°F-3.5°C 90% 12.0 mph WNW19.3 kmh WNW 24.0 mph38.6 kmh 29.76 in1007.8 mb 0.00 in0.0 mm 0.00 in/hr0.0 mm/hr 0.00 in0.0 mm
11:10 AM 28.1°F-2.2°C 25.6°F-3.6°C 90% 19.0 mph WNW30.6 kmh WNW 24.0 mph38.6 kmh 29.76 in1007.8 mb 0.00 in0.0 mm 0.00 in/hr0.0 mm/hr 0.00 in0.0 mm
11:11 AM 28.0°F-2.2°C 25.5°F-3.6°C 90% 10.0 mph WNW16.1 kmh WNW 24.0 mph38.6 kmh 29.76 in1007.8 mb 0.00 in0.0 mm 0.00 in/hr0.0 mm/hr 0.00 in0.0 mm
11:12 AM 28.1°F-2.2°C 25.6°F-3.6°C 90% 14.0 mph WNW22.5 kmh WNW 24.0 mph38.6 kmh 29.76 in1007.8 mb 0.00 in0.0 mm 0.00 in/hr0.0 mm/hr 0.00 in0.0 mm
11:13 AM 28.0°F-2.2°C 25.5°F-3.6°C 90% 18.0 mph WNW29.0 kmh WNW 24.0 mph38.6 kmh 29.76 in1007.8 mb 0.00 in0.0 mm 0.00 in/hr0.0 mm/hr 0.00 in0.0 mm
11:14 AM 28.0°F-2.2°C 25.5°F-3.6°C 90% 12.0 mph W19.3 kmh W 24.0 mph38.6 kmh 29.76 in1007.8 mb 0.00 in0.0 mm 0.00 in/hr0.0 mm/hr 0.00 in0.0 mm
11:15 AM 28.0°F-2.2°C 25.5°F-3.6°C 90% 9.0 mph W14.5 kmh W 24.0 mph38.6 kmh 29.76 in1007.8 mb 0.00 in0.0 mm 0.00 in/hr0.0 mm/hr 0.00 in0.0 mm
11:16 AM 27.9°F-2.3°C 25.6°F-3.6°C 91% 18.0 mph WNW29.0 kmh WNW 24.0 mph38.6 kmh 29.76 in1007.8 mb 0.00 in0.0 mm 0.00 in/hr0.0 mm/hr 0.00 in0.0 mm
11:17 AM 27.9°F-2.3°C 25.6°F-3.6°C 91% 19.0 mph WNW30.6 kmh WNW 24.0 mph38.6 kmh 29.77 in1008.1 mb 0.00 in0.0 mm 0.00 in/hr0.0 mm/hr 0.00 in0.0 mm
11:18 AM 27.8°F-2.3°C 25.5°F-3.6°C 91% 11.0 mph NW17.7 kmh NW 24.0 mph38.6 kmh 29.76 in1007.8 mb 0.00 in0.0 mm 0.00 in/hr0.0 mm/hr 0.00 in0.0 mm
11:19 AM 27.6°F-2.4°C 25.1°F-3.8°C 90% 14.0 mph WNW22.5 kmh WNW 24.0 mph38.6 kmh 29.76 in1007.8 mb 0.00 in0.0 mm 0.00 in/hr0.0 mm/hr 0.00 in0.0 mm
11:20 AM 27.5°F-2.5°C 25.0°F-3.9°C 90% 22.0 mph W35.4 kmh W 24.0 mph38.6 kmh 29.76 in1007.8 mb 0.00 in0.0 mm 0.00 in/hr0.0 mm/hr 0.00 in0.0 mm
11:21 AM 27.4°F-2.6°C 24.9°F-3.9°C 90% 13.0 mph WNW20.9 kmh WNW 24.0 mph38.6 kmh 29.76 in1007.8 mb 0.00 in0.0 mm 0.00 in/hr0.0 mm/hr 0.00 in0.0 mm
11:22 AM 27.2°F-2.7°C 24.7°F-4.1°C 90% 16.0 mph W25.7 kmh W 24.0 mph38.6 kmh 29.77 in1008.1 mb 0.00 in0.0 mm 0.00 in/hr0.0 mm/hr 0.00 in0.0 mm
11:23 AM 27.1°F-2.7°C 24.6°F-4.1°C 90% 18.0 mph WNW29.0 kmh WNW 24.0 mph38.6 kmh 29.77 in1008.1 mb 0.00 in0.0 mm 0.00 in/hr0.0 mm/hr 0.00 in0.0 mm
11:24 AM 27.0°F-2.8°C 24.5°F-4.2°C 90% 22.0 mph NW35.4 kmh NW 25.0 mph40.2 kmh 29.77 in1008.1 mb 0.00 in0.0 mm 0.00 in/hr0.0 mm/hr 0.00 in0.0 mm
11:25 AM 26.9°F-2.8°C 24.4°F-4.2°C 90% 17.0 mph W27.4 kmh W 25.0 mph40.2 kmh 29.77 in1008.1 mb 0.00 in0.0 mm 0.00 in/hr0.0 mm/hr 0.00 in0.0 mm
11:26 AM 26.8°F-2.9°C 24.5°F-4.2°C 91% 26.0 mph NW41.8 kmh NW 27.0 mph43.5 kmh 29.77 in1008.1 mb 0.00 in0.0 mm 0.00 in/hr0.0 mm/hr 0.00 in0.0 mm
11:27 AM 26.6°F-3.0°C 24.3°F-4.3°C 91% 23.0 mph NW37.0 kmh NW 30.0 mph48.3 kmh 29.77 in1008.1 mb 0.00 in0.0 mm 0.00 in/hr0.0 mm/hr 0.00 in0.0 mm
11:28 AM 26.4°F-3.1°C 24.1°F-4.4°C 91% 28.0 mph WNW45.1 kmh WNW 30.0 mph48.3 kmh 29.77 in1008.1 mb 0.00 in0.0 mm 0.00 in/hr0.0 mm/hr 0.00 in0.0 mm
11:29 AM 26.2°F-3.2°C 23.7°F-4.6°C 90% 27.0 mph NW43.5 kmh NW 30.0 mph48.3 kmh 29.77 in1008.1 mb 0.00 in0.0 mm 0.00 in/hr0.0 mm/hr 0.00 in0.0 mm
11:30 AM 25.9°F-3.4°C 23.4°F-4.8°C 90% 23.0 mph NW37.0 kmh NW 31.0 mph49.9 kmh 29.77 in1008.1 mb 0.00 in0.0 mm 0.00 in/hr0.0 mm/hr 0.00 in0.0 mm
11:31 AM 25.6°F-3.6°C 23.1°F-4.9°C 90% 29.0 mph NW46.7 kmh NW 31.0 mph49.9 kmh 29.77 in1008.1 mb 0.00 in0.0 mm 0.00 in/hr0.0 mm/hr 0.00 in0.0 mm
11:32 AM 25.3°F-3.7°C 22.8°F-5.1°C 90% 24.0 mph WNW38.6 kmh WNW 29.0 mph46.7 kmh 29.77 in1008.1 mb 0.00 in0.0 mm 0.00 in/hr0.0 mm/hr 0.00 in0.0 mm
11:33 AM 25.1°F-3.8°C 22.6°F-5.2°C 90% 22.0 mph NW35.4 kmh NW 29.0 mph46.7 kmh 29.78 in1008.5 mb 0.00 in0.0 mm 0.00 in/hr0.0 mm/hr 0.00 in0.0 mm
11:34 AM 25.0°F-3.9°C 22.5°F-5.3°C 90% 19.0 mph NW30.6 kmh NW 29.0 mph46.7 kmh 29.78 in1008.5 mb 0.00 in0.0 mm 0.00 in/hr0.0 mm/hr 0.00 in0.0 mm
11:35 AM 25.0°F-3.9°C 22.8°F-5.1°C 91% 19.0 mph NW30.6 kmh NW 29.0 mph46.7 kmh 29.78 in1008.5 mb 0.00 in0.0 mm 0.00 in/hr0.0 mm/hr 0.00 in0.0 mm
11:36 AM 25.0°F-3.9°C 22.8°F-5.1°C 91% 23.0 mph WNW37.0 kmh WNW 29.0 mph46.7 kmh 29.78 in1008.5 mb 0.00 in0.0 mm 0.00 in/hr0.0 mm/hr 0.00 in0.0 mm
11:37 AM 25.0°F-3.9°C 22.8°F-5.1°C 91% 25.0 mph WNW40.2 kmh WNW 29.0 mph46.7 kmh 29.78 in1008.5 mb 0.00 in0.0 mm 0.00 in/hr0.0 mm/hr 0.00 in0.0 mm
11:38 AM 25.0°F-3.9°C 22.8°F-5.1°C 91% 24.0 mph NW38.6 kmh NW 29.0 mph46.7 kmh 29.78 in1008.5 mb 0.00 in0.0 mm 0.00 in/hr0.0 mm/hr 0.00 in0.0 mm
11:39 AM 25.0°F-3.9°C 22.8°F-5.1°C 91% 21.0 mph NW33.8 kmh NW 29.0 mph46.7 kmh 29.79 in1008.8 mb 0.00 in0.0 mm 0.00 in/hr0.0 mm/hr 0.00 in0.0 mm
11:40 AM 25.0°F-3.9°C 22.8°F-5.1°C 91% 23.0 mph WNW37.0 kmh WNW 29.0 mph46.7 kmh 29.79 in1008.8 mb 0.00 in0.0 mm 0.00 in/hr0.0 mm/hr 0.00 in0.0 mm
11:41 AM 25.1°F-3.8°C 22.6°F-5.2°C 90% 24.0 mph NW38.6 kmh NW 29.0 mph46.7 kmh 29.79 in1008.8 mb 0.00 in0.0 mm 0.00 in/hr0.0 mm/hr 0.00 in0.0 mm
11:42 AM 25.0°F-3.9°C 22.5°F-5.3°C 90% 22.0 mph NW35.4 kmh NW 29.0 mph46.7 kmh 29.79 in1008.8 mb 0.00 in0.0 mm 0.00 in/hr0.0 mm/hr 0.00 in0.0 mm
11:43 AM 25.1°F-3.8°C 22.6°F-5.2°C 90% 21.0 mph NW33.8 kmh NW 29.0 mph46.7 kmh 29.79 in1008.8 mb 0.00 in0.0 mm 0.00 in/hr0.0 mm/hr 0.00 in0.0 mm
11:44 AM 25.1°F-3.8°C 22.6°F-5.2°C 90% 18.0 mph NW29.0 kmh NW 29.0 mph46.7 kmh 29.79 in1008.8 mb 0.00 in0.0 mm 0.00 in/hr0.0 mm/hr 0.00 in0.0 mm
11:45 AM 25.2°F-3.8°C 23.0°F-5.0°C 91% 18.0 mph NW29.0 kmh NW 29.0 mph46.7 kmh 29.79 in1008.8 mb 0.00 in0.0 mm 0.00 in/hr0.0 mm/hr 0.00 in0.0 mm
11:46 AM 25.3°F-3.7°C 23.1°F-4.9°C 91% 29.0 mph NW46.7 kmh NW 29.0 mph46.7 kmh 29.79 in1008.8 mb 0.00 in0.0 mm 0.00 in/hr0.0 mm/hr 0.00 in0.0 mm
11:47 AM 25.2°F-3.8°C 23.0°F-5.0°C 91% 23.0 mph WNW37.0 kmh WNW 29.0 mph46.7 kmh 29.79 in1008.8 mb 0.00 in0.0 mm 0.00 in/hr0.0 mm/hr 0.00 in0.0 mm
11:48 AM 25.1°F-3.8°C 22.6°F-5.2°C 90% 18.0 mph NW29.0 kmh NW 29.0 mph46.7 kmh 29.79 in1008.8 mb 0.00 in0.0 mm 0.00 in/hr0.0 mm/hr 0.00 in0.0 mm
11:49 AM 25.1°F-3.8°C 22.6°F-5.2°C 90% 27.0 mph NW43.5 kmh NW 29.0 mph46.7 kmh 29.79 in1008.8 mb 0.00 in0.0 mm 0.00 in/hr0.0 mm/hr 0.00 in0.0 mm
11:50 AM 25.0°F-3.9°C 22.5°F-5.3°C 90% 21.0 mph WNW33.8 kmh WNW 29.0 mph46.7 kmh 29.79 in1008.8 mb 0.00 in0.0 mm 0.00 in/hr0.0 mm/hr 0.00 in0.0 mm
11:51 AM 24.9°F-3.9°C 22.4°F-5.3°C 90% 22.0 mph NW35.4 kmh NW 29.0 mph46.7 kmh 29.79 in1008.8 mb 0.00 in0.0 mm 0.00 in/hr0.0 mm/hr 0.00 in0.0 mm
11:52 AM 24.9°F-3.9°C 22.4°F-5.3°C 90% 24.0 mph NW38.6 kmh NW 29.0 mph46.7 kmh 29.80 in1009.1 mb 0.00 in0.0 mm 0.00 in/hr0.0 mm/hr 0.00 in0.0 mm
11:53 AM 24.8°F-4.0°C 22.3°F-5.4°C 90% 30.0 mph NW48.3 kmh NW 31.0 mph49.9 kmh 29.80 in1009.1 mb 0.00 in0.0 mm 0.00 in/hr0.0 mm/hr 0.00 in0.0 mm
11:54 AM 24.7°F-4.1°C 22.2°F-5.4°C 90% 20.0 mph NW32.2 kmh NW 31.0 mph49.9 kmh 29.80 in1009.1 mb 0.00 in0.0 mm 0.00 in/hr0.0 mm/hr 0.00 in0.0 mm
11:55 AM 24.7°F-4.1°C 22.2°F-5.4°C 90% 27.0 mph WNW43.5 kmh WNW 31.0 mph49.9 kmh 29.80 in1009.1 mb 0.00 in0.0 mm 0.00 in/hr0.0 mm/hr 0.00 in0.0 mm
11:56 AM 24.6°F-4.1°C 21.8°F-5.7°C 89% 29.0 mph NW46.7 kmh NW 31.0 mph49.9 kmh 29.80 in1009.1 mb 0.00 in0.0 mm 0.00 in/hr0.0 mm/hr 0.00 in0.0 mm
11:57 AM 24.5°F-4.2°C 21.7°F-5.7°C 89% 25.0 mph WNW40.2 kmh WNW 31.0 mph49.9 kmh 29.80 in1009.1 mb 0.00 in0.0 mm 0.00 in/hr0.0 mm/hr 0.00 in0.0 mm
11:58 AM 24.5°F-4.2°C 21.7°F-5.7°C 89% 18.0 mph NW29.0 kmh NW 31.0 mph49.9 kmh 29.80 in1009.1 mb 0.00 in0.0 mm 0.00 in/hr0.0 mm/hr 0.00 in0.0 mm
11:59 AM 24.5°F-4.2°C 22.0°F-5.6°C 90% 18.0 mph WNW29.0 kmh WNW 31.0 mph49.9 kmh 29.80 in1009.1 mb 0.00 in0.0 mm 0.00 in/hr0.0 mm/hr 0.00 in0.0 mm
12:00 PM 24.6°F-4.1°C 22.1°F-5.5°C 90% 21.0 mph NW33.8 kmh NW 31.0 mph49.9 kmh 29.81 in1009.5 mb 0.00 in0.0 mm 0.00 in/hr0.0 mm/hr 0.00 in0.0 mm
12:01 PM 24.7°F-4.1°C 22.2°F-5.4°C 90% 25.0 mph NW40.2 kmh NW 31.0 mph49.9 kmh 29.81 in1009.5 mb 0.00 in0.0 mm 0.00 in/hr0.0 mm/hr 0.00 in0.0 mm
12:02 PM 24.7°F-4.1°C 22.2°F-5.4°C 90% 20.0 mph NW32.2 kmh NW 23.0 mph37.0 kmh 29.81 in1009.5 mb 0.00 in0.0 mm 0.00 in/hr0.0 mm/hr 0.00 in0.0 mm
12:03 PM 24.7°F-4.1°C 22.2°F-5.4°C 90% 16.0 mph NW25.7 kmh NW 23.0 mph37.0 kmh 29.81 in1009.5 mb 0.00 in0.0 mm 0.00 in/hr0.0 mm/hr 0.00 in0.0 mm
12:04 PM 24.8°F-4.0°C 22.3°F-5.4°C 90% 20.0 mph WNW32.2 kmh WNW 26.0 mph41.8 kmh 29.81 in1009.5 mb 0.00 in0.0 mm 0.00 in/hr0.0 mm/hr 0.00 in0.0 mm
12:05 PM 24.9°F-3.9°C 22.4°F-5.3°C 90% 32.0 mph WNW51.5 kmh WNW 32.0 mph51.5 kmh 29.81 in1009.5 mb 0.00 in0.0 mm 0.00 in/hr0.0 mm/hr 0.00 in0.0 mm
12:06 PM 24.8°F-4.0°C 22.3°F-5.4°C 90% 28.0 mph NW45.1 kmh NW 36.0 mph57.9 kmh 29.80 in1009.1 mb 0.00 in0.0 mm 0.00 in/hr0.0 mm/hr 0.00 in0.0 mm
12:07 PM 24.7°F-4.1°C 22.2°F-5.4°C 90% 30.0 mph NW48.3 kmh NW 36.0 mph57.9 kmh 29.80 in1009.1 mb 0.00 in0.0 mm 0.00 in/hr0.0 mm/hr 0.00 in0.0 mm
12:08 PM 24.6°F-4.1°C 22.1°F-5.5°C 90% 32.0 mph NW51.5 kmh NW 36.0 mph57.9 kmh 29.80 in1009.1 mb 0.00 in0.0 mm 0.00 in/hr0.0 mm/hr 0.00 in0.0 mm
12:09 PM 24.5°F-4.2°C 22.0°F-5.6°C 90% 28.0 mph WNW45.1 kmh WNW 36.0 mph57.9 kmh 29.81 in1009.5 mb 0.00 in0.0 mm 0.00 in/hr0.0 mm/hr 0.00 in0.0 mm
12:10 PM 24.5°F-4.2°C 22.0°F-5.6°C 90% 30.0 mph NW48.3 kmh NW 36.0 mph57.9 kmh 29.81 in1009.5 mb 0.00 in0.0 mm 0.00 in/hr0.0 mm/hr 0.00 in0.0 mm
12:11 PM 24.4°F-4.2°C 21.9°F-5.6°C 90% 24.0 mph WNW38.6 kmh WNW 36.0 mph57.9 kmh 29.81 in1009.5 mb 0.00 in0.0 mm 0.00 in/hr0.0 mm/hr 0.00 in0.0 mm
12:12 PM 24.3°F-4.3°C 21.8°F-5.7°C 90% 30.0 mph WNW48.3 kmh WNW 36.0 mph57.9 kmh 29.81 in1009.5 mb 0.00 in0.0 mm 0.00 in/hr0.0 mm/hr 0.00 in0.0 mm
12:13 PM 24.4°F-4.2°C 21.9°F-5.6°C 90% 19.0 mph WNW30.6 kmh WNW 36.0 mph57.9 kmh 29.81 in1009.5 mb 0.00 in0.0 mm 0.00 in/hr0.0 mm/hr 0.00 in0.0 mm
12:14 PM 24.4°F-4.2°C 22.2°F-5.4°C 91% 23.0 mph NNW37.0 kmh NNW 36.0 mph57.9 kmh 29.81 in1009.5 mb 0.00 in0.0 mm 0.00 in/hr0.0 mm/hr 0.00 in0.0 mm
12:15 PM 24.4°F-4.2°C 22.2°F-5.4°C 91% 33.0 mph NW53.1 kmh NW 36.0 mph57.9 kmh 29.81 in1009.5 mb 0.00 in0.0 mm 0.00 in/hr0.0 mm/hr 0.00 in0.0 mm
12:16 PM 24.3°F-4.3°C 22.1°F-5.5°C 91% 26.0 mph NW41.8 kmh NW 36.0 mph57.9 kmh 29.81 in1009.5 mb 0.00 in0.0 mm 0.00 in/hr0.0 mm/hr 0.00 in0.0 mm
12:17 PM 24.3°F-4.3°C 21.8°F-5.7°C 90% 23.0 mph NW37.0 kmh NW 36.0 mph57.9 kmh 29.81 in1009.5 mb 0.00 in0.0 mm 0.00 in/hr0.0 mm/hr 0.00 in0.0 mm
12:18 PM 24.2°F-4.3°C 21.7°F-5.7°C 90% 21.0 mph NW33.8 kmh NW 36.0 mph57.9 kmh 29.81 in1009.5 mb 0.00 in0.0 mm 0.00 in/hr0.0 mm/hr 0.00 in0.0 mm
12:19 PM 24.3°F-4.3°C 21.8°F-5.7°C 90% 22.0 mph NW35.4 kmh NW 36.0 mph57.9 kmh 29.81 in1009.5 mb 0.00 in0.0 mm 0.00 in/hr0.0 mm/hr 0.00 in0.0 mm
12:20 PM 24.4°F-4.2°C 22.2°F-5.4°C 91% 26.0 mph NW41.8 kmh NW 36.0 mph57.9 kmh 29.81 in1009.5 mb 0.00 in0.0 mm 0.00 in/hr0.0 mm/hr 0.00 in0.0 mm
12:21 PM 24.5°F-4.2°C 22.3°F-5.4°C 91% 28.0 mph NW45.1 kmh NW 36.0 mph57.9 kmh 29.80 in1009.1 mb 0.00 in0.0 mm 0.00 in/hr0.0 mm/hr 0.00 in0.0 mm
12:22 PM 24.4°F-4.2°C 21.9°F-5.6°C 90% 26.0 mph NW41.8 kmh NW 36.0 mph57.9 kmh 29.81 in1009.5 mb 0.00 in0.0 mm 0.00 in/hr0.0 mm/hr 0.00 in0.0 mm
12:23 PM 24.4°F-4.2°C 21.9°F-5.6°C 90% 21.0 mph NW33.8 kmh NW 36.0 mph57.9 kmh 29.81 in1009.5 mb 0.00 in0.0 mm 0.00 in/hr0.0 mm/hr 0.00 in0.0 mm
12:24 PM 24.4°F-4.2°C 21.9°F-5.6°C 90% 26.0 mph NW41.8 kmh NW 36.0 mph57.9 kmh 29.81 in1009.5 mb 0.00 in0.0 mm 0.00 in/hr0.0 mm/hr 0.00 in0.0 mm
12:25 PM 24.4°F-4.2°C 21.9°F-5.6°C 90% 33.0 mph WNW53.1 kmh WNW 36.0 mph57.9 kmh 29.81 in1009.5 mb 0.00 in0.0 mm 0.00 in/hr0.0 mm/hr 0.00 in0.0 mm
12:26 PM 24.3°F-4.3°C 21.8°F-5.7°C 90% 32.0 mph NW51.5 kmh NW 36.0 mph57.9 kmh 29.81 in1009.5 mb 0.00 in0.0 mm 0.00 in/hr0.0 mm/hr 0.00 in0.0 mm
12:27 PM 24.2°F-4.3°C 21.7°F-5.7°C 90% 26.0 mph NW41.8 kmh NW 36.0 mph57.9 kmh 29.81 in1009.5 mb 0.00 in0.0 mm 0.00 in/hr0.0 mm/hr 0.00 in0.0 mm
12:28 PM 24.1°F-4.4°C 21.6°F-5.8°C 90% 30.0 mph WNW48.3 kmh WNW 36.0 mph57.9 kmh 29.81 in1009.5 mb 0.00 in0.0 mm 0.00 in/hr0.0 mm/hr 0.00 in0.0 mm
12:29 PM 24.1°F-4.4°C 21.9°F-5.6°C 91% 29.0 mph WNW46.7 kmh WNW 36.0 mph57.9 kmh 29.81 in1009.5 mb 0.00 in0.0 mm 0.00 in/hr0.0 mm/hr 0.00 in0.0 mm
12:30 PM 24.0°F-4.4°C 21.8°F-5.7°C 91% 33.0 mph WNW53.1 kmh WNW 36.0 mph57.9 kmh 29.81 in1009.5 mb 0.00 in0.0 mm 0.00 in/hr0.0 mm/hr 0.00 in0.0 mm
12:31 PM 24.0°F-4.4°C 21.8°F-5.7°C 91% 31.0 mph WNW49.9 kmh WNW 36.0 mph57.9 kmh 29.81 in1009.5 mb 0.00 in0.0 mm 0.00 in/hr0.0 mm/hr 0.00 in0.0 mm
12:32 PM 24.0°F-4.4°C 21.8°F-5.7°C 91% 32.0 mph WNW51.5 kmh WNW 35.0 mph56.3 kmh 29.81 in1009.5 mb 0.00 in0.0 mm 0.00 in/hr0.0 mm/hr 0.00 in0.0 mm
12:33 PM 23.9°F-4.5°C 21.7°F-5.7°C 91% 27.0 mph NW43.5 kmh NW 36.0 mph57.9 kmh 29.81 in1009.5 mb 0.00 in0.0 mm 0.00 in/hr0.0 mm/hr 0.00 in0.0 mm
12:34 PM 23.9°F-4.5°C 21.7°F-5.7°C 91% 25.0 mph NW40.2 kmh NW 36.0 mph57.9 kmh 29.81 in1009.5 mb 0.00 in0.0 mm 0.00 in/hr0.0 mm/hr 0.00 in0.0 mm
12:35 PM 23.9°F-4.5°C 21.7°F-5.7°C 91% 30.0 mph NW48.3 kmh NW 36.0 mph57.9 kmh 29.81 in1009.5 mb 0.00 in0.0 mm 0.00 in/hr0.0 mm/hr 0.00 in0.0 mm
12:36 PM 23.9°F-4.5°C 21.7°F-5.7°C 91% 21.0 mph NW33.8 kmh NW 36.0 mph57.9 kmh 29.81 in1009.5 mb 0.00 in0.0 mm 0.00 in/hr0.0 mm/hr 0.00 in0.0 mm
12:37 PM 23.9°F-4.5°C 21.7°F-5.7°C 91% 34.0 mph NW54.7 kmh NW 39.0 mph62.8 kmh 29.81 in1009.5 mb 0.00 in0.0 mm 0.00 in/hr0.0 mm/hr 0.00 in0.0 mm
12:38 PM 23.8°F-4.6°C 21.6°F-5.8°C 91% 29.0 mph NW46.7 kmh NW 39.0 mph62.8 kmh 29.81 in1009.5 mb 0.00 in0.0 mm 0.00 in/hr0.0 mm/hr 0.00 in0.0 mm
12:39 PM 23.8°F-4.6°C 21.6°F-5.8°C 91% 28.0 mph NW45.1 kmh NW 39.0 mph62.8 kmh 29.81 in1009.5 mb 0.00 in0.0 mm 0.00 in/hr0.0 mm/hr 0.00 in0.0 mm
12:40 PM 23.8°F-4.6°C 21.6°F-5.8°C 91% 28.0 mph NW45.1 kmh NW 39.0 mph62.8 kmh 29.81 in1009.5 mb 0.00 in0.0 mm 0.00 in/hr0.0 mm/hr 0.00 in0.0 mm
12:41 PM 23.9°F-4.5°C 21.7°F-5.7°C 91% 29.0 mph NW46.7 kmh NW 39.0 mph62.8 kmh 29.81 in1009.5 mb 0.00 in0.0 mm 0.00 in/hr0.0 mm/hr 0.00 in0.0 mm
12:42 PM 23.9°F-4.5°C 21.7°F-5.7°C 91% 25.0 mph NW40.2 kmh NW 39.0 mph62.8 kmh 29.81 in1009.5 mb 0.00 in0.0 mm 0.00 in/hr0.0 mm/hr 0.00 in0.0 mm
12:43 PM 23.9°F-4.5°C 21.7°F-5.7°C 91% 21.0 mph NW33.8 kmh NW 39.0 mph62.8 kmh 29.81 in1009.5 mb 0.00 in0.0 mm 0.00 in/hr0.0 mm/hr 0.00 in0.0 mm
12:44 PM 23.9°F-4.5°C 21.7°F-5.7°C 91% 29.0 mph NW46.7 kmh NW 39.0 mph62.8 kmh 29.82 in1009.8 mb 0.00 in0.0 mm 0.00 in/hr0.0 mm/hr 0.00 in0.0 mm
12:45 PM 23.9°F-4.5°C 21.7°F-5.7°C 91% 30.0 mph NW48.3 kmh NW 39.0 mph62.8 kmh 29.81 in1009.5 mb 0.00 in0.0 mm 0.00 in/hr0.0 mm/hr 0.00 in0.0 mm
12:46 PM 23.9°F-4.5°C 21.7°F-5.7°C 91% 26.0 mph WNW41.8 kmh WNW 39.0 mph62.8 kmh 29.82 in1009.8 mb 0.00 in0.0 mm 0.00 in/hr0.0 mm/hr 0.00 in0.0 mm
12:47 PM 23.9°F-4.5°C 21.7°F-5.7°C 91% 24.0 mph NW38.6 kmh NW 39.0 mph62.8 kmh 29.82 in1009.8 mb 0.00 in0.0 mm 0.00 in/hr0.0 mm/hr 0.00 in0.0 mm
12:48 PM 23.9°F-4.5°C 21.7°F-5.7°C 91% 23.0 mph NW37.0 kmh NW 39.0 mph62.8 kmh 29.82 in1009.8 mb 0.00 in0.0 mm 0.00 in/hr0.0 mm/hr 0.00 in0.0 mm
12:49 PM 23.9°F-4.5°C 21.7°F-5.7°C 91% 24.0 mph WNW38.6 kmh WNW 39.0 mph62.8 kmh 29.82 in1009.8 mb 0.00 in0.0 mm 0.00 in/hr0.0 mm/hr 0.00 in0.0 mm
12:50 PM 23.9°F-4.5°C 21.7°F-5.7°C 91% 22.0 mph NW35.4 kmh NW 39.0 mph62.8 kmh 29.82 in1009.8 mb 0.00 in0.0 mm 0.00 in/hr0.0 mm/hr 0.00 in0.0 mm
12:51 PM 23.9°F-4.5°C 21.7°F-5.7°C 91% 22.0 mph NW35.4 kmh NW 39.0 mph62.8 kmh 29.82 in1009.8 mb 0.00 in0.0 mm 0.00 in/hr0.0 mm/hr 0.00 in0.0 mm
12:52 PM 23.9°F-4.5°C 21.7°F-5.7°C 91% 30.0 mph NW48.3 kmh NW 39.0 mph62.8 kmh 29.82 in1009.8 mb 0.00 in0.0 mm 0.00 in/hr0.0 mm/hr 0.00 in0.0 mm
12:53 PM 23.8°F-4.6°C 21.6°F-5.8°C 91% 30.0 mph WNW48.3 kmh WNW 39.0 mph62.8 kmh 29.82 in1009.8 mb 0.00 in0.0 mm 0.00 in/hr0.0 mm/hr 0.00 in0.0 mm
12:54 PM 23.7°F-4.6°C 21.5°F-5.8°C 91% 26.0 mph NW41.8 kmh NW 39.0 mph62.8 kmh 29.82 in1009.8 mb 0.00 in0.0 mm 0.00 in/hr0.0 mm/hr 0.00 in0.0 mm
12:55 PM 23.6°F-4.7°C 21.4°F-5.9°C 91% 28.0 mph WNW45.1 kmh WNW 39.0 mph62.8 kmh 29.82 in1009.8 mb 0.00 in0.0 mm 0.00 in/hr0.0 mm/hr 0.00 in0.0 mm
12:56 PM 23.6°F-4.7°C 21.1°F-6.1°C 90% 28.0 mph NW45.1 kmh NW 39.0 mph62.8 kmh 29.83 in1010.2 mb 0.00 in0.0 mm 0.00 in/hr0.0 mm/hr 0.00 in0.0 mm
12:57 PM 23.5°F-4.7°C 21.0°F-6.1°C 90% 35.0 mph NW56.3 kmh NW 39.0 mph62.8 kmh 29.83 in1010.2 mb 0.00 in0.0 mm 0.00 in/hr0.0 mm/hr 0.00 in0.0 mm
12:58 PM 23.4°F-4.8°C 20.9°F-6.2°C 90% 37.0 mph NW59.5 kmh NW 39.0 mph62.8 kmh 29.83 in1010.2 mb 0.00 in0.0 mm 0.00 in/hr0.0 mm/hr 0.00 in0.0 mm
12:59 PM 23.3°F-4.8°C 20.8°F-6.2°C 90% 34.0 mph NW54.7 kmh NW 39.0 mph62.8 kmh 29.83 in1010.2 mb 0.00 in0.0 mm 0.00 in/hr0.0 mm/hr 0.00 in0.0 mm
01:00 PM 23.1°F-4.9°C 20.6°F-6.3°C 90% 34.0 mph NW54.7 kmh NW 39.0 mph62.8 kmh 29.83 in1010.2 mb 0.00 in0.0 mm 0.00 in/hr0.0 mm/hr 0.00 in0.0 mm
01:01 PM 23.0°F-5.0°C 20.5°F-6.4°C 90% 30.0 mph NW48.3 kmh NW 39.0 mph62.8 kmh 29.83 in1010.2 mb 0.00 in0.0 mm 0.00 in/hr0.0 mm/hr 0.00 in0.0 mm
01:02 PM 22.9°F-5.1°C 20.4°F-6.4°C 90% 29.0 mph WNW46.7 kmh WNW 33.0 mph53.1 kmh 29.82 in1009.8 mb 0.00 in0.0 mm 0.00 in/hr0.0 mm/hr 0.00 in0.0 mm
01:03 PM 22.9°F-5.1°C 20.4°F-6.4°C 90% 31.0 mph NW49.9 kmh NW 34.0 mph54.7 kmh 29.82 in1009.8 mb 0.00 in0.0 mm 0.00 in/hr0.0 mm/hr 0.00 in0.0 mm
01:04 PM 22.9°F-5.1°C 20.4°F-6.4°C 90% 28.0 mph NW45.1 kmh NW 35.0 mph56.3 kmh 29.82 in1009.8 mb 0.00 in0.0 mm 0.00 in/hr0.0 mm/hr 0.00 in0.0 mm
01:05 PM 22.8°F-5.1°C 20.3°F-6.5°C 90% 27.0 mph NW43.5 kmh NW 35.0 mph56.3 kmh 29.82 in1009.8 mb 0.00 in0.0 mm 0.00 in/hr0.0 mm/hr 0.00 in0.0 mm
01:06 PM 22.9°F-5.1°C 20.4°F-6.4°C 90% 31.0 mph NW49.9 kmh NW 35.0 mph56.3 kmh 29.82 in1009.8 mb 0.00 in0.0 mm 0.00 in/hr0.0 mm/hr 0.00 in0.0 mm
01:07 PM 22.9°F-5.1°C 20.4°F-6.4°C 90% 29.0 mph NW46.7 kmh NW 35.0 mph56.3 kmh 29.82 in1009.8 mb 0.00 in0.0 mm 0.00 in/hr0.0 mm/hr 0.00 in0.0 mm
01:08 PM 22.9°F-5.1°C 20.4°F-6.4°C 90% 21.0 mph NW33.8 kmh NW 35.0 mph56.3 kmh 29.82 in1009.8 mb 0.00 in0.0 mm 0.00 in/hr0.0 mm/hr 0.00 in0.0 mm
01:09 PM 22.9°F-5.1°C 20.4°F-6.4°C 90% 27.0 mph NW43.5 kmh NW 35.0 mph56.3 kmh 29.81 in1009.5 mb 0.00 in0.0 mm 0.00 in/hr0.0 mm/hr 0.00 in0.0 mm
01:10 PM 23.0°F-5.0°C 20.8°F-6.2°C 91% 27.0 mph NW43.5 kmh NW 35.0 mph56.3 kmh 29.81 in1009.5 mb 0.00 in0.0 mm 0.00 in/hr0.0 mm/hr 0.00 in0.0 mm
01:11 PM 23.0°F-5.0°C 20.5°F-6.4°C 90% 24.0 mph NW38.6 kmh NW 35.0 mph56.3 kmh 29.82 in1009.8 mb 0.00 in0.0 mm 0.00 in/hr0.0 mm/hr 0.00 in0.0 mm
01:12 PM 23.0°F-5.0°C 20.8°F-6.2°C 91% 26.0 mph NW41.8 kmh NW 35.0 mph56.3 kmh 29.82 in1009.8 mb 0.00 in0.0 mm 0.00 in/hr0.0 mm/hr 0.00 in0.0 mm
01:13 PM 23.1°F-4.9°C 20.9°F-6.2°C 91% 25.0 mph WNW40.2 kmh WNW 35.0 mph56.3 kmh 29.82 in1009.8 mb 0.00 in0.0 mm 0.00 in/hr0.0 mm/hr 0.00 in0.0 mm
01:14 PM 23.2°F-4.9°C 21.0°F-6.1°C 91% 28.0 mph NW45.1 kmh NW 35.0 mph56.3 kmh 29.82 in1009.8 mb 0.00 in0.0 mm 0.00 in/hr0.0 mm/hr 0.00 in0.0 mm
01:15 PM 23.2°F-4.9°C 21.0°F-6.1°C 91% 28.0 mph WNW45.1 kmh WNW 35.0 mph56.3 kmh 29.82 in1009.8 mb 0.00 in0.0 mm 0.00 in/hr0.0 mm/hr 0.00 in0.0 mm
01:16 PM 23.2°F-4.9°C 21.0°F-6.1°C 91% 34.0 mph NW54.7 kmh NW 35.0 mph56.3 kmh 29.82 in1009.8 mb 0.00 in0.0 mm 0.00 in/hr0.0 mm/hr 0.00 in0.0 mm
01:17 PM 23.1°F-4.9°C 20.6°F-6.3°C 90% 34.0 mph WNW54.7 kmh WNW 35.0 mph56.3 kmh 29.82 in1009.8 mb 0.00 in0.0 mm 0.00 in/hr0.0 mm/hr 0.00 in0.0 mm
01:18 PM 22.9°F-5.1°C 20.4°F-6.4°C 90% 30.0 mph NW48.3 kmh NW 37.0 mph59.5 kmh 29.82 in1009.8 mb 0.00 in0.0 mm 0.00 in/hr0.0 mm/hr 0.00 in0.0 mm
01:19 PM 22.8°F-5.1°C 20.3°F-6.5°C 90% 26.0 mph NW41.8 kmh NW 37.0 mph59.5 kmh 29.82 in1009.8 mb 0.00 in0.0 mm 0.00 in/hr0.0 mm/hr 0.00 in0.0 mm
01:20 PM 22.8°F-5.1°C 20.3°F-6.5°C 90% 30.0 mph NW48.3 kmh NW 37.0 mph59.5 kmh 29.82 in1009.8 mb 0.00 in0.0 mm 0.00 in/hr0.0 mm/hr 0.00 in0.0 mm
01:21 PM 22.8°F-5.1°C 20.3°F-6.5°C 90% 32.0 mph WNW51.5 kmh WNW 37.0 mph59.5 kmh 29.83 in1010.2 mb 0.00 in0.0 mm 0.00 in/hr0.0 mm/hr 0.00 in0.0 mm
01:22 PM 22.7°F-5.2°C 20.2°F-6.6°C 90% 27.0 mph NW43.5 kmh NW 37.0 mph59.5 kmh 29.82 in1009.8 mb 0.00 in0.0 mm 0.00 in/hr0.0 mm/hr 0.00 in0.0 mm
01:23 PM 22.6°F-5.2°C 20.1°F-6.6°C 90% 34.0 mph NW54.7 kmh NW 37.0 mph59.5 kmh 29.82 in1009.8 mb 0.00 in0.0 mm 0.00 in/hr0.0 mm/hr 0.00 in0.0 mm
01:24 PM 22.5°F-5.3°C 19.8°F-6.8°C 89% 24.0 mph NW38.6 kmh NW 37.0 mph59.5 kmh 29.82 in1009.8 mb 0.00 in0.0 mm 0.00 in/hr0.0 mm/hr 0.00 in0.0 mm
01:25 PM 22.5°F-5.3°C 20.0°F-6.7°C 90% 22.0 mph NW35.4 kmh NW 37.0 mph59.5 kmh 29.83 in1010.2 mb 0.00 in0.0 mm 0.00 in/hr0.0 mm/hr 0.00 in0.0 mm
01:26 PM 22.6°F-5.2°C 20.1°F-6.6°C 90% 28.0 mph NW45.1 kmh NW 37.0 mph59.5 kmh 29.83 in1010.2 mb 0.00 in0.0 mm 0.00 in/hr0.0 mm/hr 0.00 in0.0 mm
01:27 PM 22.6°F-5.2°C 20.1°F-6.6°C 90% 25.0 mph NW40.2 kmh NW 37.0 mph59.5 kmh 29.83 in1010.2 mb 0.00 in0.0 mm 0.00 in/hr0.0 mm/hr 0.00 in0.0 mm
01:28 PM 22.6°F-5.2°C 19.9°F-6.7°C 89% 29.0 mph NW46.7 kmh NW 37.0 mph59.5 kmh 29.83 in1010.2 mb 0.00 in0.0 mm 0.00 in/hr0.0 mm/hr 0.00 in0.0 mm
01:29 PM 22.5°F-5.3°C 19.8°F-6.8°C 89% 34.0 mph NW54.7 kmh NW 37.0 mph59.5 kmh 29.83 in1010.2 mb 0.00 in0.0 mm 0.00 in/hr0.0 mm/hr 0.00 in0.0 mm
01:30 PM 22.3°F-5.4°C 19.6°F-6.9°C 89% 33.0 mph NW53.1 kmh NW 40.0 mph64.4 kmh 29.83 in1010.2 mb 0.00 in0.0 mm 0.00 in/hr0.0 mm/hr 0.00 in0.0 mm
01:31 PM 22.2°F-5.4°C 19.2°F-7.1°C 88% 35.0 mph NW56.3 kmh NW 40.0 mph64.4 kmh 29.83 in1010.2 mb 0.00 in0.0 mm 0.00 in/hr0.0 mm/hr 0.00 in0.0 mm
01:32 PM 22.1°F-5.5°C 19.1°F-7.2°C 88% 27.0 mph NW43.5 kmh NW 30.0 mph48.3 kmh 29.83 in1010.2 mb 0.00 in0.0 mm 0.00 in/hr0.0 mm/hr 0.00 in0.0 mm
01:33 PM 22.2°F-5.4°C 19.5°F-6.9°C 89% 26.0 mph NW41.8 kmh NW 32.0 mph51.5 kmh 29.83 in1010.2 mb 0.00 in0.0 mm 0.00 in/hr0.0 mm/hr 0.00 in0.0 mm
01:34 PM 22.2°F-5.4°C 19.5°F-6.9°C 89% 28.0 mph NW45.1 kmh NW 33.0 mph53.1 kmh 29.83 in1010.2 mb 0.00 in0.0 mm 0.00 in/hr0.0 mm/hr 0.00 in0.0 mm
01:35 PM 22.2°F-5.4°C 19.5°F-6.9°C 89% 30.0 mph NW48.3 kmh NW 33.0 mph53.1 kmh 29.83 in1010.2 mb 0.00 in0.0 mm 0.00 in/hr0.0 mm/hr 0.00 in0.0 mm
01:36 PM 22.2°F-5.4°C 19.5°F-6.9°C 89% 23.0 mph NW37.0 kmh NW 33.0 mph53.1 kmh 29.83 in1010.2 mb 0.00 in0.0 mm 0.00 in/hr0.0 mm/hr 0.00 in0.0 mm
01:37 PM 22.4°F-5.3°C 19.7°F-6.8°C 89% 22.0 mph NW35.4 kmh NW 33.0 mph53.1 kmh 29.83 in1010.2 mb 0.00 in0.0 mm 0.00 in/hr0.0 mm/hr 0.00 in0.0 mm
01:38 PM 22.5°F-5.3°C 19.8°F-6.8°C 89% 23.0 mph NW37.0 kmh NW 33.0 mph53.1 kmh 29.83 in1010.2 mb 0.00 in0.0 mm 0.00 in/hr0.0 mm/hr 0.00 in0.0 mm
01:39 PM 22.7°F-5.2°C 20.2°F-6.6°C 90% 19.0 mph NW30.6 kmh NW 33.0 mph53.1 kmh 29.84 in1010.5 mb 0.00 in0.0 mm 0.00 in/hr0.0 mm/hr 0.00 in0.0 mm
01:40 PM 22.8°F-5.1°C 20.3°F-6.5°C 90% 22.0 mph NW35.4 kmh NW 33.0 mph53.1 kmh 29.84 in1010.5 mb 0.00 in0.0 mm 0.00 in/hr0.0 mm/hr 0.00 in0.0 mm
01:41 PM 22.8°F-5.1°C 20.3°F-6.5°C 90% 22.0 mph W35.4 kmh W 33.0 mph53.1 kmh 29.84 in1010.5 mb 0.00 in0.0 mm 0.00 in/hr0.0 mm/hr 0.00 in0.0 mm
01:42 PM 22.7°F-5.2°C 20.5°F-6.4°C 91% 29.0 mph WNW46.7 kmh WNW 33.0 mph53.1 kmh 29.83 in1010.2 mb 0.00 in0.0 mm 0.00 in/hr0.0 mm/hr 0.00 in0.0 mm
01:43 PM 22.6°F-5.2°C 20.1°F-6.6°C 90% 27.0 mph NW43.5 kmh NW 33.0 mph53.1 kmh 29.83 in1010.2 mb 0.00 in0.0 mm 0.00 in/hr0.0 mm/hr 0.00 in0.0 mm
01:44 PM 22.5°F-5.3°C 20.0°F-6.7°C 90% 30.0 mph WNW48.3 kmh WNW 34.0 mph54.7 kmh 29.83 in1010.2 mb 0.00 in0.0 mm 0.00 in/hr0.0 mm/hr 0.00 in0.0 mm
01:45 PM 22.3°F-5.4°C 19.6°F-6.9°C 89% 26.0 mph WNW41.8 kmh WNW 34.0 mph54.7 kmh 29.83 in1010.2 mb 0.00 in0.0 mm 0.00 in/hr0.0 mm/hr 0.00 in0.0 mm
01:46 PM 22.2°F-5.4°C 19.5°F-6.9°C 89% 26.0 mph WNW41.8 kmh WNW 34.0 mph54.7 kmh 29.83 in1010.2 mb 0.00 in0.0 mm 0.00 in/hr0.0 mm/hr 0.00 in0.0 mm
01:47 PM 22.1°F-5.5°C 19.4°F-7.0°C 89% 29.0 mph WNW46.7 kmh WNW 34.0 mph54.7 kmh 29.83 in1010.2 mb 0.00 in0.0 mm 0.00 in/hr0.0 mm/hr 0.00 in0.0 mm
01:48 PM 22.1°F-5.5°C 19.4°F-7.0°C 89% 23.0 mph NW37.0 kmh NW 34.0 mph54.7 kmh 29.83 in1010.2 mb 0.00 in0.0 mm 0.00 in/hr0.0 mm/hr 0.00 in0.0 mm
01:49 PM 22.2°F-5.4°C 19.5°F-6.9°C 89% 27.0 mph NW43.5 kmh NW 34.0 mph54.7 kmh 29.83 in1010.2 mb 0.00 in0.0 mm 0.00 in/hr0.0 mm/hr 0.00 in0.0 mm
01:50 PM 22.2°F-5.4°C 19.5°F-6.9°C 89% 32.0 mph NW51.5 kmh NW 34.0 mph54.7 kmh 29.83 in1010.2 mb 0.00 in0.0 mm 0.00 in/hr0.0 mm/hr 0.00 in0.0 mm
01:51 PM 22.2°F-5.4°C 19.5°F-6.9°C 89% 27.0 mph NW43.5 kmh NW 34.0 mph54.7 kmh 29.83 in1010.2 mb 0.00 in0.0 mm 0.00 in/hr0.0 mm/hr 0.00 in0.0 mm
01:52 PM 22.1°F-5.5°C 19.1°F-7.2°C 88% 31.0 mph WNW49.9 kmh WNW 34.0 mph54.7 kmh 29.83 in1010.2 mb 0.00 in0.0 mm 0.00 in/hr0.0 mm/hr 0.00 in0.0 mm
01:53 PM 22.1°F-5.5°C 19.1°F-7.2°C 88% 29.0 mph NW46.7 kmh NW 34.0 mph54.7 kmh 29.83 in1010.2 mb 0.00 in0.0 mm 0.00 in/hr0.0 mm/hr 0.00 in0.0 mm
01:54 PM 22.0°F-5.6°C 19.0°F-7.2°C 88% 26.0 mph NW41.8 kmh NW 34.0 mph54.7 kmh 29.83 in1010.2 mb 0.00 in0.0 mm 0.00 in/hr0.0 mm/hr 0.00 in0.0 mm
01:55 PM 22.0°F-5.6°C 19.0°F-7.2°C 88% 29.0 mph NW46.7 kmh NW 34.0 mph54.7 kmh 29.84 in1010.5 mb 0.00 in0.0 mm 0.00 in/hr0.0 mm/hr 0.00 in0.0 mm
01:56 PM 22.1°F-5.5°C 19.1°F-7.2°C 88% 26.0 mph NW41.8 kmh NW 34.0 mph54.7 kmh 29.83 in1010.2 mb 0.00 in0.0 mm 0.00 in/hr0.0 mm/hr 0.00 in0.0 mm
01:57 PM 22.2°F-5.4°C 19.2°F-7.1°C 88% 26.0 mph NW41.8 kmh NW 34.0 mph54.7 kmh 29.84 in1010.5 mb 0.00 in0.0 mm 0.00 in/hr0.0 mm/hr 0.00 in0.0 mm
01:58 PM 22.2°F-5.4°C 19.2°F-7.1°C 88% 28.0 mph NW45.1 kmh NW 34.0 mph54.7 kmh 29.84 in1010.5 mb 0.00 in0.0 mm 0.00 in/hr0.0 mm/hr 0.00 in0.0 mm
01:59 PM 22.2°F-5.4°C 19.2°F-7.1°C 88% 27.0 mph NW43.5 kmh NW 34.0 mph54.7 kmh 29.84 in1010.5 mb 0.00 in0.0 mm 0.00 in/hr0.0 mm/hr 0.00 in0.0 mm
02:00 PM 22.3°F-5.4°C 19.0°F-7.2°C 87% 25.0 mph NW40.2 kmh NW 34.0 mph54.7 kmh 29.84 in1010.5 mb 0.00 in0.0 mm 0.00 in/hr0.0 mm/hr 0.00 in0.0 mm
02:01 PM 22.3°F-5.4°C 19.0°F-7.2°C 87% 31.0 mph NW49.9 kmh NW 34.0 mph54.7 kmh 29.84 in1010.5 mb 0.00 in0.0 mm 0.00 in/hr0.0 mm/hr 0.00 in0.0 mm
02:02 PM 22.3°F-5.4°C 19.0°F-7.2°C 87% 21.0 mph NW33.8 kmh NW 26.0 mph41.8 kmh 29.84 in1010.5 mb 0.00 in0.0 mm 0.00 in/hr0.0 mm/hr 0.00 in0.0 mm
02:03 PM 22.4°F-5.3°C 19.1°F-7.2°C 87% 25.0 mph NW40.2 kmh NW 28.0 mph45.1 kmh 29.84 in1010.5 mb 0.00 in0.0 mm 0.00 in/hr0.0 mm/hr 0.00 in0.0 mm
02:04 PM 22.4°F-5.3°C 19.1°F-7.2°C 87% 24.0 mph NW38.6 kmh NW 29.0 mph46.7 kmh 29.84 in1010.5 mb 0.00 in0.0 mm 0.00 in/hr0.0 mm/hr 0.00 in0.0 mm
02:05 PM 22.5°F-5.3°C 19.2°F-7.1°C 87% 25.0 mph WNW40.2 kmh WNW 31.0 mph49.9 kmh 29.84 in1010.5 mb 0.00 in0.0 mm 0.00 in/hr0.0 mm/hr 0.00 in0.0 mm
02:06 PM 22.5°F-5.3°C 19.2°F-7.1°C 87% 25.0 mph NW40.2 kmh NW 31.0 mph49.9 kmh 29.84 in1010.5 mb 0.00 in0.0 mm 0.00 in/hr0.0 mm/hr 0.00 in0.0 mm
02:07 PM 22.5°F-5.3°C 19.2°F-7.1°C 87% 29.0 mph NW46.7 kmh NW 33.0 mph53.1 kmh 29.84 in1010.5 mb 0.00 in0.0 mm 0.00 in/hr0.0 mm/hr 0.00 in0.0 mm
02:08 PM 22.4°F-5.3°C 18.9°F-7.3°C 86% 28.0 mph NW45.1 kmh NW 33.0 mph53.1 kmh 29.84 in1010.5 mb 0.00 in0.0 mm 0.00 in/hr0.0 mm/hr 0.00 in0.0 mm
02:09 PM 22.4°F-5.3°C 18.9°F-7.3°C 86% 28.0 mph NW45.1 kmh NW 33.0 mph53.1 kmh 29.84 in1010.5 mb 0.00 in0.0 mm 0.00 in/hr0.0 mm/hr 0.00 in0.0 mm
02:10 PM 22.4°F-5.3°C 18.9°F-7.3°C 86% 31.0 mph NW49.9 kmh NW 33.0 mph53.1 kmh 29.85 in1010.8 mb 0.00 in0.0 mm 0.00 in/hr0.0 mm/hr 0.00 in0.0 mm
02:11 PM 22.4°F-5.3°C 18.9°F-7.3°C 86% 28.0 mph NW45.1 kmh NW 33.0 mph53.1 kmh 29.85 in1010.8 mb 0.00 in0.0 mm 0.00 in/hr0.0 mm/hr 0.00 in0.0 mm
02:12 PM 22.4°F-5.3°C 18.9°F-7.3°C 86% 28.0 mph NW45.1 kmh NW 33.0 mph53.1 kmh 29.85 in1010.8 mb 0.00 in0.0 mm 0.00 in/hr0.0 mm/hr 0.00 in0.0 mm
02:13 PM 22.4°F-5.3°C 18.9°F-7.3°C 86% 32.0 mph NW51.5 kmh NW 34.0 mph54.7 kmh 29.85 in1010.8 mb 0.00 in0.0 mm 0.00 in/hr0.0 mm/hr 0.00 in0.0 mm
02:14 PM 22.4°F-5.3°C 18.6°F-7.4°C 85% 30.0 mph NW48.3 kmh NW 34.0 mph54.7 kmh 29.85 in1010.8 mb 0.00 in0.0 mm 0.00 in/hr0.0 mm/hr 0.00 in0.0 mm
02:15 PM 22.3°F-5.4°C 18.5°F-7.5°C 85% 32.0 mph NW51.5 kmh NW 34.0 mph54.7 kmh 29.84 in1010.5 mb 0.00 in0.0 mm 0.00 in/hr0.0 mm/hr 0.00 in0.0 mm
02:16 PM 22.3°F-5.4°C 18.5°F-7.5°C 85% 22.0 mph NW35.4 kmh NW 34.0 mph54.7 kmh 29.85 in1010.8 mb 0.00 in0.0 mm 0.00 in/hr0.0 mm/hr 0.00 in0.0 mm
02:17 PM 22.3°F-5.4°C 18.5°F-7.5°C 85% 21.0 mph NW33.8 kmh NW 34.0 mph54.7 kmh 29.85 in1010.8 mb 0.00 in0.0 mm 0.00 in/hr0.0 mm/hr 0.00 in0.0 mm
02:18 PM 22.4°F-5.3°C 18.6°F-7.4°C 85% 25.0 mph NW40.2 kmh NW 34.0 mph54.7 kmh 29.85 in1010.8 mb 0.00 in0.0 mm 0.00 in/hr0.0 mm/hr 0.00 in0.0 mm
02:19 PM 22.4°F-5.3°C 18.6°F-7.4°C 85% 29.0 mph NW46.7 kmh NW 34.0 mph54.7 kmh 29.85 in1010.8 mb 0.00 in0.0 mm 0.00 in/hr0.0 mm/hr 0.00 in0.0 mm
02:20 PM 22.4°F-5.3°C 18.6°F-7.4°C 85% 29.0 mph NW46.7 kmh NW 34.0 mph54.7 kmh 29.85 in1010.8 mb 0.00 in0.0 mm 0.00 in/hr0.0 mm/hr 0.00 in0.0 mm
02:21 PM 22.3°F-5.4°C 18.5°F-7.5°C 85% 27.0 mph NW43.5 kmh NW 34.0 mph54.7 kmh 29.85 in1010.8 mb 0.00 in0.0 mm 0.00 in/hr0.0 mm/hr 0.00 in0.0 mm
02:22 PM 22.2°F-5.4°C 18.4°F-7.6°C 85% 28.0 mph NW45.1 kmh NW 34.0 mph54.7 kmh 29.85 in1010.8 mb 0.00 in0.0 mm 0.00 in/hr0.0 mm/hr 0.00 in0.0 mm
02:23 PM 22.2°F-5.4°C 18.7°F-7.4°C 86% 30.0 mph NW48.3 kmh NW 35.0 mph56.3 kmh 29.85 in1010.8 mb 0.00 in0.0 mm 0.00 in/hr0.0 mm/hr 0.00 in0.0 mm
02:24 PM 22.1°F-5.5°C 18.6°F-7.4°C 86% 31.0 mph NW49.9 kmh NW 36.0 mph57.9 kmh 29.85 in1010.8 mb 0.00 in0.0 mm 0.00 in/hr0.0 mm/hr 0.00 in0.0 mm
02:25 PM 22.1°F-5.5°C 18.6°F-7.4°C 86% 31.0 mph NW49.9 kmh NW 36.0 mph57.9 kmh 29.85 in1010.8 mb 0.00 in0.0 mm 0.00 in/hr0.0 mm/hr 0.00 in0.0 mm
02:26 PM 22.1°F-5.5°C 18.6°F-7.4°C 86% 27.0 mph NW43.5 kmh NW 37.0 mph59.5 kmh 29.85 in1010.8 mb 0.00 in0.0 mm 0.00 in/hr0.0 mm/hr 0.00 in0.0 mm
02:27 PM 22.1°F-5.5°C 18.3°F-7.6°C 85% 27.0 mph NW43.5 kmh NW 37.0 mph59.5 kmh 29.85 in1010.8 mb 0.00 in0.0 mm 0.00 in/hr0.0 mm/hr 0.00 in0.0 mm
02:28 PM 22.0°F-5.6°C 18.2°F-7.7°C 85% 27.0 mph NW43.5 kmh NW 37.0 mph59.5 kmh 29.85 in1010.8 mb 0.00 in0.0 mm 0.00 in/hr0.0 mm/hr 0.00 in0.0 mm
02:29 PM 22.0°F-5.6°C 18.2°F-7.7°C 85% 31.0 mph NW49.9 kmh NW 37.0 mph59.5 kmh 29.86 in1011.2 mb 0.00 in0.0 mm 0.00 in/hr0.0 mm/hr 0.00 in0.0 mm
02:30 PM 21.9°F-5.6°C 17.8°F-7.9°C 84% 28.0 mph NW45.1 kmh NW 37.0 mph59.5 kmh 29.85 in1010.8 mb 0.00 in0.0 mm 0.00 in/hr0.0 mm/hr 0.00 in0.0 mm
02:31 PM 21.9°F-5.6°C 17.8°F-7.9°C 84% 21.0 mph NW33.8 kmh NW 37.0 mph59.5 kmh 29.85 in1010.8 mb 0.00 in0.0 mm 0.00 in/hr0.0 mm/hr 0.00 in0.0 mm
02:32 PM 21.9°F-5.6°C 17.8°F-7.9°C 84% 29.0 mph WNW46.7 kmh WNW 32.0 mph51.5 kmh 29.85 in1010.8 mb 0.00 in0.0 mm 0.00 in/hr0.0 mm/hr 0.00 in0.0 mm
02:33 PM 21.9°F-5.6°C 17.8°F-7.9°C 84% 32.0 mph NW51.5 kmh NW 34.0 mph54.7 kmh 29.85 in1010.8 mb 0.00 in0.0 mm 0.00 in/hr0.0 mm/hr 0.00 in0.0 mm
02:34 PM 21.9°F-5.6°C 17.8°F-7.9°C 84% 30.0 mph NW48.3 kmh NW 35.0 mph56.3 kmh 29.86 in1011.2 mb 0.00 in0.0 mm 0.00 in/hr0.0 mm/hr 0.00 in0.0 mm
02:35 PM 21.8°F-5.7°C 17.7°F-7.9°C 84% 30.0 mph NW48.3 kmh NW 35.0 mph56.3 kmh 29.86 in1011.2 mb 0.00 in0.0 mm 0.00 in/hr0.0 mm/hr 0.00 in0.0 mm
02:36 PM 21.8°F-5.7°C 17.7°F-7.9°C 84% 29.0 mph NW46.7 kmh NW 36.0 mph57.9 kmh 29.86 in1011.2 mb 0.00 in0.0 mm 0.00 in/hr0.0 mm/hr 0.00 in0.0 mm
02:37 PM 21.7°F-5.7°C 17.6°F-8.0°C 84% 33.0 mph NW53.1 kmh NW 36.0 mph57.9 kmh 29.86 in1011.2 mb 0.00 in0.0 mm 0.00 in/hr0.0 mm/hr 0.00 in0.0 mm
02:38 PM 21.6°F-5.8°C 17.5°F-8.1°C 84% 31.0 mph NW49.9 kmh NW 36.0 mph57.9 kmh 29.86 in1011.2 mb 0.00 in0.0 mm 0.00 in/hr0.0 mm/hr 0.00 in0.0 mm
02:39 PM 21.6°F-5.8°C 17.5°F-8.1°C 84% 29.0 mph WNW46.7 kmh WNW 36.0 mph57.9 kmh 29.86 in1011.2 mb 0.00 in0.0 mm 0.00 in/hr0.0 mm/hr 0.00 in0.0 mm
02:40 PM 21.6°F-5.8°C 17.5°F-8.1°C 84% 22.0 mph NW35.4 kmh NW 36.0 mph57.9 kmh 29.87 in1011.5 mb 0.00 in0.0 mm 0.00 in/hr0.0 mm/hr 0.00 in0.0 mm
02:41 PM 21.6°F-5.8°C 17.8°F-7.9°C 85% 22.0 mph NW35.4 kmh NW 36.0 mph57.9 kmh 29.87 in1011.5 mb 0.00 in0.0 mm 0.00 in/hr0.0 mm/hr 0.00 in0.0 mm
02:42 PM 21.7°F-5.7°C 17.9°F-7.8°C 85% 27.0 mph NW43.5 kmh NW 36.0 mph57.9 kmh 29.87 in1011.5 mb 0.00 in0.0 mm 0.00 in/hr0.0 mm/hr 0.00 in0.0 mm
02:43 PM 21.6°F-5.8°C 17.5°F-8.1°C 84% 28.0 mph NW45.1 kmh NW 36.0 mph57.9 kmh 29.87 in1011.5 mb 0.00 in0.0 mm 0.00 in/hr0.0 mm/hr 0.00 in0.0 mm
02:44 PM 21.5°F-5.8°C 17.4°F-8.1°C 84% 29.0 mph WNW46.7 kmh WNW 36.0 mph57.9 kmh 29.87 in1011.5 mb 0.00 in0.0 mm 0.00 in/hr0.0 mm/hr 0.00 in0.0 mm
02:45 PM 21.5°F-5.8°C 17.2°F-8.2°C 83% 26.0 mph NW41.8 kmh NW 36.0 mph57.9 kmh 29.87 in1011.5 mb 0.00 in0.0 mm 0.00 in/hr0.0 mm/hr 0.00 in0.0 mm
02:46 PM 21.4°F-5.9°C 17.1°F-8.3°C 83% 24.0 mph NW38.6 kmh NW 36.0 mph57.9 kmh 29.87 in1011.5 mb 0.00 in0.0 mm 0.00 in/hr0.0 mm/hr 0.00 in0.0 mm
02:47 PM 21.4°F-5.9°C 16.8°F-8.4°C 82% 31.0 mph NW49.9 kmh NW 36.0 mph57.9 kmh 29.87 in1011.5 mb 0.00 in0.0 mm 0.00 in/hr0.0 mm/hr 0.00 in0.0 mm
02:48 PM 21.5°F-5.8°C 17.4°F-8.1°C 84% 25.0 mph NW40.2 kmh NW 36.0 mph57.9 kmh 29.87 in1011.5 mb 0.00 in0.0 mm 0.00 in/hr0.0 mm/hr 0.00 in0.0 mm
02:49 PM 21.5°F-5.8°C 17.4°F-8.1°C 84% 36.0 mph NW57.9 kmh NW 37.0 mph59.5 kmh 29.87 in1011.5 mb 0.00 in0.0 mm 0.00 in/hr0.0 mm/hr 0.00 in0.0 mm
02:50 PM 21.4°F-5.9°C 17.1°F-8.3°C 83% 33.0 mph NW53.1 kmh NW 37.0 mph59.5 kmh 29.87 in1011.5 mb 0.00 in0.0 mm 0.00 in/hr0.0 mm/hr 0.00 in0.0 mm
02:51 PM 21.3°F-5.9°C 17.0°F-8.3°C 83% 29.0 mph NW46.7 kmh NW 37.0 mph59.5 kmh 29.87 in1011.5 mb 0.00 in0.0 mm 0.00 in/hr0.0 mm/hr 0.00 in0.0 mm
02:52 PM 21.2°F-6.0°C 16.9°F-8.4°C 83% 30.0 mph NW48.3 kmh NW 37.0 mph59.5 kmh 29.87 in1011.5 mb 0.00 in0.0 mm 0.00 in/hr0.0 mm/hr 0.00 in0.0 mm
02:53 PM 21.1°F-6.1°C 16.8°F-8.4°C 83% 31.0 mph WNW49.9 kmh WNW 37.0 mph59.5 kmh 29.87 in1011.5 mb 0.00 in0.0 mm 0.00 in/hr0.0 mm/hr 0.00 in0.0 mm
02:54 PM 21.1°F-6.1°C 16.5°F-8.6°C 82% 27.0 mph NW43.5 kmh NW 37.0 mph59.5 kmh 29.87 in1011.5 mb 0.00 in0.0 mm 0.00 in/hr0.0 mm/hr 0.00 in0.0 mm
02:55 PM 21.1°F-6.1°C 16.5°F-8.6°C 82% 31.0 mph NW49.9 kmh NW 37.0 mph59.5 kmh 29.87 in1011.5 mb 0.00 in0.0 mm 0.00 in/hr0.0 mm/hr 0.00 in0.0 mm
02:56 PM 21.2°F-6.0°C 16.6°F-8.6°C 82% 22.0 mph NW35.4 kmh NW 37.0 mph59.5 kmh 29.87 in1011.5 mb 0.00 in0.0 mm 0.00 in/hr0.0 mm/hr 0.00 in0.0 mm
02:57 PM 21.2°F-6.0°C 16.6°F-8.6°C 82% 28.0 mph NW45.1 kmh NW 37.0 mph59.5 kmh 29.87 in1011.5 mb 0.00 in0.0 mm 0.00 in/hr0.0 mm/hr 0.00 in0.0 mm
02:58 PM 21.3°F-5.9°C 16.7°F-8.5°C 82% 27.0 mph NW43.5 kmh NW 37.0 mph59.5 kmh 29.87 in1011.5 mb 0.00 in0.0 mm 0.00 in/hr0.0 mm/hr 0.00 in0.0 mm
02:59 PM 21.4°F-5.9°C 16.8°F-8.4°C 82% 27.0 mph WNW43.5 kmh WNW 37.0 mph59.5 kmh 29.87 in1011.5 mb 0.00 in0.0 mm 0.00 in/hr0.0 mm/hr 0.00 in0.0 mm
03:00 PM 21.5°F-5.8°C 17.2°F-8.2°C 83% 30.0 mph NW48.3 kmh NW 37.0 mph59.5 kmh 29.87 in1011.5 mb 0.00 in0.0 mm 0.00 in/hr0.0 mm/hr 0.00 in0.0 mm
03:01 PM 21.5°F-5.8°C 17.2°F-8.2°C 83% 28.0 mph NW45.1 kmh NW 37.0 mph59.5 kmh 29.87 in1011.5 mb 0.00 in0.0 mm 0.00 in/hr0.0 mm/hr 0.00 in0.0 mm
03:02 PM 21.4°F-5.9°C 16.8°F-8.4°C 82% 30.0 mph NW48.3 kmh NW 38.0 mph61.2 kmh 29.88 in1011.9 mb 0.00 in0.0 mm 0.00 in/hr0.0 mm/hr 0.00 in0.0 mm
03:03 PM 21.2°F-6.0°C 16.6°F-8.6°C 82% 35.0 mph NW56.3 kmh NW 38.0 mph61.2 kmh 29.88 in1011.9 mb 0.00 in0.0 mm 0.00 in/hr0.0 mm/hr 0.00 in0.0 mm
03:04 PM 21.0°F-6.1°C 16.1°F-8.8°C 81% 26.0 mph WNW41.8 kmh WNW 38.0 mph61.2 kmh 29.88 in1011.9 mb 0.00 in0.0 mm 0.00 in/hr0.0 mm/hr 0.00 in0.0 mm
03:05 PM 20.9°F-6.2°C 16.0°F-8.9°C 81% 24.0 mph NW38.6 kmh NW 38.0 mph61.2 kmh 29.88 in1011.9 mb 0.00 in0.0 mm 0.00 in/hr0.0 mm/hr 0.00 in0.0 mm
03:06 PM 20.8°F-6.2°C 16.5°F-8.6°C 83% 28.0 mph NW45.1 kmh NW 38.0 mph61.2 kmh 29.88 in1011.9 mb 0.00 in0.0 mm 0.00 in/hr0.0 mm/hr 0.00 in0.0 mm
03:07 PM 20.7°F-6.3°C 16.4°F-8.7°C 83% 25.0 mph NW40.2 kmh NW 38.0 mph61.2 kmh 29.88 in1011.9 mb 0.00 in0.0 mm 0.00 in/hr0.0 mm/hr 0.00 in0.0 mm
03:08 PM 20.8°F-6.2°C 16.7°F-8.5°C 84% 27.0 mph NW43.5 kmh NW 38.0 mph61.2 kmh 29.88 in1011.9 mb 0.00 in0.0 mm 0.00 in/hr0.0 mm/hr 0.00 in0.0 mm
03:09 PM 20.8°F-6.2°C 17.0°F-8.3°C 85% 29.0 mph NW46.7 kmh NW 38.0 mph61.2 kmh 29.88 in1011.9 mb 0.00 in0.0 mm 0.00 in/hr0.0 mm/hr 0.00 in0.0 mm
03:10 PM 20.8°F-6.2°C 17.0°F-8.3°C 85% 27.0 mph NW43.5 kmh NW 38.0 mph61.2 kmh 29.88 in1011.9 mb 0.00 in0.0 mm 0.00 in/hr0.0 mm/hr 0.00 in0.0 mm
03:11 PM 20.7°F-6.3°C 16.9°F-8.4°C 85% 27.0 mph NW43.5 kmh NW 38.0 mph61.2 kmh 29.88 in1011.9 mb 0.00 in0.0 mm 0.00 in/hr0.0 mm/hr 0.00 in0.0 mm
03:12 PM 20.6°F-6.3°C 16.5°F-8.6°C 84% 25.0 mph NW40.2 kmh NW 38.0 mph61.2 kmh 29.89 in1012.2 mb 0.00 in0.0 mm 0.00 in/hr0.0 mm/hr 0.00 in0.0 mm
03:13 PM 20.7°F-6.3°C 16.6°F-8.6°C 84% 22.0 mph NW35.4 kmh NW 38.0 mph61.2 kmh 29.89 in1012.2 mb 0.00 in0.0 mm 0.00 in/hr0.0 mm/hr 0.00 in0.0 mm
03:14 PM 20.7°F-6.3°C 16.4°F-8.7°C 83% 27.0 mph NW43.5 kmh NW 38.0 mph61.2 kmh 29.89 in1012.2 mb 0.00 in0.0 mm 0.00 in/hr0.0 mm/hr 0.00 in0.0 mm
03:15 PM 20.7°F-6.3°C 16.4°F-8.7°C 83% 27.0 mph WNW43.5 kmh WNW 38.0 mph61.2 kmh 29.89 in1012.2 mb 0.00 in0.0 mm 0.00 in/hr0.0 mm/hr 0.00 in0.0 mm
03:16 PM 20.7°F-6.3°C 16.1°F-8.8°C 82% 24.0 mph NW38.6 kmh NW 38.0 mph61.2 kmh 29.89 in1012.2 mb 0.00 in0.0 mm 0.00 in/hr0.0 mm/hr 0.00 in0.0 mm
03:17 PM 20.7°F-6.3°C 16.1°F-8.8°C 82% 28.0 mph NW45.1 kmh NW 38.0 mph61.2 kmh 29.89 in1012.2 mb 0.00 in0.0 mm 0.00 in/hr0.0 mm/hr 0.00 in0.0 mm
03:18 PM 20.7°F-6.3°C 15.8°F-9.0°C 81% 28.0 mph NW45.1 kmh NW 38.0 mph61.2 kmh 29.89 in1012.2 mb 0.00 in0.0 mm 0.00 in/hr0.0 mm/hr 0.00 in0.0 mm
03:19 PM 20.6°F-6.3°C 15.7°F-9.1°C 81% 23.0 mph NW37.0 kmh NW 38.0 mph61.2 kmh 29.89 in1012.2 mb 0.00 in0.0 mm 0.00 in/hr0.0 mm/hr 0.00 in0.0 mm
03:20 PM 20.6°F-6.3°C 15.7°F-9.1°C 81% 26.0 mph NW41.8 kmh NW 38.0 mph61.2 kmh 29.89 in1012.2 mb 0.00 in0.0 mm 0.00 in/hr0.0 mm/hr 0.00 in0.0 mm
03:21 PM 20.6°F-6.3°C 16.0°F-8.9°C 82% 28.0 mph NW45.1 kmh NW 38.0 mph61.2 kmh 29.89 in1012.2 mb 0.00 in0.0 mm 0.00 in/hr0.0 mm/hr 0.00 in0.0 mm
03:22 PM 20.6°F-6.3°C 16.0°F-8.9°C 82% 23.0 mph NW37.0 kmh NW 38.0 mph61.2 kmh 29.89 in1012.2 mb 0.00 in0.0 mm 0.00 in/hr0.0 mm/hr 0.00 in0.0 mm
03:23 PM 20.7°F-6.3°C 16.1°F-8.8°C 82% 23.0 mph NW37.0 kmh NW 38.0 mph61.2 kmh 29.89 in1012.2 mb 0.00 in0.0 mm 0.00 in/hr0.0 mm/hr 0.00 in0.0 mm
03:24 PM 20.7°F-6.3°C 16.1°F-8.8°C 82% 24.0 mph NW38.6 kmh NW 38.0 mph61.2 kmh 29.89 in1012.2 mb 0.00 in0.0 mm 0.00 in/hr0.0 mm/hr 0.00 in0.0 mm
03:25 PM 20.7°F-6.3°C 16.1°F-8.8°C 82% 23.0 mph NW37.0 kmh NW 38.0 mph61.2 kmh 29.89 in1012.2 mb 0.00 in0.0 mm 0.00 in/hr0.0 mm/hr 0.00 in0.0 mm
03:26 PM 20.7°F-6.3°C 16.1°F-8.8°C 82% 22.0 mph NW35.4 kmh NW 38.0 mph61.2 kmh 29.89 in1012.2 mb 0.00 in0.0 mm 0.00 in/hr0.0 mm/hr 0.00 in0.0 mm
03:27 PM 20.6°F-6.3°C 16.0°F-8.9°C 82% 24.0 mph WNW38.6 kmh WNW 38.0 mph61.2 kmh 29.89 in1012.2 mb 0.00 in0.0 mm 0.00 in/hr0.0 mm/hr 0.00 in0.0 mm
03:28 PM 20.6°F-6.3°C 15.7°F-9.1°C 81% 30.0 mph NW48.3 kmh NW 38.0 mph61.2 kmh 29.89 in1012.2 mb 0.00 in0.0 mm 0.00 in/hr0.0 mm/hr 0.00 in0.0 mm
03:29 PM 20.5°F-6.4°C 15.0°F-9.4°C 79% 29.0 mph WNW46.7 kmh WNW 38.0 mph61.2 kmh 29.89 in1012.2 mb 0.00 in0.0 mm 0.00 in/hr0.0 mm/hr 0.00 in0.0 mm
03:30 PM 20.4°F-6.4°C 14.7°F-9.6°C 78% 28.0 mph NW45.1 kmh NW 38.0 mph61.2 kmh 29.89 in1012.2 mb 0.00 in0.0 mm 0.00 in/hr0.0 mm/hr 0.00 in0.0 mm
03:31 PM 20.3°F-6.5°C 14.6°F-9.7°C 78% 24.0 mph WNW38.6 kmh WNW 38.0 mph61.2 kmh 29.89 in1012.2 mb 0.00 in0.0 mm 0.00 in/hr0.0 mm/hr 0.00 in0.0 mm
03:32 PM 20.2°F-6.6°C 14.5°F-9.7°C 78% 25.0 mph NW40.2 kmh NW 29.0 mph46.7 kmh 29.89 in1012.2 mb 0.00 in0.0 mm 0.00 in/hr0.0 mm/hr 0.00 in0.0 mm
03:33 PM 20.1°F-6.6°C 14.4°F-9.8°C 78% 23.0 mph NW37.0 kmh NW 29.0 mph46.7 kmh 29.89 in1012.2 mb 0.00 in0.0 mm 0.00 in/hr0.0 mm/hr 0.00 in0.0 mm
03:34 PM 20.0°F-6.7°C 14.3°F-9.8°C 78% 20.0 mph NW32.2 kmh NW 29.0 mph46.7 kmh 29.90 in1012.5 mb 0.00 in0.0 mm 0.00 in/hr0.0 mm/hr 0.00 in0.0 mm
03:35 PM 20.1°F-6.6°C 14.9°F-9.5°C 80% 20.0 mph NW32.2 kmh NW 29.0 mph46.7 kmh 29.90 in1012.5 mb 0.00 in0.0 mm 0.00 in/hr0.0 mm/hr 0.00 in0.0 mm
03:36 PM 20.1°F-6.6°C 15.2°F-9.3°C 81% 21.0 mph NW33.8 kmh NW 29.0 mph46.7 kmh 29.90 in1012.5 mb 0.00 in0.0 mm 0.00 in/hr0.0 mm/hr 0.00 in0.0 mm
03:37 PM 20.1°F-6.6°C 15.2°F-9.3°C 81% 25.0 mph NW40.2 kmh NW 29.0 mph46.7 kmh 29.90 in1012.5 mb 0.00 in0.0 mm 0.00 in/hr0.0 mm/hr 0.00 in0.0 mm
03:38 PM 20.1°F-6.6°C 15.2°F-9.3°C 81% 24.0 mph NW38.6 kmh NW 29.0 mph46.7 kmh 29.90 in1012.5 mb 0.00 in0.0 mm 0.00 in/hr0.0 mm/hr 0.00 in0.0 mm
03:39 PM 20.1°F-6.6°C 15.2°F-9.3°C 81% 22.0 mph NW35.4 kmh NW 29.0 mph46.7 kmh 29.90 in1012.5 mb 0.00 in0.0 mm 0.00 in/hr0.0 mm/hr 0.00 in0.0 mm
03:40 PM 20.2°F-6.6°C 15.3°F-9.3°C 81% 30.0 mph NW48.3 kmh NW 30.0 mph48.3 kmh 29.90 in1012.5 mb 0.00 in0.0 mm 0.00 in/hr0.0 mm/hr 0.00 in0.0 mm
03:41 PM 20.2°F-6.6°C 15.3°F-9.3°C 81% 24.0 mph NW38.6 kmh NW 30.0 mph48.3 kmh 29.90 in1012.5 mb 0.00 in0.0 mm 0.00 in/hr0.0 mm/hr 0.00 in0.0 mm
03:42 PM 20.2°F-6.6°C 15.6°F-9.1°C 82% 22.0 mph NW35.4 kmh NW 30.0 mph48.3 kmh 29.90 in1012.5 mb 0.00 in0.0 mm 0.00 in/hr0.0 mm/hr 0.00 in0.0 mm
03:43 PM 20.3°F-6.5°C 15.7°F-9.1°C 82% 21.0 mph NW33.8 kmh NW 30.0 mph48.3 kmh 29.90 in1012.5 mb 0.00 in0.0 mm 0.00 in/hr0.0 mm/hr 0.00 in0.0 mm
03:44 PM 20.3°F-6.5°C 16.0°F-8.9°C 83% 20.0 mph NW32.2 kmh NW 30.0 mph48.3 kmh 29.90 in1012.5 mb 0.00 in0.0 mm 0.00 in/hr0.0 mm/hr 0.00 in0.0 mm
03:45 PM 20.4°F-6.4°C 16.1°F-8.8°C 83% 18.0 mph NNW29.0 kmh NNW 30.0 mph48.3 kmh 29.90 in1012.5 mb 0.00 in0.0 mm 0.00 in/hr0.0 mm/hr 0.00 in0.0 mm
03:46 PM 20.5°F-6.4°C 16.4°F-8.7°C 84% 18.0 mph NW29.0 kmh NW 30.0 mph48.3 kmh 29.90 in1012.5 mb 0.00 in0.0 mm 0.00 in/hr0.0 mm/hr 0.00 in0.0 mm
03:47 PM 20.6°F-6.3°C 16.8°F-8.4°C 85% 17.0 mph NW27.4 kmh NW 30.0 mph48.3 kmh 29.90 in1012.5 mb 0.00 in0.0 mm 0.00 in/hr0.0 mm/hr 0.00 in0.0 mm
03:48 PM 20.7°F-6.3°C 16.9°F-8.4°C 85% 26.0 mph WNW41.8 kmh WNW 30.0 mph48.3 kmh 29.90 in1012.5 mb 0.00 in0.0 mm 0.00 in/hr0.0 mm/hr 0.00 in0.0 mm
03:49 PM 20.8°F-6.2°C 17.0°F-8.3°C 85% 25.0 mph NW40.2 kmh NW 30.0 mph48.3 kmh 29.90 in1012.5 mb 0.00 in0.0 mm 0.00 in/hr0.0 mm/hr 0.00 in0.0 mm
03:50 PM 20.7°F-6.3°C 16.9°F-8.4°C 85% 25.0 mph NW40.2 kmh NW 30.0 mph48.3 kmh 29.90 in1012.5 mb 0.00 in0.0 mm 0.00 in/hr0.0 mm/hr 0.00 in0.0 mm
03:51 PM 20.5°F-6.4°C 16.4°F-8.7°C 84% 25.0 mph WNW40.2 kmh WNW 30.0 mph48.3 kmh 29.90 in1012.5 mb 0.00 in0.0 mm 0.00 in/hr0.0 mm/hr 0.00 in0.0 mm
03:52 PM 20.3°F-6.5°C 16.0°F-8.9°C 83% 27.0 mph WNW43.5 kmh WNW 30.0 mph48.3 kmh 29.90 in1012.5 mb 0.00 in0.0 mm 0.00 in/hr0.0 mm/hr 0.00 in0.0 mm
03:53 PM 20.1°F-6.6°C 15.8°F-9.0°C 83% 29.0 mph NW46.7 kmh NW 31.0 mph49.9 kmh 29.90 in1012.5 mb 0.00 in0.0 mm 0.00 in/hr0.0 mm/hr 0.00 in0.0 mm
03:54 PM 19.8°F-6.8°C 15.5°F-9.2°C 83% 24.0 mph WNW38.6 kmh WNW 31.0 mph49.9 kmh 29.90 in1012.5 mb 0.00 in0.0 mm 0.00 in/hr0.0 mm/hr 0.00 in0.0 mm
03:55 PM 19.6°F-6.9°C 15.3°F-9.3°C 83% 28.0 mph NW45.1 kmh NW 31.0 mph49.9 kmh 29.90 in1012.5 mb 0.00 in0.0 mm 0.00 in/hr0.0 mm/hr 0.00 in0.0 mm
03:56 PM 19.4°F-7.0°C 15.1°F-9.4°C 83% 27.0 mph WNW43.5 kmh WNW 31.0 mph49.9 kmh 29.90 in1012.5 mb 0.00 in0.0 mm 0.00 in/hr0.0 mm/hr 0.00 in0.0 mm
03:57 PM 19.4°F-7.0°C 15.4°F-9.2°C 84% 23.0 mph NW37.0 kmh NW 31.0 mph49.9 kmh 29.90 in1012.5 mb 0.00 in0.0 mm 0.00 in/hr0.0 mm/hr 0.00 in0.0 mm
03:58 PM 19.3°F-7.1°C 15.3°F-9.3°C 84% 23.0 mph WNW37.0 kmh WNW 31.0 mph49.9 kmh 29.90 in1012.5 mb 0.00 in0.0 mm 0.00 in/hr0.0 mm/hr 0.00 in0.0 mm
03:59 PM 19.2°F-7.1°C 15.4°F-9.2°C 85% 28.0 mph WNW45.1 kmh WNW 31.0 mph49.9 kmh 29.90 in1012.5 mb 0.00 in0.0 mm 0.00 in/hr0.0 mm/hr 0.00 in0.0 mm
04:00 PM 19.1°F-7.2°C 15.3°F-9.3°C 85% 28.0 mph WNW45.1 kmh WNW 31.0 mph49.9 kmh 29.90 in1012.5 mb 0.00 in0.0 mm 0.00 in/hr0.0 mm/hr 0.00 in0.0 mm
04:01 PM 19.1°F-7.2°C 15.6°F-9.1°C 86% 25.0 mph NW40.2 kmh NW 32.0 mph51.5 kmh 29.90 in1012.5 mb 0.00 in0.0 mm 0.00 in/hr0.0 mm/hr 0.00 in0.0 mm
04:02 PM 19.2°F-7.1°C 15.7°F-9.1°C 86% 25.0 mph WNW40.2 kmh WNW 28.0 mph45.1 kmh 29.90 in1012.5 mb 0.00 in0.0 mm 0.00 in/hr0.0 mm/hr 0.00 in0.0 mm
04:03 PM 19.2°F-7.1°C 15.7°F-9.1°C 86% 27.0 mph NW43.5 kmh NW 30.0 mph48.3 kmh 29.90 in1012.5 mb 0.00 in0.0 mm 0.00 in/hr0.0 mm/hr 0.00 in0.0 mm
04:04 PM 19.3°F-7.1°C 15.8°F-9.0°C 86% 26.0 mph WNW41.8 kmh WNW 31.0 mph49.9 kmh 29.90 in1012.5 mb 0.00 in0.0 mm 0.00 in/hr0.0 mm/hr 0.00 in0.0 mm
04:05 PM 19.3°F-7.1°C 15.8°F-9.0°C 86% 20.0 mph WNW32.2 kmh WNW 31.0 mph49.9 kmh 29.90 in1012.5 mb 0.00 in0.0 mm 0.00 in/hr0.0 mm/hr 0.00 in0.0 mm
04:06 PM 19.3°F-7.1°C 15.8°F-9.0°C 86% 26.0 mph WNW41.8 kmh WNW 31.0 mph49.9 kmh 29.90 in1012.5 mb 0.00 in0.0 mm 0.00 in/hr0.0 mm/hr 0.00 in0.0 mm
04:07 PM 19.2°F-7.1°C 15.7°F-9.1°C 86% 35.0 mph WNW56.3 kmh WNW 35.0 mph56.3 kmh 29.90 in1012.5 mb 0.00 in0.0 mm 0.00 in/hr0.0 mm/hr 0.00 in0.0 mm
04:08 PM 19.1°F-7.2°C 15.3°F-9.3°C 85% 32.0 mph NW51.5 kmh NW 35.0 mph56.3 kmh 29.91 in1012.9 mb 0.00 in0.0 mm 0.00 in/hr0.0 mm/hr 0.00 in0.0 mm
04:09 PM 18.9°F-7.3°C 15.2°F-9.3°C 85% 29.0 mph NW46.7 kmh NW 35.0 mph56.3 kmh 29.90 in1012.5 mb 0.00 in0.0 mm 0.00 in/hr0.0 mm/hr 0.00 in0.0 mm
04:10 PM 18.8°F-7.3°C 14.8°F-9.6°C 84% 34.0 mph WNW54.7 kmh WNW 35.0 mph56.3 kmh 29.90 in1012.5 mb 0.00 in0.0 mm 0.00 in/hr0.0 mm/hr 0.00 in0.0 mm
04:11 PM 18.7°F-7.4°C 14.7°F-9.6°C 84% 29.0 mph NW46.7 kmh NW 35.0 mph56.3 kmh 29.91 in1012.9 mb 0.00 in0.0 mm 0.00 in/hr0.0 mm/hr 0.00 in0.0 mm
04:12 PM 18.6°F-7.4°C 14.6°F-9.7°C 84% 27.0 mph NW43.5 kmh NW 35.0 mph56.3 kmh 29.91 in1012.9 mb 0.00 in0.0 mm 0.00 in/hr0.0 mm/hr 0.00 in0.0 mm
04:13 PM 18.6°F-7.4°C 14.6°F-9.7°C 84% 28.0 mph WNW45.1 kmh WNW 35.0 mph56.3 kmh 29.91 in1012.9 mb 0.00 in0.0 mm 0.00 in/hr0.0 mm/hr 0.00 in0.0 mm
04:14 PM 18.4°F-7.6°C 14.4°F-9.8°C 84% 26.0 mph WNW41.8 kmh WNW 35.0 mph56.3 kmh 29.91 in1012.9 mb 0.00 in0.0 mm 0.00 in/hr0.0 mm/hr 0.00 in0.0 mm
04:15 PM 18.3°F-7.6°C 14.0°F-10.0°C 83% 20.0 mph WNW32.2 kmh WNW 35.0 mph56.3 kmh 29.91 in1012.9 mb 0.00 in0.0 mm 0.00 in/hr0.0 mm/hr 0.00 in0.0 mm
04:16 PM 18.2°F-7.7°C 14.2°F-9.9°C 84% 26.0 mph NW41.8 kmh NW 35.0 mph56.3 kmh 29.92 in1013.2 mb 0.00 in0.0 mm 0.00 in/hr0.0 mm/hr 0.00 in0.0 mm
04:17 PM 18.2°F-7.7°C 14.2°F-9.9°C 84% 18.0 mph NW29.0 kmh NW 35.0 mph56.3 kmh 29.92 in1013.2 mb 0.00 in0.0 mm 0.00 in/hr0.0 mm/hr 0.00 in0.0 mm
04:18 PM 18.2°F-7.7°C 14.2°F-9.9°C 84% 20.0 mph NW32.2 kmh NW 35.0 mph56.3 kmh 29.92 in1013.2 mb 0.00 in0.0 mm 0.00 in/hr0.0 mm/hr 0.00 in0.0 mm
04:19 PM 18.2°F-7.7°C 14.2°F-9.9°C 84% 20.0 mph NW32.2 kmh NW 35.0 mph56.3 kmh 29.93 in1013.5 mb 0.00 in0.0 mm 0.00 in/hr0.0 mm/hr 0.00 in0.0 mm
04:20 PM 18.2°F-7.7°C 13.9°F-10.1°C 83% 23.0 mph NW37.0 kmh NW 35.0 mph56.3 kmh 29.93 in1013.5 mb 0.00 in0.0 mm 0.00 in/hr0.0 mm/hr 0.00 in0.0 mm
04:21 PM 18.1°F-7.7°C 13.8°F-10.1°C 83% 20.0 mph NW32.2 kmh NW 35.0 mph56.3 kmh 29.93 in1013.5 mb 0.00 in0.0 mm 0.00 in/hr0.0 mm/hr 0.00 in0.0 mm
04:22 PM 18.1°F-7.7°C 13.8°F-10.1°C 83% 17.0 mph NW27.4 kmh NW 35.0 mph56.3 kmh 29.93 in1013.5 mb 0.00 in0.0 mm 0.00 in/hr0.0 mm/hr 0.00 in0.0 mm
04:23 PM 18.1°F-7.7°C 14.1°F-9.9°C 84% 23.0 mph NW37.0 kmh NW 35.0 mph56.3 kmh 29.93 in1013.5 mb 0.00 in0.0 mm 0.00 in/hr0.0 mm/hr 0.00 in0.0 mm
04:24 PM 18.2°F-7.7°C 14.2°F-9.9°C 84% 17.0 mph NW27.4 kmh NW 35.0 mph56.3 kmh 29.93 in1013.5 mb 0.00 in0.0 mm 0.00 in/hr0.0 mm/hr 0.00 in0.0 mm
04:25 PM 18.2°F-7.7°C 14.5°F-9.7°C 85% 25.0 mph NW40.2 kmh NW 35.0 mph56.3 kmh 29.93 in1013.5 mb 0.00 in0.0 mm 0.00 in/hr0.0 mm/hr 0.00 in0.0 mm
04:26 PM 18.1°F-7.7°C 14.4°F-9.8°C 85% 25.0 mph NW40.2 kmh NW 35.0 mph56.3 kmh 29.93 in1013.5 mb 0.00 in0.0 mm 0.00 in/hr0.0 mm/hr 0.00 in0.0 mm
04:27 PM 18.0°F-7.8°C 14.0°F-10.0°C 84% 19.0 mph NW30.6 kmh NW 35.0 mph56.3 kmh 29.93 in1013.5 mb 0.00 in0.0 mm 0.00 in/hr0.0 mm/hr 0.00 in0.0 mm
04:28 PM 18.0°F-7.8°C 14.3°F-9.8°C 85% 24.0 mph WNW38.6 kmh WNW 35.0 mph56.3 kmh 29.93 in1013.5 mb 0.00 in0.0 mm 0.00 in/hr0.0 mm/hr 0.00 in0.0 mm
04:29 PM 18.0°F-7.8°C 14.3°F-9.8°C 85% 28.0 mph NW45.1 kmh NW 35.0 mph56.3 kmh 29.93 in1013.5 mb 0.00 in0.0 mm 0.00 in/hr0.0 mm/hr 0.00 in0.0 mm
04:30 PM 18.0°F-7.8°C 14.3°F-9.8°C 85% 26.0 mph WNW41.8 kmh WNW 35.0 mph56.3 kmh 29.93 in1013.5 mb 0.00 in0.0 mm 0.00 in/hr0.0 mm/hr 0.00 in0.0 mm
04:31 PM 18.0°F-7.8°C 14.3°F-9.8°C 85% 33.0 mph WNW53.1 kmh WNW 35.0 mph56.3 kmh 29.93 in1013.5 mb 0.00 in0.0 mm 0.00 in/hr0.0 mm/hr 0.00 in0.0 mm
04:32 PM 18.0°F-7.8°C 14.3°F-9.8°C 85% 28.0 mph WNW45.1 kmh WNW 30.0 mph48.3 kmh 29.93 in1013.5 mb 0.00 in0.0 mm 0.00 in/hr0.0 mm/hr 0.00 in0.0 mm
04:33 PM 18.0°F-7.8°C 14.3°F-9.8°C 85% 27.0 mph WNW43.5 kmh WNW 31.0 mph49.9 kmh 29.93 in1013.5 mb 0.00 in0.0 mm 0.00 in/hr0.0 mm/hr 0.00 in0.0 mm
04:34 PM 18.0°F-7.8°C 14.0°F-10.0°C 84% 23.0 mph WNW37.0 kmh WNW 31.0 mph49.9 kmh 29.93 in1013.5 mb 0.00 in0.0 mm 0.00 in/hr0.0 mm/hr 0.00 in0.0 mm
04:35 PM 18.0°F-7.8°C 14.0°F-10.0°C 84% 25.0 mph NW40.2 kmh NW 31.0 mph49.9 kmh 29.93 in1013.5 mb 0.00 in0.0 mm 0.00 in/hr0.0 mm/hr 0.00 in0.0 mm
04:36 PM 17.9°F-7.8°C 13.6°F-10.2°C 83% 25.0 mph NW40.2 kmh NW 32.0 mph51.5 kmh 29.93 in1013.5 mb 0.00 in0.0 mm 0.00 in/hr0.0 mm/hr 0.00 in0.0 mm
04:37 PM 17.8°F-7.9°C 13.5°F-10.3°C 83% 28.0 mph NW45.1 kmh NW 32.0 mph51.5 kmh 29.93 in1013.5 mb 0.00 in0.0 mm 0.00 in/hr0.0 mm/hr 0.00 in0.0 mm
04:38 PM 17.8°F-7.9°C 13.3°F-10.4°C 82% 25.0 mph WNW40.2 kmh WNW 32.0 mph51.5 kmh 29.93 in1013.5 mb 0.00 in0.0 mm 0.00 in/hr0.0 mm/hr 0.00 in0.0 mm
04:39 PM 17.7°F-7.9°C 13.2°F-10.4°C 82% 23.0 mph NW37.0 kmh NW 32.0 mph51.5 kmh 29.94 in1013.9 mb 0.00 in0.0 mm 0.00 in/hr0.0 mm/hr 0.00 in0.0 mm
04:40 PM 17.8°F-7.9°C 13.3°F-10.4°C 82% 16.0 mph WNW25.7 kmh WNW 32.0 mph51.5 kmh 29.94 in1013.9 mb 0.00 in0.0 mm 0.00 in/hr0.0 mm/hr 0.00 in0.0 mm
04:41 PM 17.9°F-7.8°C 13.6°F-10.2°C 83% 17.0 mph NW27.4 kmh NW 32.0 mph51.5 kmh 29.94 in1013.9 mb 0.00 in0.0 mm 0.00 in/hr0.0 mm/hr 0.00 in0.0 mm
04:42 PM 17.9°F-7.8°C 13.6°F-10.2°C 83% 18.0 mph WNW29.0 kmh WNW 32.0 mph51.5 kmh 29.94 in1013.9 mb 0.00 in0.0 mm 0.00 in/hr0.0 mm/hr 0.00 in0.0 mm
04:43 PM 18.0°F-7.8°C 13.7°F-10.2°C 83% 17.0 mph WNW27.4 kmh WNW 32.0 mph51.5 kmh 29.94 in1013.9 mb 0.00 in0.0 mm 0.00 in/hr0.0 mm/hr 0.00 in0.0 mm
04:44 PM 18.1°F-7.7°C 14.1°F-9.9°C 84% 16.0 mph W25.7 kmh W 32.0 mph51.5 kmh 29.94 in1013.9 mb 0.00 in0.0 mm 0.00 in/hr0.0 mm/hr 0.00 in0.0 mm
04:45 PM 18.1°F-7.7°C 13.8°F-10.1°C 83% 22.0 mph NW35.4 kmh NW 32.0 mph51.5 kmh 29.95 in1014.2 mb 0.00 in0.0 mm 0.00 in/hr0.0 mm/hr 0.00 in0.0 mm
04:46 PM 18.1°F-7.7°C 13.8°F-10.1°C 83% 19.0 mph W30.6 kmh W 32.0 mph51.5 kmh 29.95 in1014.2 mb 0.00 in0.0 mm 0.00 in/hr0.0 mm/hr 0.00 in0.0 mm
04:47 PM 18.0°F-7.8°C 13.7°F-10.2°C 83% 22.0 mph WNW35.4 kmh WNW 32.0 mph51.5 kmh 29.95 in1014.2 mb 0.00 in0.0 mm 0.00 in/hr0.0 mm/hr 0.00 in0.0 mm
04:48 PM 18.0°F-7.8°C 13.4°F-10.3°C 82% 26.0 mph NW41.8 kmh NW 32.0 mph51.5 kmh 29.95 in1014.2 mb 0.00 in0.0 mm 0.00 in/hr0.0 mm/hr 0.00 in0.0 mm
04:49 PM 17.9°F-7.8°C 13.1°F-10.5°C 81% 28.0 mph NW45.1 kmh NW 32.0 mph51.5 kmh 29.95 in1014.2 mb 0.00 in0.0 mm 0.00 in/hr0.0 mm/hr 0.00 in0.0 mm
04:50 PM 17.7°F-7.9°C 12.9°F-10.6°C 81% 25.0 mph NW40.2 kmh NW 32.0 mph51.5 kmh 29.95 in1014.2 mb 0.00 in0.0 mm 0.00 in/hr0.0 mm/hr 0.00 in0.0 mm
04:51 PM 17.5°F-8.1°C 12.1°F-11.1°C 79% 20.0 mph NW32.2 kmh NW 32.0 mph51.5 kmh 29.95 in1014.2 mb 0.00 in0.0 mm 0.00 in/hr0.0 mm/hr 0.00 in0.0 mm
04:52 PM 17.3°F-8.2°C 11.9°F-11.2°C 79% 30.0 mph WNW48.3 kmh WNW 32.0 mph51.5 kmh 29.95 in1014.2 mb 0.00 in0.0 mm 0.00 in/hr0.0 mm/hr 0.00 in0.0 mm
04:53 PM 17.2°F-8.2°C 11.8°F-11.2°C 79% 23.0 mph NW37.0 kmh NW 32.0 mph51.5 kmh 29.95 in1014.2 mb 0.00 in0.0 mm 0.00 in/hr0.0 mm/hr 0.00 in0.0 mm
04:54 PM 17.1°F-8.3°C 11.7°F-11.3°C 79% 24.0 mph NW38.6 kmh NW 32.0 mph51.5 kmh 29.95 in1014.2 mb 0.00 in0.0 mm 0.00 in/hr0.0 mm/hr 0.00 in0.0 mm
04:55 PM 17.0°F-8.3°C 11.6°F-11.3°C 79% 24.0 mph NW38.6 kmh NW 32.0 mph51.5 kmh 29.95 in1014.2 mb 0.00 in0.0 mm 0.00 in/hr0.0 mm/hr 0.00 in0.0 mm
04:56 PM 17.0°F-8.3°C 11.6°F-11.3°C 79% 31.0 mph NW49.9 kmh NW 32.0 mph51.5 kmh 29.96 in1014.6 mb 0.00 in0.0 mm 0.00 in/hr0.0 mm/hr 0.00 in0.0 mm
04:57 PM 16.9°F-8.4°C 11.2°F-11.6°C 78% 18.0 mph NW29.0 kmh NW 32.0 mph51.5 kmh 29.96 in1014.6 mb 0.00 in0.0 mm 0.00 in/hr0.0 mm/hr 0.00 in0.0 mm
04:58 PM 16.8°F-8.4°C 11.4°F-11.4°C 79% 18.0 mph NW29.0 kmh NW 32.0 mph51.5 kmh 29.96 in1014.6 mb 0.00 in0.0 mm 0.00 in/hr0.0 mm/hr 0.00 in0.0 mm
04:59 PM 16.8°F-8.4°C 11.4°F-11.4°C 79% 23.0 mph NW37.0 kmh NW 32.0 mph51.5 kmh 29.96 in1014.6 mb 0.00 in0.0 mm 0.00 in/hr0.0 mm/hr 0.00 in0.0 mm
05:00 PM 16.7°F-8.5°C 11.3°F-11.5°C 79% 19.0 mph WNW30.6 kmh WNW 32.0 mph51.5 kmh 29.97 in1014.9 mb 0.00 in0.0 mm 0.00 in/hr0.0 mm/hr 0.00 in0.0 mm
05:01 PM 16.6°F-8.6°C 11.2°F-11.6°C 79% 24.0 mph WNW38.6 kmh WNW 32.0 mph51.5 kmh 29.97 in1014.9 mb 0.00 in0.0 mm 0.00 in/hr0.0 mm/hr 0.00 in0.0 mm
05:02 PM 16.6°F-8.6°C 11.2°F-11.6°C 79% 19.0 mph WNW30.6 kmh WNW 21.0 mph33.8 kmh 29.97 in1014.9 mb 0.00 in0.0 mm 0.00 in/hr0.0 mm/hr 0.00 in0.0 mm
05:03 PM 16.6°F-8.6°C 11.5°F-11.4°C 80% 20.0 mph WNW32.2 kmh WNW 21.0 mph33.8 kmh 29.97 in1014.9 mb 0.00 in0.0 mm 0.00 in/hr0.0 mm/hr 0.00 in0.0 mm
05:04 PM 16.7°F-8.5°C 11.9°F-11.2°C 81% 22.0 mph WNW35.4 kmh WNW 29.0 mph46.7 kmh 29.97 in1014.9 mb 0.00 in0.0 mm 0.00 in/hr0.0 mm/hr 0.00 in0.0 mm
05:05 PM 16.7°F-8.5°C 11.9°F-11.2°C 81% 24.0 mph NW38.6 kmh NW 29.0 mph46.7 kmh 29.97 in1014.9 mb 0.00 in0.0 mm 0.00 in/hr0.0 mm/hr 0.00 in0.0 mm
05:06 PM 16.7°F-8.5°C 11.9°F-11.2°C 81% 27.0 mph WNW43.5 kmh WNW 29.0 mph46.7 kmh 29.97 in1014.9 mb 0.00 in0.0 mm 0.00 in/hr0.0 mm/hr 0.00 in0.0 mm
05:07 PM 16.6°F-8.6°C 11.8°F-11.2°C 81% 19.0 mph NW30.6 kmh NW 29.0 mph46.7 kmh 29.97 in1014.9 mb 0.00 in0.0 mm 0.00 in/hr0.0 mm/hr 0.00 in0.0 mm
05:08 PM 16.6°F-8.6°C 11.5°F-11.4°C 80% 30.0 mph WNW48.3 kmh WNW 30.0 mph48.3 kmh 29.97 in1014.9 mb 0.00 in0.0 mm 0.00 in/hr0.0 mm/hr 0.00 in0.0 mm
05:09 PM 16.5°F-8.6°C 11.1°F-11.6°C 79% 20.0 mph WNW32.2 kmh WNW 30.0 mph48.3 kmh 29.97 in1014.9 mb 0.00 in0.0 mm 0.00 in/hr0.0 mm/hr 0.00 in0.0 mm
05:10 PM 16.3°F-8.7°C 10.9°F-11.7°C 79% 24.0 mph NW38.6 kmh NW 30.0 mph48.3 kmh 29.97 in1014.9 mb 0.00 in0.0 mm 0.00 in/hr0.0 mm/hr 0.00 in0.0 mm
05:11 PM 16.3°F-8.7°C 10.9°F-11.7°C 79% 21.0 mph WNW33.8 kmh WNW 30.0 mph48.3 kmh 29.98 in1015.2 mb 0.00 in0.0 mm 0.00 in/hr0.0 mm/hr 0.00 in0.0 mm
05:12 PM 16.1°F-8.8°C 10.8°F-11.8°C 79% 20.0 mph NW32.2 kmh NW 30.0 mph48.3 kmh 29.98 in1015.2 mb 0.00 in0.0 mm 0.00 in/hr0.0 mm/hr 0.00 in0.0 mm
05:13 PM 16.1°F-8.8°C 10.8°F-11.8°C 79% 19.0 mph NW30.6 kmh NW 30.0 mph48.3 kmh 29.98 in1015.2 mb 0.00 in0.0 mm 0.00 in/hr0.0 mm/hr 0.00 in0.0 mm
05:14 PM 16.0°F-8.9°C 10.9°F-11.7°C 80% 25.0 mph WNW40.2 kmh WNW 30.0 mph48.3 kmh 29.98 in1015.2 mb 0.00 in0.0 mm 0.00 in/hr0.0 mm/hr 0.00 in0.0 mm
05:15 PM 15.9°F-8.9°C 11.1°F-11.6°C 81% 21.0 mph WNW33.8 kmh WNW 31.0 mph49.9 kmh 29.98 in1015.2 mb 0.00 in0.0 mm 0.00 in/hr0.0 mm/hr 0.00 in0.0 mm
05:16 PM 15.8°F-9.0°C 11.0°F-11.7°C 81% 22.0 mph WNW35.4 kmh WNW 31.0 mph49.9 kmh 29.98 in1015.2 mb 0.00 in0.0 mm 0.00 in/hr0.0 mm/hr 0.00 in0.0 mm
05:17 PM 15.8°F-9.0°C 11.0°F-11.7°C 81% 28.0 mph WNW45.1 kmh WNW 31.0 mph49.9 kmh 29.98 in1015.2 mb 0.00 in0.0 mm 0.00 in/hr0.0 mm/hr 0.00 in0.0 mm
05:18 PM 15.8°F-9.0°C 11.3°F-11.5°C 82% 23.0 mph WNW37.0 kmh WNW 31.0 mph49.9 kmh 29.98 in1015.2 mb 0.00 in0.0 mm 0.00 in/hr0.0 mm/hr 0.00 in0.0 mm
05:19 PM 15.8°F-9.0°C 11.3°F-11.5°C 82% 22.0 mph W35.4 kmh W 31.0 mph49.9 kmh 29.98 in1015.2 mb 0.00 in0.0 mm 0.00 in/hr0.0 mm/hr 0.00 in0.0 mm
05:20 PM 15.9°F-8.9°C 11.4°F-11.4°C 82% 20.0 mph NW32.2 kmh NW 31.0 mph49.9 kmh 29.98 in1015.2 mb 0.00 in0.0 mm 0.00 in/hr0.0 mm/hr 0.00 in0.0 mm
05:21 PM 15.9°F-8.9°C 11.1°F-11.6°C 81% 24.0 mph WNW38.6 kmh WNW 31.0 mph49.9 kmh 29.99 in1015.6 mb 0.00 in0.0 mm 0.00 in/hr0.0 mm/hr 0.00 in0.0 mm
05:22 PM 15.9°F-8.9°C 11.1°F-11.6°C 81% 22.0 mph NW35.4 kmh NW 31.0 mph49.9 kmh 29.99 in1015.6 mb 0.00 in0.0 mm 0.00 in/hr0.0 mm/hr 0.00 in0.0 mm
05:23 PM 15.9°F-8.9°C 11.1°F-11.6°C 81% 17.0 mph WNW27.4 kmh WNW 31.0 mph49.9 kmh 29.99 in1015.6 mb 0.00 in0.0 mm 0.00 in/hr0.0 mm/hr 0.00 in0.0 mm
05:24 PM 15.9°F-8.9°C 11.1°F-11.6°C 81% 23.0 mph WNW37.0 kmh WNW 31.0 mph49.9 kmh 29.99 in1015.6 mb 0.00 in0.0 mm 0.00 in/hr0.0 mm/hr 0.00 in0.0 mm
05:25 PM 15.9°F-8.9°C 11.1°F-11.6°C 81% 19.0 mph WNW30.6 kmh WNW 31.0 mph49.9 kmh 29.99 in1015.6 mb 0.00 in0.0 mm 0.00 in/hr0.0 mm/hr 0.00 in0.0 mm
05:26 PM 15.9°F-8.9°C 10.8°F-11.8°C 80% 24.0 mph WNW38.6 kmh WNW 31.0 mph49.9 kmh 29.99 in1015.6 mb 0.00 in0.0 mm 0.00 in/hr0.0 mm/hr 0.00 in0.0 mm
05:27 PM 15.9°F-8.9°C 10.6°F-11.9°C 79% 17.0 mph WNW27.4 kmh WNW 31.0 mph49.9 kmh 29.99 in1015.6 mb 0.00 in0.0 mm 0.00 in/hr0.0 mm/hr 0.00 in0.0 mm
05:28 PM 15.9°F-8.9°C 10.6°F-11.9°C 79% 26.0 mph NW41.8 kmh NW 31.0 mph49.9 kmh 29.99 in1015.6 mb 0.00 in0.0 mm 0.00 in/hr0.0 mm/hr 0.00 in0.0 mm
05:29 PM 15.9°F-8.9°C 10.6°F-11.9°C 79% 24.0 mph WNW38.6 kmh WNW 31.0 mph49.9 kmh 29.99 in1015.6 mb 0.00 in0.0 mm 0.00 in/hr0.0 mm/hr 0.00 in0.0 mm
05:30 PM 15.9°F-8.9°C 10.6°F-11.9°C 79% 22.0 mph NW35.4 kmh NW 31.0 mph49.9 kmh 29.99 in1015.6 mb 0.00 in0.0 mm 0.00 in/hr0.0 mm/hr 0.00 in0.0 mm
05:31 PM 15.9°F-8.9°C 10.6°F-11.9°C 79% 17.0 mph WNW27.4 kmh WNW 31.0 mph49.9 kmh 29.99 in1015.6 mb 0.00 in0.0 mm 0.00 in/hr0.0 mm/hr 0.00 in0.0 mm
05:32 PM 15.9°F-8.9°C 10.6°F-11.9°C 79% 16.0 mph WNW25.7 kmh WNW 19.0 mph30.6 kmh 29.99 in1015.6 mb 0.00 in0.0 mm 0.00 in/hr0.0 mm/hr 0.00 in0.0 mm
05:33 PM 15.9°F-8.9°C 10.6°F-11.9°C 79% 14.0 mph WNW22.5 kmh WNW 23.0 mph37.0 kmh 29.99 in1015.6 mb 0.00 in0.0 mm 0.00 in/hr0.0 mm/hr 0.00 in0.0 mm
05:34 PM 15.8°F-9.0°C 10.5°F-11.9°C 79% 19.0 mph NW30.6 kmh NW 23.0 mph37.0 kmh 29.99 in1015.6 mb 0.00 in0.0 mm 0.00 in/hr0.0 mm/hr 0.00 in0.0 mm
05:35 PM 15.8°F-9.0°C 10.5°F-11.9°C 79% 21.0 mph NW33.8 kmh NW 23.0 mph37.0 kmh 29.99 in1015.6 mb 0.00 in0.0 mm 0.00 in/hr0.0 mm/hr 0.00 in0.0 mm
05:36 PM 15.8°F-9.0°C 10.5°F-11.9°C 79% 21.0 mph WNW33.8 kmh WNW 23.0 mph37.0 kmh 29.99 in1015.6 mb 0.00 in0.0 mm 0.00 in/hr0.0 mm/hr 0.00 in0.0 mm
05:37 PM 15.8°F-9.0°C 10.7°F-11.8°C 80% 18.0 mph NW29.0 kmh NW 23.0 mph37.0 kmh 29.99 in1015.6 mb 0.00 in0.0 mm 0.00 in/hr0.0 mm/hr 0.00 in0.0 mm
05:38 PM 15.7°F-9.1°C 10.6°F-11.9°C 80% 26.0 mph WNW41.8 kmh WNW 26.0 mph41.8 kmh 29.99 in1015.6 mb 0.00 in0.0 mm 0.00 in/hr0.0 mm/hr 0.00 in0.0 mm
05:39 PM 15.7°F-9.1°C 10.6°F-11.9°C 80% 17.0 mph WNW27.4 kmh WNW 27.0 mph43.5 kmh 29.99 in1015.6 mb 0.00 in0.0 mm 0.00 in/hr0.0 mm/hr 0.00 in0.0 mm
05:40 PM 15.7°F-9.1°C 10.4°F-12.0°C 79% 15.0 mph NW24.1 kmh NW 27.0 mph43.5 kmh 29.99 in1015.6 mb 0.00 in0.0 mm 0.00 in/hr0.0 mm/hr 0.00 in0.0 mm
05:41 PM 15.7°F-9.1°C 10.6°F-11.9°C 80% 17.0 mph WNW27.4 kmh WNW 27.0 mph43.5 kmh 29.99 in1015.6 mb 0.00 in0.0 mm 0.00 in/hr0.0 mm/hr 0.00 in0.0 mm
05:42 PM 15.6°F-9.1°C 10.5°F-11.9°C 80% 20.0 mph WNW32.2 kmh WNW 27.0 mph43.5 kmh 29.99 in1015.6 mb 0.00 in0.0 mm 0.00 in/hr0.0 mm/hr 0.00 in0.0 mm
05:43 PM 15.6°F-9.1°C 10.5°F-11.9°C 80% 17.0 mph WNW27.4 kmh WNW 27.0 mph43.5 kmh 29.99 in1015.6 mb 0.00 in0.0 mm 0.00 in/hr0.0 mm/hr 0.00 in0.0 mm
05:44 PM 15.5°F-9.2°C 10.4°F-12.0°C 80% 18.0 mph WNW29.0 kmh WNW 27.0 mph43.5 kmh 30.00 in1015.9 mb 0.00 in0.0 mm 0.00 in/hr0.0 mm/hr 0.00 in0.0 mm
05:45 PM 15.4°F-9.2°C 10.4°F-12.0°C 80% 16.0 mph WNW25.7 kmh WNW 27.0 mph43.5 kmh 29.99 in1015.6 mb 0.00 in0.0 mm 0.00 in/hr0.0 mm/hr 0.00 in0.0 mm
05:46 PM 15.4°F-9.2°C 10.4°F-12.0°C 80% 21.0 mph NW33.8 kmh NW 27.0 mph43.5 kmh 29.99 in1015.6 mb 0.00 in0.0 mm 0.00 in/hr0.0 mm/hr 0.00 in0.0 mm
05:47 PM 15.4°F-9.2°C 10.6°F-11.9°C 81% 20.0 mph WNW32.2 kmh WNW 27.0 mph43.5 kmh 29.99 in1015.6 mb 0.00 in0.0 mm 0.00 in/hr0.0 mm/hr 0.00 in0.0 mm
05:48 PM 15.4°F-9.2°C 10.6°F-11.9°C 81% 24.0 mph WNW38.6 kmh WNW 27.0 mph43.5 kmh 29.99 in1015.6 mb 0.00 in0.0 mm 0.00 in/hr0.0 mm/hr 0.00 in0.0 mm
05:49 PM 15.3°F-9.3°C 10.8°F-11.8°C 82% 22.0 mph WNW35.4 kmh WNW 27.0 mph43.5 kmh 29.99 in1015.6 mb 0.00 in0.0 mm 0.00 in/hr0.0 mm/hr 0.00 in0.0 mm
05:50 PM 15.3°F-9.3°C 11.1°F-11.6°C 83% 17.0 mph W27.4 kmh W 27.0 mph43.5 kmh 30.00 in1015.9 mb 0.00 in0.0 mm 0.00 in/hr0.0 mm/hr 0.00 in0.0 mm
05:51 PM 15.2°F-9.3°C 11.0°F-11.7°C 83% 19.0 mph WNW30.6 kmh WNW 27.0 mph43.5 kmh 30.00 in1015.9 mb 0.00 in0.0 mm 0.00 in/hr0.0 mm/hr 0.00 in0.0 mm
05:52 PM 15.2°F-9.3°C 11.0°F-11.7°C 83% 22.0 mph WNW35.4 kmh WNW 27.0 mph43.5 kmh 30.00 in1015.9 mb 0.00 in0.0 mm 0.00 in/hr0.0 mm/hr 0.00 in0.0 mm
05:53 PM 15.2°F-9.3°C 11.0°F-11.7°C 83% 22.0 mph WNW35.4 kmh WNW 27.0 mph43.5 kmh 30.00 in1015.9 mb 0.00 in0.0 mm 0.00 in/hr0.0 mm/hr 0.00 in0.0 mm
05:54 PM 15.2°F-9.3°C 11.0°F-11.7°C 83% 14.0 mph WNW22.5 kmh WNW 27.0 mph43.5 kmh 29.99 in1015.6 mb 0.00 in0.0 mm 0.00 in/hr0.0 mm/hr 0.00 in0.0 mm
05:55 PM 15.1°F-9.4°C 10.9°F-11.7°C 83% 25.0 mph WNW40.2 kmh WNW 27.0 mph43.5 kmh 29.99 in1015.6 mb 0.00 in0.0 mm 0.00 in/hr0.0 mm/hr 0.00 in0.0 mm
05:56 PM 15.1°F-9.4°C 10.9°F-11.7°C 83% 18.0 mph NW29.0 kmh NW 29.0 mph46.7 kmh 30.00 in1015.9 mb 0.00 in0.0 mm 0.00 in/hr0.0 mm/hr 0.00 in0.0 mm
05:57 PM 15.1°F-9.4°C 10.9°F-11.7°C 83% 22.0 mph WNW35.4 kmh WNW 29.0 mph46.7 kmh 30.00 in1015.9 mb 0.00 in0.0 mm 0.00 in/hr0.0 mm/hr 0.00 in0.0 mm
05:58 PM 15.1°F-9.4°C 10.6°F-11.9°C 82% 18.0 mph WNW29.0 kmh WNW 29.0 mph46.7 kmh 30.00 in1015.9 mb 0.00 in0.0 mm 0.00 in/hr0.0 mm/hr 0.00 in0.0 mm
05:59 PM 15.1°F-9.4°C 10.6°F-11.9°C 82% 14.0 mph WNW22.5 kmh WNW 29.0 mph46.7 kmh 30.00 in1015.9 mb 0.00 in0.0 mm 0.00 in/hr0.0 mm/hr 0.00 in0.0 mm
06:00 PM 15.1°F-9.4°C 10.6°F-11.9°C 82% 15.0 mph WSW24.1 kmh WSW 29.0 mph46.7 kmh 30.00 in1015.9 mb 0.00 in0.0 mm 0.00 in/hr0.0 mm/hr 0.00 in0.0 mm
06:01 PM 15.1°F-9.4°C 10.6°F-11.9°C 82% 16.0 mph WNW25.7 kmh WNW 29.0 mph46.7 kmh 30.00 in1015.9 mb 0.00 in0.0 mm 0.00 in/hr0.0 mm/hr 0.00 in0.0 mm
06:02 PM 15.1°F-9.4°C 10.3°F-12.1°C 81% 17.0 mph WNW27.4 kmh WNW 20.0 mph32.2 kmh 30.00 in1015.9 mb 0.00 in0.0 mm 0.00 in/hr0.0 mm/hr 0.00 in0.0 mm
06:03 PM 15.0°F-9.4°C 10.2°F-12.1°C 81% 24.0 mph NW38.6 kmh NW 24.0 mph38.6 kmh 30.00 in1015.9 mb 0.00 in0.0 mm 0.00 in/hr0.0 mm/hr 0.00 in0.0 mm
06:04 PM 15.0°F-9.4°C 10.2°F-12.1°C 81% 21.0 mph NW33.8 kmh NW 24.0 mph38.6 kmh 30.00 in1015.9 mb 0.00 in0.0 mm 0.00 in/hr0.0 mm/hr 0.00 in0.0 mm
06:05 PM 14.9°F-9.5°C 10.1°F-12.2°C 81% 18.0 mph WNW29.0 kmh WNW 24.0 mph38.6 kmh 30.00 in1015.9 mb 0.00 in0.0 mm 0.00 in/hr0.0 mm/hr 0.00 in0.0 mm
06:06 PM 14.8°F-9.6°C 10.0°F-12.2°C 81% 16.0 mph NW25.7 kmh NW 24.0 mph38.6 kmh 30.00 in1015.9 mb 0.00 in0.0 mm 0.00 in/hr0.0 mm/hr 0.00 in0.0 mm
06:07 PM 14.8°F-9.6°C 10.0°F-12.2°C 81% 14.0 mph WNW22.5 kmh WNW 24.0 mph38.6 kmh 30.00 in1015.9 mb 0.00 in0.0 mm 0.00 in/hr0.0 mm/hr 0.00 in0.0 mm
06:08 PM 14.8°F-9.6°C 10.0°F-12.2°C 81% 9.0 mph WNW14.5 kmh WNW 24.0 mph38.6 kmh 30.00 in1015.9 mb 0.00 in0.0 mm 0.00 in/hr0.0 mm/hr 0.00 in0.0 mm
06:09 PM 14.7°F-9.6°C 9.9°F-12.3°C 81% 17.0 mph WNW27.4 kmh WNW 24.0 mph38.6 kmh 30.00 in1015.9 mb 0.00 in0.0 mm 0.00 in/hr0.0 mm/hr 0.00 in0.0 mm
06:10 PM 14.6°F-9.7°C 9.8°F-12.3°C 81% 21.0 mph NW33.8 kmh NW 24.0 mph38.6 kmh 30.00 in1015.9 mb 0.00 in0.0 mm 0.00 in/hr0.0 mm/hr 0.00 in0.0 mm
06:11 PM 14.5°F-9.7°C 9.7°F-12.4°C 81% 15.0 mph WNW24.1 kmh WNW 24.0 mph38.6 kmh 30.00 in1015.9 mb 0.00 in0.0 mm 0.00 in/hr0.0 mm/hr 0.00 in0.0 mm
06:12 PM 14.5°F-9.7°C 9.7°F-12.4°C 81% 19.0 mph WNW30.6 kmh WNW 24.0 mph38.6 kmh 30.00 in1015.9 mb 0.00 in0.0 mm 0.00 in/hr0.0 mm/hr 0.00 in0.0 mm
06:13 PM 14.4°F-9.8°C 9.7°F-12.4°C 81% 17.0 mph WNW27.4 kmh WNW 24.0 mph38.6 kmh 30.00 in1015.9 mb 0.00 in0.0 mm 0.00 in/hr0.0 mm/hr 0.00 in0.0 mm
06:14 PM 14.4°F-9.8°C 9.7°F-12.4°C 81% 16.0 mph NW25.7 kmh NW 24.0 mph38.6 kmh 30.00 in1015.9 mb 0.00 in0.0 mm 0.00 in/hr0.0 mm/hr 0.00 in0.0 mm
06:15 PM 14.3°F-9.8°C 9.8°F-12.3°C 82% 12.0 mph WNW19.3 kmh WNW 24.0 mph38.6 kmh 30.01 in1016.3 mb 0.00 in0.0 mm 0.00 in/hr0.0 mm/hr 0.00 in0.0 mm
06:16 PM 14.3°F-9.8°C 9.8°F-12.3°C 82% 12.0 mph NW19.3 kmh NW 24.0 mph38.6 kmh 30.00 in1015.9 mb 0.00 in0.0 mm 0.00 in/hr0.0 mm/hr 0.00 in0.0 mm
06:17 PM 14.2°F-9.9°C 9.7°F-12.4°C 82% 16.0 mph NW25.7 kmh NW 24.0 mph38.6 kmh 30.00 in1015.9 mb 0.00 in0.0 mm 0.00 in/hr0.0 mm/hr 0.00 in0.0 mm
06:18 PM 14.1°F-9.9°C 9.6°F-12.4°C 82% 23.0 mph WNW37.0 kmh WNW 24.0 mph38.6 kmh 30.00 in1015.9 mb 0.00 in0.0 mm 0.00 in/hr0.0 mm/hr 0.00 in0.0 mm
06:19 PM 14.1°F-9.9°C 9.6°F-12.4°C 82% 22.0 mph NW35.4 kmh NW 25.0 mph40.2 kmh 30.00 in1015.9 mb 0.00 in0.0 mm 0.00 in/hr0.0 mm/hr 0.00 in0.0 mm
06:20 PM 14.1°F-9.9°C 9.6°F-12.4°C 82% 19.0 mph WNW30.6 kmh WNW 25.0 mph40.2 kmh 30.00 in1015.9 mb 0.00 in0.0 mm 0.00 in/hr0.0 mm/hr 0.00 in0.0 mm
06:21 PM 14.1°F-9.9°C 9.6°F-12.4°C 82% 17.0 mph WNW27.4 kmh WNW 25.0 mph40.2 kmh 30.00 in1015.9 mb 0.00 in0.0 mm 0.00 in/hr0.0 mm/hr 0.00 in0.0 mm
06:22 PM 14.1°F-9.9°C 9.4°F-12.6°C 81% 24.0 mph WNW38.6 kmh WNW 27.0 mph43.5 kmh 30.00 in1015.9 mb 0.00 in0.0 mm 0.00 in/hr0.0 mm/hr 0.00 in0.0 mm
06:23 PM 14.1°F-9.9°C 9.4°F-12.6°C 81% 20.0 mph NW32.2 kmh NW 27.0 mph43.5 kmh 30.00 in1015.9 mb 0.00 in0.0 mm 0.00 in/hr0.0 mm/hr 0.00 in0.0 mm
06:24 PM 14.1°F-9.9°C 9.4°F-12.6°C 81% 22.0 mph NW35.4 kmh NW 27.0 mph43.5 kmh 30.00 in1015.9 mb 0.00 in0.0 mm 0.00 in/hr0.0 mm/hr 0.00 in0.0 mm
06:25 PM 14.0°F-10.0°C 9.0°F-12.8°C 80% 19.0 mph NW30.6 kmh NW 27.0 mph43.5 kmh 30.00 in1015.9 mb 0.00 in0.0 mm 0.00 in/hr0.0 mm/hr 0.00 in0.0 mm
06:26 PM 14.0°F-10.0°C 9.0°F-12.8°C 80% 19.0 mph NW30.6 kmh NW 27.0 mph43.5 kmh 30.00 in1015.9 mb 0.00 in0.0 mm 0.00 in/hr0.0 mm/hr 0.00 in0.0 mm
06:27 PM 14.0°F-10.0°C 9.0°F-12.8°C 80% 21.0 mph NW33.8 kmh NW 27.0 mph43.5 kmh 30.00 in1015.9 mb 0.00 in0.0 mm 0.00 in/hr0.0 mm/hr 0.00 in0.0 mm
06:28 PM 14.0°F-10.0°C 9.0°F-12.8°C 80% 21.0 mph WNW33.8 kmh WNW 27.0 mph43.5 kmh 30.00 in1015.9 mb 0.00 in0.0 mm 0.00 in/hr0.0 mm/hr 0.00 in0.0 mm
06:29 PM 14.0°F-10.0°C 9.0°F-12.8°C 80% 19.0 mph WNW30.6 kmh WNW 27.0 mph43.5 kmh 30.00 in1015.9 mb 0.00 in0.0 mm 0.00 in/hr0.0 mm/hr 0.00 in0.0 mm
06:30 PM 14.0°F-10.0°C 9.0°F-12.8°C 80% 21.0 mph WNW33.8 kmh WNW 27.0 mph43.5 kmh 30.00 in1015.9 mb 0.00 in0.0 mm 0.00 in/hr0.0 mm/hr 0.00 in0.0 mm
06:31 PM 13.9°F-10.1°C 8.6°F-13.0°C 79% 17.0 mph NW27.4 kmh NW 27.0 mph43.5 kmh 30.00 in1015.9 mb 0.00 in0.0 mm 0.00 in/hr0.0 mm/hr 0.00 in0.0 mm
06:32 PM 13.9°F-10.1°C 8.6°F-13.0°C 79% 18.0 mph NW29.0 kmh NW 20.0 mph32.2 kmh 30.00 in1015.9 mb 0.00 in0.0 mm 0.00 in/hr0.0 mm/hr 0.00 in0.0 mm
06:33 PM 13.8°F-10.1°C 8.5°F-13.1°C 79% 21.0 mph NW33.8 kmh NW 25.0 mph40.2 kmh 30.00 in1015.9 mb 0.00 in0.0 mm 0.00 in/hr0.0 mm/hr 0.00 in0.0 mm
06:34 PM 13.7°F-10.2°C 8.4°F-13.1°C 79% 16.0 mph NW25.7 kmh NW 25.0 mph40.2 kmh 30.00 in1015.9 mb 0.00 in0.0 mm 0.00 in/hr0.0 mm/hr 0.00 in0.0 mm
06:35 PM 13.7°F-10.2°C 8.4°F-13.1°C 79% 24.0 mph WNW38.6 kmh WNW 26.0 mph41.8 kmh 30.01 in1016.3 mb 0.00 in0.0 mm 0.00 in/hr0.0 mm/hr 0.00 in0.0 mm
06:36 PM 13.7°F-10.2°C 8.4°F-13.1°C 79% 23.0 mph W37.0 kmh W 27.0 mph43.5 kmh 30.01 in1016.3 mb 0.00 in0.0 mm 0.00 in/hr0.0 mm/hr 0.00 in0.0 mm
06:37 PM 13.6°F-10.2°C 8.3°F-13.2°C 79% 26.0 mph WNW41.8 kmh WNW 27.0 mph43.5 kmh 30.01 in1016.3 mb 0.00 in0.0 mm 0.00 in/hr0.0 mm/hr 0.00 in0.0 mm
06:38 PM 13.6°F-10.2°C 8.3°F-13.2°C 79% 20.0 mph NW32.2 kmh NW 27.0 mph43.5 kmh 30.01 in1016.3 mb 0.00 in0.0 mm 0.00 in/hr0.0 mm/hr 0.00 in0.0 mm
06:39 PM 13.5°F-10.3°C 8.2°F-13.2°C 79% 18.0 mph WNW29.0 kmh WNW 27.0 mph43.5 kmh 30.01 in1016.3 mb 0.00 in0.0 mm 0.00 in/hr0.0 mm/hr 0.00 in0.0 mm
06:40 PM 13.5°F-10.3°C 8.2°F-13.2°C 79% 20.0 mph NW32.2 kmh NW 27.0 mph43.5 kmh 30.01 in1016.3 mb 0.00 in0.0 mm 0.00 in/hr0.0 mm/hr 0.00 in0.0 mm
06:41 PM 13.5°F-10.3°C 8.2°F-13.2°C 79% 16.0 mph NW25.7 kmh NW 27.0 mph43.5 kmh 30.01 in1016.3 mb 0.00 in0.0 mm 0.00 in/hr0.0 mm/hr 0.00 in0.0 mm
06:42 PM 13.4°F-10.3°C 8.1°F-13.3°C 79% 18.0 mph NW29.0 kmh NW 27.0 mph43.5 kmh 30.01 in1016.3 mb 0.00 in0.0 mm 0.00 in/hr0.0 mm/hr 0.00 in0.0 mm
06:43 PM 13.3°F-10.4°C 8.0°F-13.3°C 79% 18.0 mph NW29.0 kmh NW 27.0 mph43.5 kmh 30.01 in1016.3 mb 0.00 in0.0 mm 0.00 in/hr0.0 mm/hr 0.00 in0.0 mm
06:44 PM 13.2°F-10.4°C 7.9°F-13.4°C 79% 18.0 mph WNW29.0 kmh WNW 27.0 mph43.5 kmh 30.02 in1016.6 mb 0.00 in0.0 mm 0.00 in/hr0.0 mm/hr 0.00 in0.0 mm
06:45 PM 13.2°F-10.4°C 7.9°F-13.4°C 79% 21.0 mph WNW33.8 kmh WNW 27.0 mph43.5 kmh 30.02 in1016.6 mb 0.00 in0.0 mm 0.00 in/hr0.0 mm/hr 0.00 in0.0 mm
06:46 PM 13.1°F-10.5°C 7.8°F-13.4°C 79% 19.0 mph NW30.6 kmh NW 27.0 mph43.5 kmh 30.02 in1016.6 mb 0.00 in0.0 mm 0.00 in/hr0.0 mm/hr 0.00 in0.0 mm
06:47 PM 13.1°F-10.5°C 7.8°F-13.4°C 79% 18.0 mph NW29.0 kmh NW 27.0 mph43.5 kmh 30.02 in1016.6 mb 0.00 in0.0 mm 0.00 in/hr0.0 mm/hr 0.00 in0.0 mm
06:48 PM 13.0°F-10.6°C 7.7°F-13.5°C 79% 19.0 mph NW30.6 kmh NW 27.0 mph43.5 kmh 30.02 in1016.6 mb 0.00 in0.0 mm 0.00 in/hr0.0 mm/hr 0.00 in0.0 mm
06:49 PM 13.0°F-10.6°C 7.7°F-13.5°C 79% 15.0 mph WNW24.1 kmh WNW 27.0 mph43.5 kmh 30.02 in1016.6 mb 0.00 in0.0 mm 0.00 in/hr0.0 mm/hr 0.00 in0.0 mm
06:50 PM 12.9°F-10.6°C 7.9°F-13.4°C 80% 15.0 mph WNW24.1 kmh WNW 27.0 mph43.5 kmh 30.02 in1016.6 mb 0.00 in0.0 mm 0.00 in/hr0.0 mm/hr 0.00 in0.0 mm
06:51 PM 12.8°F-10.7°C 7.8°F-13.4°C 80% 23.0 mph WNW37.0 kmh WNW 27.0 mph43.5 kmh 30.02 in1016.6 mb 0.00 in0.0 mm 0.00 in/hr0.0 mm/hr 0.00 in0.0 mm
06:52 PM 12.8°F-10.7°C 7.5°F-13.6°C 79% 16.0 mph WNW25.7 kmh WNW 27.0 mph43.5 kmh 30.03 in1016.9 mb 0.00 in0.0 mm 0.00 in/hr0.0 mm/hr 0.00 in0.0 mm
06:53 PM 12.8°F-10.7°C 7.5°F-13.6°C 79% 18.0 mph WNW29.0 kmh WNW 27.0 mph43.5 kmh 30.03 in1016.9 mb 0.00 in0.0 mm 0.00 in/hr0.0 mm/hr 0.00 in0.0 mm
06:54 PM 12.8°F-10.7°C 7.3°F-13.7°C 78% 16.0 mph NW25.7 kmh NW 27.0 mph43.5 kmh 30.03 in1016.9 mb 0.00 in0.0 mm 0.00 in/hr0.0 mm/hr 0.00 in0.0 mm
06:55 PM 12.7°F-10.7°C 7.2°F-13.8°C 78% 19.0 mph NW30.6 kmh NW 27.0 mph43.5 kmh 30.03 in1016.9 mb 0.00 in0.0 mm 0.00 in/hr0.0 mm/hr 0.00 in0.0 mm
06:56 PM 12.7°F-10.7°C 7.2°F-13.8°C 78% 16.0 mph NW25.7 kmh NW 27.0 mph43.5 kmh 30.03 in1016.9 mb 0.00 in0.0 mm 0.00 in/hr0.0 mm/hr 0.00 in0.0 mm
06:57 PM 12.7°F-10.7°C 7.2°F-13.8°C 78% 16.0 mph NW25.7 kmh NW 27.0 mph43.5 kmh 30.03 in1016.9 mb 0.00 in0.0 mm 0.00 in/hr0.0 mm/hr 0.00 in0.0 mm
06:58 PM 12.7°F-10.7°C 7.2°F-13.8°C 78% 21.0 mph WNW33.8 kmh WNW 27.0 mph43.5 kmh 30.03 in1016.9 mb 0.00 in0.0 mm 0.00 in/hr0.0 mm/hr 0.00 in0.0 mm
06:59 PM 12.7°F-10.7°C 7.2°F-13.8°C 78% 16.0 mph WNW25.7 kmh WNW 27.0 mph43.5 kmh 30.04 in1017.3 mb 0.00 in0.0 mm 0.00 in/hr0.0 mm/hr 0.00 in0.0 mm
07:00 PM 12.6°F-10.8°C 7.1°F-13.8°C 78% 14.0 mph NW22.5 kmh NW 27.0 mph43.5 kmh 30.04 in1017.3 mb 0.00 in0.0 mm 0.00 in/hr0.0 mm/hr 0.00 in0.0 mm
07:01 PM 12.6°F-10.8°C 7.1°F-13.8°C 78% 12.0 mph WNW19.3 kmh WNW 27.0 mph43.5 kmh 30.04 in1017.3 mb 0.00 in0.0 mm 0.00 in/hr0.0 mm/hr 0.00 in0.0 mm
07:02 PM 12.6°F-10.8°C 7.1°F-13.8°C 78% 15.0 mph WNW24.1 kmh WNW 17.0 mph27.4 kmh 30.04 in1017.3 mb 0.00 in0.0 mm 0.00 in/hr0.0 mm/hr 0.00 in0.0 mm
07:03 PM 12.5°F-10.8°C 7.0°F-13.9°C 78% 17.0 mph NW27.4 kmh NW 17.0 mph27.4 kmh 30.04 in1017.3 mb 0.00 in0.0 mm 0.00 in/hr0.0 mm/hr 0.00 in0.0 mm
07:04 PM 12.5°F-10.8°C 7.0°F-13.9°C 78% 17.0 mph WNW27.4 kmh WNW 21.0 mph33.8 kmh 30.04 in1017.3 mb 0.00 in0.0 mm 0.00 in/hr0.0 mm/hr 0.00 in0.0 mm
07:05 PM 12.4°F-10.9°C 6.9°F-13.9°C 78% 13.0 mph W20.9 kmh W 21.0 mph33.8 kmh 30.04 in1017.3 mb 0.00 in0.0 mm 0.00 in/hr0.0 mm/hr 0.00 in0.0 mm
07:06 PM 12.4°F-10.9°C 6.9°F-13.9°C 78% 21.0 mph WNW33.8 kmh WNW 21.0 mph33.8 kmh 30.04 in1017.3 mb 0.00 in0.0 mm 0.00 in/hr0.0 mm/hr 0.00 in0.0 mm
07:07 PM 12.4°F-10.9°C 6.9°F-13.9°C 78% 14.0 mph WNW22.5 kmh WNW 22.0 mph35.4 kmh 30.04 in1017.3 mb 0.00 in0.0 mm 0.00 in/hr0.0 mm/hr 0.00 in0.0 mm
07:08 PM 12.4°F-10.9°C 6.9°F-13.9°C 78% 16.0 mph WNW25.7 kmh WNW 22.0 mph35.4 kmh 30.04 in1017.3 mb 0.00 in0.0 mm 0.00 in/hr0.0 mm/hr 0.00 in0.0 mm
07:09 PM 12.4°F-10.9°C 6.9°F-13.9°C 78% 20.0 mph NW32.2 kmh NW 24.0 mph38.6 kmh 30.05 in1017.6 mb 0.00 in0.0 mm 0.00 in/hr0.0 mm/hr 0.00 in0.0 mm
07:10 PM 12.4°F-10.9°C 6.9°F-13.9°C 78% 19.0 mph NW30.6 kmh NW 24.0 mph38.6 kmh 30.05 in1017.6 mb 0.00 in0.0 mm 0.00 in/hr0.0 mm/hr 0.00 in0.0 mm
07:11 PM 12.4°F-10.9°C 7.1°F-13.8°C 79% 17.0 mph WNW27.4 kmh WNW 24.0 mph38.6 kmh 30.05 in1017.6 mb 0.00 in0.0 mm 0.00 in/hr0.0 mm/hr 0.00 in0.0 mm
07:12 PM 12.4°F-10.9°C 7.1°F-13.8°C 79% 21.0 mph WNW33.8 kmh WNW 24.0 mph38.6 kmh 30.05 in1017.6 mb 0.00 in0.0 mm 0.00 in/hr0.0 mm/hr 0.00 in0.0 mm
07:13 PM 12.4°F-10.9°C 7.1°F-13.8°C 79% 17.0 mph W27.4 kmh W 25.0 mph40.2 kmh 30.05 in1017.6 mb 0.00 in0.0 mm 0.00 in/hr0.0 mm/hr 0.00 in0.0 mm
07:14 PM 12.4°F-10.9°C 7.1°F-13.8°C 79% 21.0 mph NW33.8 kmh NW 25.0 mph40.2 kmh 30.05 in1017.6 mb 0.00 in0.0 mm 0.00 in/hr0.0 mm/hr 0.00 in0.0 mm
07:15 PM 12.4°F-10.9°C 7.1°F-13.8°C 79% 17.0 mph NW27.4 kmh NW 25.0 mph40.2 kmh 30.05 in1017.6 mb 0.00 in0.0 mm 0.00 in/hr0.0 mm/hr 0.00 in0.0 mm
07:16 PM 12.3°F-10.9°C 7.0°F-13.9°C 79% 20.0 mph WNW32.2 kmh WNW 25.0 mph40.2 kmh 30.05 in1017.6 mb 0.00 in0.0 mm 0.00 in/hr0.0 mm/hr 0.00 in0.0 mm
07:17 PM 12.3°F-10.9°C 7.0°F-13.9°C 79% 17.0 mph W27.4 kmh W 25.0 mph40.2 kmh 30.05 in1017.6 mb 0.00 in0.0 mm 0.00 in/hr0.0 mm/hr 0.00 in0.0 mm
07:18 PM 12.2°F-11.0°C 7.0°F-13.9°C 79% 18.0 mph NW29.0 kmh NW 25.0 mph40.2 kmh 30.05 in1017.6 mb 0.00 in0.0 mm 0.00 in/hr0.0 mm/hr 0.00 in0.0 mm
07:19 PM 12.2°F-11.0°C